Darstellungsparameter: Aktuell verwendete Einstellungen:
Skalierung der Graphiken ... ?
xyx+y,   Skalierungsfaktor:      Skalierung: Modus: x, Faktor: 1
Darstellungszeitraum ... ?
Vom - - bis: - -   Zeitraum: 09.07.2009 - 08.08.2009
Min/Max/Avg-Anzeige ... ?
Zeige MMA aktuell
Zeige MMA Monat
Zeige MMA alles
Zeige --A aktuell
Zeige --A Monat
Zeige --A alles
Keine MMA-Anzeige
MMA:
Average (ber die Originaldaten)
MMA-Basis: 09.07.2009 - 08.08.2009
Quicknavigation für Darstellung... ?
Tage:      1T, 2T, 3T, 5T -1T -2T -3T -5T +1T +2T +3T +5T
Wochen: 1W, 2W, 3W -1W -2W -3W +1W +2W +3W
Monate: 1M, 3M, 6M -1M -3M -6M +1M +3M +6M
Jahre:    1J, 3J, 5J, 10J -1J -3J -5J -10J +1J +3J +5J +10J
Nutze für die Darstellung ... ?
Originaldaten oder Mittelwerte auf ...
Stundenbasis Tagesbasis Wochenbasis
Monatsbasis Jahresbasis      Datenbasis: Original-Daten
Darstellen als:
Statistik (Auto) Statistik J:M      Darstellung:
Zur Graphik,    zurück zur Übersicht aller Sensoren.
 
Tabellarische Datenbersicht: ?
 
Sensor: Nr:Datum:Temp:Abs-Feuchte:Windchill:Wind:
Aussen-T/F 1 09-07-2009 00:04:41 15.6 C 8.78 g/m*3 15.6 C 0 km/h
2 09-07-2009 00:16:41 15.6 C 8.78 g/m*3 15.6 C 0 km/h
3 09-07-2009 00:28:41 15.6 C 8.78 g/m*3 15.6 C 0 km/h
4 09-07-2009 00:40:41 15.5 C 8.99 g/m*3 15.5 C 0 km/h
5 09-07-2009 00:52:41 15.2 C 9.22 g/m*3 15.2 C 0 km/h
6 09-07-2009 01:04:41 14.8 C 9.5 g/m*3 14.8 C 0 km/h
7 09-07-2009 01:16:41 14.8 C 9.88 g/m*3 14.8 C 0 km/h
8 09-07-2009 01:28:42 14.5 C 9.83 g/m*3 14.5 C 0 km/h
9 09-07-2009 01:40:42 14.3 C 9.58 g/m*3 14.3 C 0 km/h
10 09-07-2009 01:52:42 13.8 C 9.53 g/m*3 13.8 C 0 km/h
11 09-07-2009 02:04:42 13.5 C 9.59 g/m*3 13.5 C 0 km/h
12 09-07-2009 02:16:42 13.2 C 9.53 g/m*3 13.2 C 0 km/h
13 09-07-2009 02:28:42 13.3 C 9.47 g/m*3 13.3 C 0 km/h
14 09-07-2009 02:40:42 13.5 C 9.36 g/m*3 13.5 C 0 km/h
15 09-07-2009 02:52:42 13.4 C 9.3 g/m*3 13.4 C 0 km/h
16 09-07-2009 03:04:42 13.4 C 9.42 g/m*3 13.4 C 0 km/h
17 09-07-2009 03:16:42 13.4 C 9.53 g/m*3 13.4 C 0 km/h
18 09-07-2009 03:28:42 13.4 C 9.53 g/m*3 13.4 C 0 km/h
19 09-07-2009 03:40:42 13.5 C 9.59 g/m*3 13.5 C 0 km/h
20 09-07-2009 03:52:42 13.5 C 9.71 g/m*3 13.5 C 0 km/h
21 09-07-2009 04:04:42 13.4 C 9.53 g/m*3 13.4 C 0 km/h
22 09-07-2009 04:16:42 13.4 C 9.53 g/m*3 13.4 C 0 km/h
23 09-07-2009 04:28:42 13.4 C 9.53 g/m*3 13.4 C 0 km/h
24 09-07-2009 04:40:42 13.3 C 9.47 g/m*3 13.3 C 0 km/h
25 09-07-2009 04:52:42 13.2 C 9.42 g/m*3 13.2 C 0 km/h
Sensor: Nr:Datum:Temp:Abs-Feuchte:Windchill:Wind:
Aussen-T/F 26 09-07-2009 05:04:42 13.2 C 9.3 g/m*3 13.2 C 0 km/h
27 09-07-2009 05:16:42 13.2 C 9.07 g/m*3 13.2 C 0 km/h
28 09-07-2009 05:28:42 13.1 C 8.9 g/m*3 13.1 C 0 km/h
29 09-07-2009 05:40:43 13.1 C 8.9 g/m*3 13.1 C 0 km/h
30 09-07-2009 05:52:43 13.1 C 8.67 g/m*3 13.1 C 0 km/h
31 09-07-2009 06:04:43 13.1 C 8.44 g/m*3 13.1 C 0 km/h
32 09-07-2009 06:16:43 13.2 C 8.38 g/m*3 13.2 C 0 km/h
33 09-07-2009 06:28:43 13.2 C 8.38 g/m*3 13.2 C 0 km/h
34 09-07-2009 06:40:43 13.3 C 8.43 g/m*3 13.3 C 0 km/h
35 09-07-2009 06:52:43 13.4 C 8.37 g/m*3 13.4 C 0 km/h
36 09-07-2009 07:04:40 13.5 C 8.54 g/m*3 13.5 C 0 km/h
37 09-07-2009 07:16:41 13.7 C 8.76 g/m*3 13.7 C 0 km/h
38 09-07-2009 07:28:41 13.6 C 8.71 g/m*3 13.6 C 0 km/h
39 09-07-2009 07:40:40 13.5 C 8.66 g/m*3 13.5 C 0 km/h
40 09-07-2009 07:52:40 13.6 C 8.83 g/m*3 13.6 C 0 km/h
41 09-07-2009 08:04:40 13.9 C 8.99 g/m*3 13.9 C 0 km/h
42 09-07-2009 08:16:40 14.3 C 9.09 g/m*3 14.3 C 0 km/h
43 09-07-2009 08:28:40 14.7 C 9.07 g/m*3 14.7 C 0 km/h
44 09-07-2009 08:40:39 15.1 C 8.9 g/m*3 15.1 C 0 km/h
45 09-07-2009 08:52:40 15.2 C 8.83 g/m*3 15.2 C 0 km/h
46 09-07-2009 09:04:39 15.1 C 8.64 g/m*3 15.1 C 0 km/h
47 09-07-2009 09:16:39 14.4 C 8.78 g/m*3 14.4 C 0 km/h
48 09-07-2009 09:28:39 14.1 C 8.74 g/m*3 14.1 C 0 km/h
49 09-07-2009 09:40:39 14.2 C 8.67 g/m*3 14.2 C 0 km/h
50 09-07-2009 09:52:39 14.8 C 8.74 g/m*3 14.8 C 0 km/h
Sensor: Nr:Datum:Temp:Abs-Feuchte:Windchill:Wind:
Aussen-T/F 51 09-07-2009 10:04:39 15 C 8.59 g/m*3 15 C 0 km/h
52 09-07-2009 10:16:38 15.5 C 8.59 g/m*3 15.5 C 0 km/h
53 09-07-2009 10:28:38 16.1 C 8.36 g/m*3 16.1 C 0 km/h
54 09-07-2009 10:40:39 16.8 C 7.72 g/m*3 16.8 C 0 km/h
55 09-07-2009 10:52:38 16.8 C 7.43 g/m*3 16.8 C 0 km/h
56 09-07-2009 11:04:38 16.7 C 6.82 g/m*3 16.7 C 0 km/h
57 09-07-2009 11:16:38 17.1 C 6.99 g/m*3 17.1 C 0 km/h
58 09-07-2009 11:28:38 17.1 C 6.7 g/m*3 17.1 C 0 km/h
59 09-07-2009 11:40:38 17.6 C 6.75 g/m*3 17.6 C 0 km/h
60 09-07-2009 11:52:38 18.7 C 6.24 g/m*3 18.7 C 0 km/h
61 09-07-2009 12:04:37 19.6 C 6.25 g/m*3 19.6 C 0 km/h
62 09-07-2009 12:16:38 20.5 C 6.05 g/m*3 20.5 C 0 km/h
63 09-07-2009 12:28:38 20.3 C 6.16 g/m*3 20.3 C 0 km/h
64 09-07-2009 12:40:37 19.9 C 5.84 g/m*3 19.9 C 0 km/h
65 09-07-2009 12:52:37 19.1 C 6.07 g/m*3 19.1 C 0 km/h
66 09-07-2009 13:04:37 18.7 C 5.92 g/m*3 18.7 C 0 km/h
67 09-07-2009 13:16:37 20.3 C 7.21 g/m*3 20.3 C 0 km/h
68 09-07-2009 13:28:37 22.5 C 5.79 g/m*3 22.5 C 0 km/h
69 09-07-2009 13:40:37 20.9 C 5.65 g/m*3 20.9 C 0 km/h
70 09-07-2009 13:52:37 20.8 C 6.34 g/m*3 20.8 C 0 km/h
71 09-07-2009 14:04:37 21.7 C 5.53 g/m*3 21.7 C 0 km/h
72 09-07-2009 14:16:36 21.3 C 5.59 g/m*3 21.3 C 0 km/h
73 09-07-2009 14:28:36 21.5 C 5.66 g/m*3 21.5 C 0 km/h
74 09-07-2009 14:40:36 21.9 C 6.18 g/m*3 21.9 C 0 km/h
75 09-07-2009 14:52:36 21.4 C 5.81 g/m*3 21.4 C 0 km/h
Sensor: Nr:Datum:Temp:Abs-Feuchte:Windchill:Wind:
Aussen-T/F 76 09-07-2009 15:04:36 21.2 C 5.74 g/m*3 21.2 C 0 km/h
77 09-07-2009 15:16:35 21.5 C 6.22 g/m*3 21.5 C 0 km/h
78 09-07-2009 15:28:35 22.7 C 5.86 g/m*3 22.7 C 0 km/h
79 09-07-2009 15:40:36 23.3 C 5.44 g/m*3 23.3 C 0 km/h
80 09-07-2009 15:52:35 23.2 C 5.82 g/m*3 23.2 C 0 km/h
81 09-07-2009 16:04:35 23.4 C 5.68 g/m*3 23.4 C 0 km/h
82 09-07-2009 16:16:36 22.9 C 5.72 g/m*3 22.9 C 0 km/h
83 09-07-2009 16:28:36 23 C 5.96 g/m*3 23 C 0 km/h
84 09-07-2009 16:40:35 23.6 C 5.96 g/m*3 23.6 C 0 km/h
85 09-07-2009 16:52:35 22.8 C 5.89 g/m*3 22.8 C 0 km/h
86 09-07-2009 17:04:35 22.1 C 6.05 g/m*3 22.1 C 0 km/h
87 09-07-2009 17:16:35 22 C 5.82 g/m*3 22 C 0 km/h
88 09-07-2009 17:28:35 22 C 6.02 g/m*3 22 C 0 km/h
89 09-07-2009 17:40:34 22.4 C 6.36 g/m*3 22.4 C 0 km/h
90 09-07-2009 17:52:34 21.5 C 6.6 g/m*3 21.5 C 0 km/h
91 09-07-2009 18:04:35 21 C 6.96 g/m*3 21 C 0 km/h
92 09-07-2009 18:16:34 19.2 C 7.09 g/m*3 19.2 C 0 km/h
93 09-07-2009 18:28:34 18.8 C 7.57 g/m*3 18.8 C 0 km/h
94 09-07-2009 18:40:34 18.1 C 7.88 g/m*3 18.1 C 0 km/h
95 09-07-2009 18:52:34 17.2 C 8.05 g/m*3 17.2 C 0 km/h
96 09-07-2009 19:04:34 16.1 C 8.91 g/m*3 16.1 C 0 km/h
97 09-07-2009 19:16:33 15.2 C 9.48 g/m*3 15.2 C 0 km/h
98 09-07-2009 19:28:33 14.6 C 9.64 g/m*3 14.6 C 0 km/h
99 09-07-2009 19:40:33 14.4 C 9.64 g/m*3 14.4 C 0 km/h
100 09-07-2009 19:52:33 14.5 C 9.83 g/m*3 14.5 C 0 km/h
Sensor: Nr:Datum:Temp:Abs-Feuchte:Windchill:Wind:
Aussen-T/F 101 09-07-2009 20:04:33 14.4 C 9.39 g/m*3 14.4 C 0 km/h
102 09-07-2009 20:16:33 14.5 C 9.83 g/m*3 14.5 C 0 km/h
103 09-07-2009 20:28:33 14.5 C 9.83 g/m*3 14.5 C 0 km/h
104 09-07-2009 20:40:33 14.6 C 10.01 g/m*3 14.6 C 0 km/h
105 09-07-2009 20:52:33 14.3 C 9.95 g/m*3 14.3 C 0 km/h
106 09-07-2009 21:04:33 14.1 C 9.95 g/m*3 14.1 C 0 km/h
107 09-07-2009 21:16:32 14.1 C 9.95 g/m*3 14.1 C 0 km/h
108 09-07-2009 21:28:32 14.1 C 9.59 g/m*3 14.1 C 0 km/h
109 09-07-2009 21:40:32 14.2 C 9.28 g/m*3 14.2 C 0 km/h
110 09-07-2009 21:52:32 14.2 C 9.04 g/m*3 14.2 C 0 km/h
111 09-07-2009 22:04:32 14.4 C 9.02 g/m*3 14.4 C 0 km/h
112 09-07-2009 22:16:32 14.3 C 8.97 g/m*3 14.3 C 0 km/h
113 09-07-2009 22:28:32 14.4 C 8.9 g/m*3 14.4 C 0 km/h
114 09-07-2009 22:40:31 14.1 C 8.86 g/m*3 14.1 C 0 km/h
115 09-07-2009 22:53:33 14.1 C 8.74 g/m*3 14.1 C 0 km/h
116 09-07-2009 23:05:33 14.3 C 8.72 g/m*3 14.3 C 0 km/h
117 09-07-2009 23:17:33 14.7 C 9.07 g/m*3 14.7 C 0 km/h
118 09-07-2009 23:29:33 14.5 C 8.95 g/m*3 14.5 C 0 km/h
119 09-07-2009 23:41:33 14.1 C 8.86 g/m*3 14.1 C 0 km/h
120 09-07-2009 23:53:33 13.8 C 9.06 g/m*3 13.8 C 0 km/h
121 10-07-2009 00:05:33 13.7 C 8.76 g/m*3 13.7 C 0 km/h
122 10-07-2009 00:17:33 13.6 C 8.59 g/m*3 13.6 C 0 km/h
123 10-07-2009 00:29:33 13.5 C 8.66 g/m*3 13.5 C 0 km/h
124 10-07-2009 00:41:33 13.2 C 8.61 g/m*3 13.2 C 0 km/h
125 10-07-2009 00:53:33 13.2 C 8.61 g/m*3 13.2 C 0 km/h
Sensor: Nr:Datum:Temp:Abs-Feuchte:Windchill:Wind:
Aussen-T/F 126 10-07-2009 01:05:33 13.4 C 8.6 g/m*3 13.4 C 0 km/h
127 10-07-2009 01:17:34 13.4 C 8.6 g/m*3 13.4 C 0 km/h
128 10-07-2009 01:29:34 13.4 C 8.6 g/m*3 13.4 C 0 km/h
129 10-07-2009 01:41:34 13.2 C 8.38 g/m*3 13.2 C 0 km/h
130 10-07-2009 01:53:34 13 C 8.39 g/m*3 13 C 0 km/h
131 10-07-2009 02:05:34 13.2 C 8.61 g/m*3 13.2 C 0 km/h
132 10-07-2009 02:17:34 13.3 C 8.55 g/m*3 13.3 C 0 km/h
133 10-07-2009 02:29:34 13.3 C 8.55 g/m*3 13.3 C 0 km/h
134 10-07-2009 02:41:34 13.4 C 8.6 g/m*3 13.4 C 0 km/h
135 10-07-2009 02:53:34 13.2 C 8.61 g/m*3 13.2 C 0 km/h
136 10-07-2009 03:05:34 13.2 C 8.73 g/m*3 13.2 C 0 km/h
137 10-07-2009 03:17:34 13.3 C 8.66 g/m*3 13.3 C 0 km/h
138 10-07-2009 03:29:34 13.4 C 8.6 g/m*3 13.4 C 0 km/h
139 10-07-2009 03:41:34 13.4 C 8.49 g/m*3 13.4 C 0 km/h
140 10-07-2009 03:53:34 13.5 C 8.54 g/m*3 13.5 C 0 km/h
141 10-07-2009 04:05:34 13.5 C 8.54 g/m*3 13.5 C 0 km/h
142 10-07-2009 04:17:34 13.5 C 8.54 g/m*3 13.5 C 0 km/h
143 10-07-2009 04:29:34 13.5 C 8.66 g/m*3 13.5 C 0 km/h
144 10-07-2009 04:41:34 13.5 C 8.66 g/m*3 13.5 C 0 km/h
145 10-07-2009 04:53:34 13.4 C 8.72 g/m*3 13.4 C 0 km/h
146 10-07-2009 05:05:34 13.4 C 8.6 g/m*3 13.4 C 0 km/h
147 10-07-2009 05:17:34 13.3 C 8.66 g/m*3 13.3 C 0 km/h
148 10-07-2009 05:29:35 13.2 C 8.73 g/m*3 13.2 C 0 km/h
149 10-07-2009 05:41:35 13.1 C 8.56 g/m*3 13.1 C 0 km/h
150 10-07-2009 05:53:35 12.9 C 8.68 g/m*3 12.9 C 0 km/h
Sensor: Nr:Datum:Temp:Abs-Feuchte:Windchill:Wind:
Aussen-T/F 151 10-07-2009 06:05:35 13 C 8.62 g/m*3 13 C 0 km/h
152 10-07-2009 06:17:35 13.1 C 8.44 g/m*3 13.1 C 0 km/h
153 10-07-2009 06:29:35 13.2 C 8.38 g/m*3 13.2 C 0 km/h
154 10-07-2009 06:41:35 13.2 C 8.38 g/m*3 13.2 C 0 km/h
155 10-07-2009 06:53:35 13.2 C 8.38 g/m*3 13.2 C 0 km/h
156 10-07-2009 07:05:32 13.2 C 8.27 g/m*3 13.2 C 0 km/h
157 10-07-2009 07:17:32 13.2 C 8.38 g/m*3 13.2 C 0 km/h
158 10-07-2009 07:29:32 13.4 C 8.49 g/m*3 13.4 C 0 km/h
159 10-07-2009 07:41:31 13.3 C 8.2 g/m*3 13.3 C 0 km/h
160 10-07-2009 07:53:32 13.4 C 8.02 g/m*3 13.4 C 0 km/h
161 10-07-2009 08:05:31 13.4 C 8.02 g/m*3 13.4 C 0 km/h
162 10-07-2009 08:17:31 13.5 C 8.07 g/m*3 13.5 C 0 km/h
163 10-07-2009 08:29:32 13.5 C 8.07 g/m*3 13.5 C 0 km/h
164 10-07-2009 08:41:31 14.2 C 8.18 g/m*3 14.2 C 0 km/h
165 10-07-2009 08:53:31 14.2 C 8.06 g/m*3 14.2 C 0 km/h
166 10-07-2009 09:05:31 14.7 C 8.18 g/m*3 14.7 C 0 km/h
167 10-07-2009 09:17:31 14.8 C 7.85 g/m*3 14.8 C 0 km/h
168 10-07-2009 09:29:31 15.1 C 7.87 g/m*3 15.1 C 0 km/h
169 10-07-2009 09:41:31 15.7 C 8.3 g/m*3 15.7 C 0 km/h
170 10-07-2009 09:53:30 16.2 C 7.45 g/m*3 16.2 C 0 km/h
171 10-07-2009 10:05:30 15.8 C 7.81 g/m*3 15.8 C 0 km/h
172 10-07-2009 10:17:30 16.3 C 7.77 g/m*3 16.3 C 0 km/h
173 10-07-2009 10:29:30 16 C 7.77 g/m*3 16 C 0 km/h
174 10-07-2009 10:41:30 15.8 C 8.21 g/m*3 15.8 C 0 km/h
175 10-07-2009 10:53:29 15.6 C 7.45 g/m*3 15.6 C 0 km/h
Sensor: Nr:Datum:Temp:Abs-Feuchte:Windchill:Wind:
Aussen-T/F 176 10-07-2009 11:05:30 15.6 C 7.05 g/m*3 15.6 C 0 km/h
177 10-07-2009 11:17:30 15.9 C 7.18 g/m*3 15.9 C 0 km/h
178 10-07-2009 11:29:30 14.3 C 7.74 g/m*3 14.3 C 0 km/h
179 10-07-2009 11:41:29 15.2 C 8.44 g/m*3 15.2 C 0 km/h
180 10-07-2009 11:53:29 17.4 C 8.6 g/m*3 17.4 C 0 km/h
181 10-07-2009 12:05:29 18 C 7.22 g/m*3 18 C 0 km/h
182 10-07-2009 12:17:29 18.3 C 7.19 g/m*3 18.3 C 0 km/h
183 10-07-2009 12:29:29 17.5 C 6.26 g/m*3 17.5 C 0 km/h
184 10-07-2009 12:41:28 17.5 C 6.26 g/m*3 17.5 C 0 km/h
185 10-07-2009 12:53:29 17.5 C 6.11 g/m*3 17.5 C 0 km/h
186 10-07-2009 13:05:29 17.3 C 6.04 g/m*3 17.3 C 0 km/h
187 10-07-2009 13:17:28 16.8 C 6.43 g/m*3 16.8 C 0 km/h
188 10-07-2009 13:29:28 16.8 C 6.43 g/m*3 16.8 C 0 km/h
189 10-07-2009 13:41:28 17.6 C 6.3 g/m*3 17.6 C 0 km/h
190 10-07-2009 13:53:28 17.9 C 6.11 g/m*3 17.9 C 0 km/h
191 10-07-2009 14:05:28 17.9 C 6.11 g/m*3 17.9 C 0 km/h
192 10-07-2009 14:17:27 17.8 C 6.22 g/m*3 17.8 C 0 km/h
193 10-07-2009 14:29:27 17.8 C 6.07 g/m*3 17.8 C 0 km/h
194 10-07-2009 14:41:28 17.7 C 6.19 g/m*3 17.7 C 0 km/h
195 10-07-2009 14:53:27 17.3 C 5.89 g/m*3 17.3 C 0 km/h
196 10-07-2009 15:05:27 17.2 C 5.86 g/m*3 17.2 C 0 km/h
197 10-07-2009 15:17:27 17.2 C 6 g/m*3 17.2 C 0 km/h
198 10-07-2009 15:29:27 17.2 C 6 g/m*3 17.2 C 0 km/h
199 10-07-2009 15:41:27 17.1 C 5.97 g/m*3 17.1 C 0 km/h
200 10-07-2009 15:53:27 17.4 C 6.37 g/m*3 17.4 C 0 km/h
Sensor: Nr:Datum:Temp:Abs-Feuchte:Windchill:Wind:
Aussen-T/F 201 10-07-2009 16:05:26 17 C 6.08 g/m*3 17 C 0 km/h
202 10-07-2009 16:17:27 17 C 5.93 g/m*3 17 C 0 km/h
203 10-07-2009 16:29:27 17.1 C 6.26 g/m*3 17.1 C 0 km/h
204 10-07-2009 16:41:27 15.8 C 7 g/m*3 15.8 C 0 km/h
205 10-07-2009 16:53:26 15.8 C 6.87 g/m*3 15.8 C 0 km/h
206 10-07-2009 17:05:27 16.3 C 6.66 g/m*3 16.3 C 0 km/h
207 10-07-2009 17:17:26 16.5 C 6.32 g/m*3 16.5 C 0 km/h
208 10-07-2009 17:29:26 16.6 C 6.36 g/m*3 16.6 C 0 km/h
209 10-07-2009 17:41:26 16.6 C 6.36 g/m*3 16.6 C 0 km/h
210 10-07-2009 17:53:26 16.6 C 6.5 g/m*3 16.6 C 0 km/h
211 10-07-2009 18:05:26 16.5 C 6.46 g/m*3 16.5 C 0 km/h
212 10-07-2009 18:17:25 16.5 C 6.46 g/m*3 16.5 C 0 km/h
213 10-07-2009 18:29:25 16.5 C 6.6 g/m*3 16.5 C 0 km/h
214 10-07-2009 18:41:25 16.5 C 6.6 g/m*3 16.5 C 0 km/h
215 10-07-2009 18:53:25 16.6 C 6.64 g/m*3 16.6 C 0 km/h
216 10-07-2009 19:05:25 16.5 C 6.74 g/m*3 16.5 C 0 km/h
217 10-07-2009 19:17:25 16.6 C 6.78 g/m*3 16.6 C 0 km/h
218 10-07-2009 19:29:25 16.7 C 6.96 g/m*3 16.7 C 0 km/h
219 10-07-2009 19:41:24 16.6 C 6.78 g/m*3 16.6 C 0 km/h
220 10-07-2009 19:53:25 16.6 C 6.92 g/m*3 16.6 C 0 km/h
221 10-07-2009 20:05:24 16.6 C 6.78 g/m*3 16.6 C 0 km/h
222 10-07-2009 20:17:24 16.6 C 6.78 g/m*3 16.6 C 0 km/h
223 10-07-2009 20:29:24 16.6 C 6.78 g/m*3 16.6 C 0 km/h
224 10-07-2009 20:41:25 16.4 C 6.98 g/m*3 16.4 C 0 km/h
225 10-07-2009 20:53:24 16.1 C 7.26 g/m*3 16.1 C 0 km/h
Sensor: Nr:Datum:Temp:Abs-Feuchte:Windchill:Wind:
Aussen-T/F 226 10-07-2009 21:05:24 15.7 C 7.89 g/m*3 15.7 C 0 km/h
227 10-07-2009 21:17:23 15.4 C 8.15 g/m*3 15.4 C 0 km/h
228 10-07-2009 21:29:23 15.2 C 8.18 g/m*3 15.2 C 0 km/h
229 10-07-2009 21:41:24 15.1 C 8.26 g/m*3 15.1 C 0 km/h
230 10-07-2009 21:53:23 15 C 8.46 g/m*3 15 C 0 km/h
231 10-07-2009 22:05:23 14.8 C 8.49 g/m*3 14.8 C 0 km/h
232 10-07-2009 22:18:24 14.8 C 8.61 g/m*3 14.8 C 0 km/h
233 10-07-2009 22:30:24 14.8 C 8.61 g/m*3 14.8 C 0 km/h
234 10-07-2009 22:42:24 14.6 C 8.63 g/m*3 14.6 C 0 km/h
235 10-07-2009 22:54:24 14.7 C 8.69 g/m*3 14.7 C 0 km/h
236 10-07-2009 23:06:24 14.8 C 8.74 g/m*3 14.8 C 0 km/h
237 10-07-2009 23:18:24 14.3 C 8.48 g/m*3 14.3 C 0 km/h
238 10-07-2009 23:30:24 14.2 C 8.55 g/m*3 14.2 C 0 km/h
239 10-07-2009 23:42:24 14.3 C 8.6 g/m*3 14.3 C 0 km/h
240 10-07-2009 23:54:25 14.3 C 8.48 g/m*3 14.3 C 0 km/h
241 11-07-2009 00:06:25 14.2 C 8.43 g/m*3 14.2 C 0 km/h
242 11-07-2009 00:18:25 14.1 C 8.25 g/m*3 14.1 C 0 km/h
243 11-07-2009 00:30:25 14.2 C 8.3 g/m*3 14.2 C 0 km/h
244 11-07-2009 00:42:25 14.2 C 8.3 g/m*3 14.2 C 0 km/h
245 11-07-2009 00:54:25 14.1 C 8.25 g/m*3 14.1 C 0 km/h
246 11-07-2009 01:06:25 14.1 C 8.25 g/m*3 14.1 C 0 km/h
247 11-07-2009 01:18:25 14.1 C 8.25 g/m*3 14.1 C 0 km/h
248 11-07-2009 01:30:25 14.2 C 8.43 g/m*3 14.2 C 0 km/h
249 11-07-2009 01:42:25 14.1 C 8.13 g/m*3 14.1 C 0 km/h
250 11-07-2009 01:54:25 14.1 C 8.25 g/m*3 14.1 C 0 km/h
Sensor: Nr:Datum:Temp:Abs-Feuchte:Windchill:Wind:
Aussen-T/F 251 11-07-2009 02:06:25 14.1 C 8.5 g/m*3 14.1 C 0 km/h
252 11-07-2009 02:18:25 14.1 C 8.62 g/m*3 14.1 C 0 km/h
253 11-07-2009 02:30:25 14.1 C 8.5 g/m*3 14.1 C 0 km/h
254 11-07-2009 02:42:25 14.1 C 8.37 g/m*3 14.1 C 0 km/h
255 11-07-2009 02:54:25 14 C 8.32 g/m*3 14 C 0 km/h
256 11-07-2009 03:06:25 14 C 8.32 g/m*3 14 C 0 km/h
257 11-07-2009 03:18:25 14 C 8.32 g/m*3 14 C 0 km/h
258 11-07-2009 03:30:25 13.9 C 8.51 g/m*3 13.9 C 0 km/h
259 11-07-2009 03:42:25 13.8 C 8.58 g/m*3 13.8 C 0 km/h
260 11-07-2009 03:54:25 13.7 C 8.64 g/m*3 13.7 C 0 km/h
261 11-07-2009 04:06:26 13.8 C 8.7 g/m*3 13.8 C 0 km/h
262 11-07-2009 04:18:26 13.9 C 8.51 g/m*3 13.9 C 0 km/h
263 11-07-2009 04:30:26 13.9 C 8.39 g/m*3 13.9 C 0 km/h
264 11-07-2009 04:42:26 13.9 C 8.63 g/m*3 13.9 C 0 km/h
265 11-07-2009 04:54:26 13.8 C 8.34 g/m*3 13.8 C 0 km/h
266 11-07-2009 05:06:26 13.8 C 8.22 g/m*3 13.8 C 0 km/h
267 11-07-2009 05:18:26 13.7 C 8.29 g/m*3 13.7 C 0 km/h
268 11-07-2009 05:30:26 13.6 C 8.47 g/m*3 13.6 C 0 km/h
269 11-07-2009 05:42:26 13.5 C 8.42 g/m*3 13.5 C 0 km/h
270 11-07-2009 05:54:26 13.6 C 8.12 g/m*3 13.6 C 0 km/h
271 11-07-2009 06:06:26 13.8 C 8.22 g/m*3 13.8 C 0 km/h
272 11-07-2009 06:18:26 13.8 C 8.34 g/m*3 13.8 C 0 km/h
273 11-07-2009 06:30:26 13.7 C 8.29 g/m*3 13.7 C 0 km/h
274 11-07-2009 06:42:26 13.7 C 8.41 g/m*3 13.7 C 0 km/h
275 11-07-2009 06:54:26 13.8 C 8.46 g/m*3 13.8 C 0 km/h
Sensor: Nr:Datum:Temp:Abs-Feuchte:Windchill:Wind:
Aussen-T/F 276 11-07-2009 07:06:26 14 C 8.44 g/m*3 14 C 0 km/h
277 11-07-2009 07:18:26 14 C 8.44 g/m*3 14 C 0 km/h
278 11-07-2009 07:30:26 14.1 C 8.5 g/m*3 14.1 C 0 km/h
279 11-07-2009 07:42:26 14.2 C 8.43 g/m*3 14.2 C 0 km/h
280 11-07-2009 07:54:26 14.5 C 8.58 g/m*3 14.5 C 0 km/h
281 11-07-2009 08:06:27 14.8 C 8.49 g/m*3 14.8 C 0 km/h
282 11-07-2009 08:18:27 15.2 C 8.31 g/m*3 15.2 C 0 km/h
283 11-07-2009 08:30:23 15.5 C 8.2 g/m*3 15.5 C 0 km/h
284 11-07-2009 08:42:23 15.7 C 8.03 g/m*3 15.7 C 0 km/h
285 11-07-2009 08:54:23 16 C 7.77 g/m*3 16 C 0 km/h
286 11-07-2009 09:06:23 16 C 7.63 g/m*3 16 C 0 km/h
287 11-07-2009 09:18:23 16.1 C 7.81 g/m*3 16.1 C 0 km/h
288 11-07-2009 09:30:22 16.4 C 7.82 g/m*3 16.4 C 0 km/h
289 11-07-2009 09:42:22 16.5 C 7.72 g/m*3 16.5 C 0 km/h
290 11-07-2009 09:54:23 16.9 C 7.77 g/m*3 16.9 C 0 km/h
291 11-07-2009 10:06:22 17.4 C 7.85 g/m*3 17.4 C 0 km/h
292 11-07-2009 10:18:22 17.6 C 7.8 g/m*3 17.6 C 0 km/h
293 11-07-2009 10:30:22 18.2 C 7.77 g/m*3 18.2 C 0 km/h
294 11-07-2009 10:42:22 17.9 C 7.94 g/m*3 17.9 C 0 km/h
295 11-07-2009 10:54:22 18.7 C 7.84 g/m*3 18.7 C 0 km/h
296 11-07-2009 11:06:22 19.1 C 7.7 g/m*3 19.1 C 0 km/h
297 11-07-2009 11:18:21 19.8 C 8.03 g/m*3 19.8 C 0 km/h
298 11-07-2009 11:30:22 18.9 C 7.61 g/m*3 18.9 C 0 km/h
299 11-07-2009 11:42:22 18.6 C 7.96 g/m*3 18.6 C 0 km/h
300 11-07-2009 11:54:21 19.6 C 7.77 g/m*3 19.6 C 0 km/h
Sensor: Nr:Datum:Temp:Abs-Feuchte:Windchill:Wind:
Aussen-T/F 301 11-07-2009 12:06:21 19.4 C 7.51 g/m*3 19.4 C 0 km/h
302 11-07-2009 12:18:22 19.8 C 8.2 g/m*3 19.8 C 0 km/h
303 11-07-2009 12:30:21 20.7 C 7.56 g/m*3 20.7 C 0 km/h
304 11-07-2009 12:42:21 20.8 C 7.42 g/m*3 20.8 C 0 km/h
305 11-07-2009 12:54:21 20.1 C 7.47 g/m*3 20.1 C 0 km/h
306 11-07-2009 13:06:02 21.8 C 7.87 g/m*3 21.8 C 0 km/h
307 11-07-2009 13:18:02 20.4 C 7.25 g/m*3 20.4 C 0 km/h
308 11-07-2009 13:30:02 21.6 C 7.59 g/m*3 21.6 C 0 km/h
309 11-07-2009 13:42:02 20.3 C 7.56 g/m*3 20.3 C 0 km/h
310 11-07-2009 13:54:01 20.3 C 7.91 g/m*3 20.3 C 0 km/h
311 11-07-2009 14:06:01 20.7 C 7.38 g/m*3 20.7 C 0 km/h
312 11-07-2009 14:18:01 20.3 C 7.39 g/m*3 20.3 C 0 km/h
313 11-07-2009 14:30:01 20.4 C 7.43 g/m*3 20.4 C 0 km/h
314 11-07-2009 14:42:01 20.4 C 7.25 g/m*3 20.4 C 0 km/h
315 11-07-2009 14:54:00 20.4 C 7.43 g/m*3 20.4 C 0 km/h
316 11-07-2009 15:06:01 20.2 C 7.52 g/m*3 20.2 C 0 km/h
317 11-07-2009 15:18:01 19.7 C 7.47 g/m*3 19.7 C 0 km/h
318 11-07-2009 15:30:01 20.3 C 7.56 g/m*3 20.3 C 0 km/h
319 11-07-2009 15:42:00 20.8 C 7.42 g/m*3 20.8 C 0 km/h
320 11-07-2009 15:54:01 21 C 7.14 g/m*3 21 C 0 km/h
321 11-07-2009 16:06:00 20.6 C 7.52 g/m*3 20.6 C 0 km/h
322 11-07-2009 16:18:00 21 C 7.51 g/m*3 21 C 0 km/h
323 11-07-2009 16:30:00 21.3 C 7.27 g/m*3 21.3 C 0 km/h
324 11-07-2009 16:42:59 20.8 C 7.42 g/m*3 20.8 C 0 km/h
325 11-07-2009 16:54:00 21.4 C 7.5 g/m*3 21.4 C 0 km/h
Sensor: Nr:Datum:Temp:Abs-Feuchte:Windchill:Wind:
Aussen-T/F 326 11-07-2009 17:06:59 21 C 7.33 g/m*3 21 C 0 km/h
327 11-07-2009 17:18:59 20.8 C 7.6 g/m*3 20.8 C 0 km/h
328 11-07-2009 17:30:59 20.4 C 7.43 g/m*3 20.4 C 0 km/h
329 11-07-2009 17:41:59 20.1 C 7.3 g/m*3 20.1 C 0 km/h
330 11-07-2009 17:54:59 20.4 C 7.43 g/m*3 20.4 C 0 km/h
331 11-07-2009 18:06:59 20.3 C 7.56 g/m*3 20.3 C 0 km/h
332 11-07-2009 18:18:58 21 C 7.51 g/m*3 21 C 0 km/h
333 11-07-2009 18:30:59 21.4 C 7.5 g/m*3 21.4 C 0 km/h
334 11-07-2009 18:42:59 21.1 C 7.37 g/m*3 21.1 C 0 km/h
335 11-07-2009 18:54:58 22.7 C 7.48 g/m*3 22.7 C 0 km/h
336 11-07-2009 19:06:58 22.1 C 7.22 g/m*3 22.1 C 0 km/h
337 11-07-2009 19:18:59 21.3 C 7.64 g/m*3 21.3 C 0 km/h
338 11-07-2009 19:30:58 21 C 7.51 g/m*3 21 C 0 km/h
339 11-07-2009 19:42:58 21.1 C 7.74 g/m*3 21.1 C 0 km/h
340 11-07-2009 19:54:58 20.4 C 7.78 g/m*3 20.4 C 0 km/h
341 11-07-2009 20:06:57 20.2 C 7.69 g/m*3 20.2 C 0 km/h
342 11-07-2009 20:18:58 20.3 C 7.91 g/m*3 20.3 C 0 km/h
343 11-07-2009 20:30:57 20 C 7.95 g/m*3 20 C 0 km/h
344 11-07-2009 20:42:57 20 C 7.95 g/m*3 20 C 0 km/h
345 11-07-2009 20:54:57 19.6 C 8.1 g/m*3 19.6 C 0 km/h
346 11-07-2009 21:06:57 19.3 C 8.13 g/m*3 19.3 C 0 km/h
347 11-07-2009 21:18:57 19.1 C 8.2 g/m*3 19.1 C 0 km/h
348 11-07-2009 21:30:57 18.8 C 8.21 g/m*3 18.8 C 0 km/h
349 11-07-2009 21:42:57 18.7 C 8.33 g/m*3 18.7 C 0 km/h
350 11-07-2009 21:54:56 18.6 C 8.44 g/m*3 18.6 C 0 km/h
Sensor: Nr:Datum:Temp:Abs-Feuchte:Windchill:Wind:
Aussen-T/F 351 11-07-2009 22:07:21 18.3 C 8.29 g/m*3 18.3 C 0 km/h
352 11-07-2009 22:19:21 18.1 C 8.34 g/m*3 18.1 C 0 km/h
353 11-07-2009 22:31:21 18.3 C 8.44 g/m*3 18.3 C 0 km/h
354 11-07-2009 22:43:21 18.3 C 8.29 g/m*3 18.3 C 0 km/h
355 11-07-2009 22:55:21 18.1 C 8.65 g/m*3 18.1 C 0 km/h
356 11-07-2009 23:07:22 17.8 C 8.8 g/m*3 17.8 C 0 km/h
357 11-07-2009 23:19:22 17.7 C 8.6 g/m*3 17.7 C 0 km/h
358 11-07-2009 23:31:22 17.7 C 8.6 g/m*3 17.7 C 0 km/h
359 11-07-2009 23:43:22 17.6 C 8.7 g/m*3 17.6 C 0 km/h
360 11-07-2009 23:55:22 17.5 C 8.65 g/m*3 17.5 C 0 km/h
361 12-07-2009 00:07:22 17.2 C 8.79 g/m*3 17.2 C 0 km/h
362 12-07-2009 00:19:22 17.2 C 8.79 g/m*3 17.2 C 0 km/h
363 12-07-2009 00:31:22 17.2 C 8.79 g/m*3 17.2 C 0 km/h
364 12-07-2009 00:43:22 17.1 C 8.88 g/m*3 17.1 C 0 km/h
365 12-07-2009 00:55:22 16.8 C 9.01 g/m*3 16.8 C 0 km/h
366 12-07-2009 01:07:22 16.4 C 8.93 g/m*3 16.4 C 0 km/h
367 12-07-2009 01:19:22 16 C 8.99 g/m*3 16 C 0 km/h
368 12-07-2009 01:31:22 15.8 C 9.02 g/m*3 15.8 C 0 km/h
369 12-07-2009 01:43:22 15.9 C 9.21 g/m*3 15.9 C 0 km/h
370 12-07-2009 01:55:22 16 C 9.26 g/m*3 16 C 0 km/h
371 12-07-2009 02:07:22 15.8 C 9.42 g/m*3 15.8 C 0 km/h
372 12-07-2009 02:19:22 15.6 C 9.31 g/m*3 15.6 C 0 km/h
373 12-07-2009 02:31:22 15.2 C 9.35 g/m*3 15.2 C 0 km/h
374 12-07-2009 02:43:23 15 C 9.36 g/m*3 15 C 0 km/h
375 12-07-2009 02:55:23 14.7 C 9.44 g/m*3 14.7 C 0 km/h
Sensor: Nr:Datum:Temp:Abs-Feuchte:Windchill:Wind:
Aussen-T/F 376 12-07-2009 03:07:23 14.5 C 9.45 g/m*3 14.5 C 0 km/h
377 12-07-2009 03:19:23 14.3 C 9.34 g/m*3 14.3 C 0 km/h
378 12-07-2009 03:31:23 14.2 C 9.28 g/m*3 14.2 C 0 km/h
379 12-07-2009 03:43:23 14.2 C 9.4 g/m*3 14.2 C 0 km/h
380 12-07-2009 03:55:23 14.4 C 9.52 g/m*3 14.4 C 0 km/h
381 12-07-2009 04:07:23 14.3 C 9.46 g/m*3 14.3 C 0 km/h
382 12-07-2009 04:19:23 14.4 C 9.52 g/m*3 14.4 C 0 km/h
383 12-07-2009 04:31:23 14.7 C 9.69 g/m*3 14.7 C 0 km/h
384 12-07-2009 04:43:23 14.6 C 9.64 g/m*3 14.6 C 0 km/h
385 12-07-2009 04:55:23 14.6 C 9.51 g/m*3 14.6 C 0 km/h
386 12-07-2009 05:07:23 14.6 C 9.51 g/m*3 14.6 C 0 km/h
387 12-07-2009 05:19:23 14.6 C 9.64 g/m*3 14.6 C 0 km/h
388 12-07-2009 05:31:23 14.7 C 9.69 g/m*3 14.7 C 0 km/h
389 12-07-2009 05:43:23 14.7 C 9.57 g/m*3 14.7 C 0 km/h
390 12-07-2009 05:55:23 14.5 C 9.45 g/m*3 14.5 C 0 km/h
391 12-07-2009 06:07:23 14.6 C 9.64 g/m*3 14.6 C 0 km/h
392 12-07-2009 06:19:24 14.6 C 9.64 g/m*3 14.6 C 0 km/h
393 12-07-2009 06:31:24 14.6 C 9.64 g/m*3 14.6 C 0 km/h
394 12-07-2009 06:43:24 14.8 C 9.63 g/m*3 14.8 C 0 km/h
395 12-07-2009 06:55:24 14.8 C 9.63 g/m*3 14.8 C 0 km/h
396 12-07-2009 07:07:24 14.8 C 9.5 g/m*3 14.8 C 0 km/h
397 12-07-2009 07:19:24 15 C 9.36 g/m*3 15 C 0 km/h
398 12-07-2009 07:31:24 15.1 C 9.42 g/m*3 15.1 C 0 km/h
399 12-07-2009 07:43:24 15.1 C 9.42 g/m*3 15.1 C 0 km/h
400 12-07-2009 07:55:24 15.2 C 9.61 g/m*3 15.2 C 0 km/h
Sensor: Nr:Datum:Temp:Abs-Feuchte:Windchill:Wind:
Aussen-T/F 401 12-07-2009 08:07:24 15.4 C 9.72 g/m*3 15.4 C 0 km/h
402 12-07-2009 08:19:24 15.5 C 9.91 g/m*3 15.5 C 0 km/h
403 12-07-2009 08:31:24 15.6 C 10.37 g/m*3 15.6 C 0 km/h
404 12-07-2009 08:43:24 15.9 C 10.56 g/m*3 15.9 C 0 km/h
405 12-07-2009 08:55:24 16.3 C 10.68 g/m*3 16.3 C 0 km/h
406 12-07-2009 09:07:24 16.4 C 10.75 g/m*3 16.4 C 0 km/h
407 12-07-2009 09:19:24 16.4 C 10.89 g/m*3 16.4 C 0 km/h
408 12-07-2009 09:31:03 16.6 C 11.02 g/m*3 16.6 C 0 km/h
409 12-07-2009 09:43:03 17 C 11.29 g/m*3 17 C 0 km/h
410 12-07-2009 09:55:06 16.8 C 11.15 g/m*3 16.8 C 0 km/h
411 12-07-2009 10:07:03 17 C 11.43 g/m*3 17 C 0 km/h
412 12-07-2009 10:19:02 16.9 C 11.51 g/m*3 16.9 C 0 km/h
413 12-07-2009 10:31:03 17.4 C 11.71 g/m*3 17.4 C 0 km/h
414 12-07-2009 10:43:03 17.5 C 11.63 g/m*3 17.5 C 0 km/h
415 12-07-2009 10:55:02 17.8 C 11.84 g/m*3 17.8 C 0 km/h
416 12-07-2009 11:07:02 18 C 11.67 g/m*3 18 C 0 km/h
417 12-07-2009 11:19:02 18.3 C 11.88 g/m*3 18.3 C 0 km/h
418 12-07-2009 11:31:02 18.7 C 11.85 g/m*3 18.7 C 0 km/h
419 12-07-2009 11:43:02 18.7 C 11.69 g/m*3 18.7 C 0 km/h
420 12-07-2009 11:55:01 18.9 C 11.99 g/m*3 18.9 C 0 km/h
421 12-07-2009 12:07:01 18.7 C 11.85 g/m*3 18.7 C 0 km/h
422 12-07-2009 12:19:02 18.9 C 12.31 g/m*3 18.9 C 0 km/h
423 12-07-2009 12:31:01 19.3 C 12.27 g/m*3 19.3 C 0 km/h
424 12-07-2009 12:43:01 19.5 C 11.75 g/m*3 19.5 C 0 km/h
425 12-07-2009 12:55:01 20 C 11.58 g/m*3 20 C 0 km/h
Sensor: Nr:Datum:Temp:Abs-Feuchte:Windchill:Wind:
Aussen-T/F 426 12-07-2009 13:07:01 21.2 C 11.3 g/m*3 21.2 C 0 km/h
427 12-07-2009 13:19:01 22.2 C 10.99 g/m*3 22.2 C 0 km/h
428 12-07-2009 13:31:01 24.5 C 10.07 g/m*3 24.5 C 0 km/h
429 12-07-2009 13:43:01 23.9 C 10.38 g/m*3 23.9 C 0 km/h
430 12-07-2009 13:55:01 22.9 C 10.01 g/m*3 22.9 C 0 km/h
431 12-07-2009 14:07:01 23.3 C 10.25 g/m*3 23.3 C 0 km/h
432 12-07-2009 14:19:00 24.1 C 10.28 g/m*3 24.1 C 0 km/h
433 12-07-2009 14:31:00 25.6 C 10 g/m*3 25.6 C 0 km/h
434 12-07-2009 14:43:00 25.9 C 9.93 g/m*3 25.9 C 0 km/h
435 12-07-2009 14:55:00 25.7 C 9.58 g/m*3 25.7 C 0 km/h
436 12-07-2009 15:07:00 26.1 C 9.79 g/m*3 26.1 C 0 km/h
437 12-07-2009 15:19:59 26.1 C 9.55 g/m*3 26.1 C 0 km/h
438 12-07-2009 15:30:59 25.7 C 9.82 g/m*3 25.7 C 0 km/h
439 12-07-2009 15:42:59 24.9 C 9.84 g/m*3 24.9 C 0 km/h
440 12-07-2009 15:55:59 24.7 C 9.96 g/m*3 24.7 C 0 km/h
441 12-07-2009 16:07:59 24 C 10.01 g/m*3 24 C 0 km/h
442 12-07-2009 16:19:59 23.4 C 10.51 g/m*3 23.4 C 0 km/h
443 12-07-2009 16:31:59 23.1 C 10.54 g/m*3 23.1 C 0 km/h
444 12-07-2009 16:43:59 23.2 C 10.6 g/m*3 23.2 C 0 km/h
445 12-07-2009 16:55:59 23.4 C 10.51 g/m*3 23.4 C 0 km/h
446 12-07-2009 17:07:58 25.2 C 10.48 g/m*3 25.2 C 0 km/h
447 12-07-2009 17:19:59 26.4 C 10.21 g/m*3 26.4 C 0 km/h
448 12-07-2009 17:31:58 25.9 C 10.17 g/m*3 25.9 C 0 km/h
449 12-07-2009 17:43:58 24.9 C 10.07 g/m*3 24.9 C 0 km/h
450 12-07-2009 17:55:58 24.4 C 10.01 g/m*3 24.4 C 0 km/h
Sensor: Nr:Datum:Temp:Abs-Feuchte:Windchill:Wind:
Aussen-T/F 451 12-07-2009 18:07:58 24.2 C 10.12 g/m*3 24.2 C 0 km/h
452 12-07-2009 18:19:58 24.2 C 10.34 g/m*3 24.2 C 0 km/h
453 12-07-2009 18:31:58 25.8 C 10.35 g/m*3 25.8 C 0 km/h
454 12-07-2009 18:43:58 24.8 C 10.02 g/m*3 24.8 C 0 km/h
455 12-07-2009 18:55:58 25.6 C 10 g/m*3 25.6 C 0 km/h
456 12-07-2009 19:07:58 25.5 C 9.94 g/m*3 25.5 C 0 km/h
457 12-07-2009 19:19:57 25 C 9.9 g/m*3 25 C 0 km/h
458 12-07-2009 19:31:57 25 C 9.67 g/m*3 25 C 0 km/h
459 12-07-2009 19:43:57 24.9 C 10.3 g/m*3 24.9 C 0 km/h
460 12-07-2009 19:55:57 23.8 C 10.33 g/m*3 23.8 C 0 km/h
461 12-07-2009 20:07:57 23.3 C 10.45 g/m*3 23.3 C 0 km/h
462 12-07-2009 20:19:57 23.5 C 10.57 g/m*3 23.5 C 0 km/h
463 12-07-2009 20:31:57 23.3 C 10.66 g/m*3 23.3 C 0 km/h
464 12-07-2009 20:43:57 22.9 C 10.83 g/m*3 22.9 C 0 km/h
465 12-07-2009 20:55:57 22.6 C 10.65 g/m*3 22.6 C 0 km/h
466 12-07-2009 21:07:56 22.1 C 10.74 g/m*3 22.1 C 0 km/h
467 12-07-2009 21:19:56 21.6 C 11 g/m*3 21.6 C 0 km/h
468 12-07-2009 21:31:56 21.3 C 11 g/m*3 21.3 C 0 km/h
469 12-07-2009 21:43:56 21.1 C 11.06 g/m*3 21.1 C 0 km/h
470 12-07-2009 21:55:56 20.9 C 11.11 g/m*3 20.9 C 0 km/h
471 12-07-2009 22:08:57 20.6 C 11.1 g/m*3 20.6 C 0 km/h
472 12-07-2009 22:20:57 20.3 C 11.26 g/m*3 20.3 C 0 km/h
473 12-07-2009 22:32:57 19.9 C 11.51 g/m*3 19.9 C 0 km/h
474 12-07-2009 22:44:57 19.7 C 11.55 g/m*3 19.7 C 0 km/h
475 12-07-2009 22:56:57 19.7 C 11.55 g/m*3 19.7 C 0 km/h
Sensor: Nr:Datum:Temp:Abs-Feuchte:Windchill:Wind:
Aussen-T/F 476 12-07-2009 23:08:57 19.3 C 11.61 g/m*3 19.3 C 0 km/h
477 12-07-2009 23:20:57 19.1 C 11.64 g/m*3 19.1 C 0 km/h
478 12-07-2009 23:32:57 18.9 C 11.66 g/m*3 18.9 C 0 km/h
479 12-07-2009 23:44:57 18.8 C 11.76 g/m*3 18.8 C 0 km/h
480 12-07-2009 23:56:57 18.6 C 11.78 g/m*3 18.6 C 0 km/h
481 13-07-2009 00:08:57 18.5 C 11.71 g/m*3 18.5 C 0 km/h
482 13-07-2009 00:20:57 18.3 C 11.73 g/m*3 18.3 C 0 km/h
483 13-07-2009 00:32:57 18.2 C 11.81 g/m*3 18.2 C 0 km/h
484 13-07-2009 00:44:57 18.3 C 11.73 g/m*3 18.3 C 0 km/h
485 13-07-2009 00:56:58 18.2 C 11.66 g/m*3 18.2 C 0 km/h
486 13-07-2009 01:08:58 18 C 11.83 g/m*3 18 C 0 km/h
487 13-07-2009 01:20:58 17.9 C 11.91 g/m*3 17.9 C 0 km/h
488 13-07-2009 01:32:58 17.9 C 12.06 g/m*3 17.9 C 0 km/h
489 13-07-2009 01:44:58 17.7 C 11.92 g/m*3 17.7 C 0 km/h
490 13-07-2009 01:56:58 17.3 C 11.93 g/m*3 17.3 C 0 km/h
491 13-07-2009 02:08:58 17.2 C 12.01 g/m*3 17.2 C 0 km/h
492 13-07-2009 02:20:58 17.4 C 12.15 g/m*3 17.4 C 0 km/h
493 13-07-2009 02:32:58 17.3 C 12.08 g/m*3 17.3 C 0 km/h
494 13-07-2009 02:44:58 17.3 C 12.08 g/m*3 17.3 C 0 km/h
495 13-07-2009 02:56:58 17.2 C 11.86 g/m*3 17.2 C 0 km/h
496 13-07-2009 03:08:58 17.3 C 11.93 g/m*3 17.3 C 0 km/h
497 13-07-2009 03:20:58 17.4 C 12 g/m*3 17.4 C 0 km/h
498 13-07-2009 03:32:58 17.3 C 11.93 g/m*3 17.3 C 0 km/h
499 13-07-2009 03:44:58 17.4 C 12 g/m*3 17.4 C 0 km/h
500 13-07-2009 03:56:58 17.4 C 11.86 g/m*3 17.4 C 0 km/h
Sensor: Nr:Datum:Temp:Abs-Feuchte:Windchill:Wind:
Aussen-T/F 501 13-07-2009 04:08:58 17.4 C 11.86 g/m*3 17.4 C 0 km/h
502 13-07-2009 04:20:58 17.4 C 11.86 g/m*3 17.4 C 0 km/h
503 13-07-2009 04:32:58 17.3 C 11.93 g/m*3 17.3 C 0 km/h
504 13-07-2009 04:44:58 17.4 C 12.15 g/m*3 17.4 C 0 km/h
505 13-07-2009 04:56:59 17.4 C 12.15 g/m*3 17.4 C 0 km/h
506 13-07-2009 05:08:59 17.2 C 12.01 g/m*3 17.2 C 0 km/h
507 13-07-2009 05:20:59 17 C 12.15 g/m*3 17 C 0 km/h
508 13-07-2009 05:32:59 16.7 C 12.36 g/m*3 16.7 C 0 km/h
509 13-07-2009 05:44:59 16.6 C 12.57 g/m*3 16.6 C 0 km/h
510 13-07-2009 05:56:59 16.6 C 12.71 g/m*3 16.6 C 0 km/h
511 13-07-2009 06:08:59 16.5 C 12.78 g/m*3 16.5 C 0 km/h
512 13-07-2009 06:20:59 16.3 C 12.62 g/m*3 16.3 C 0 km/h
513 13-07-2009 06:32:59 16.4 C 12.84 g/m*3 16.4 C 0 km/h
514 13-07-2009 06:44:59 16.4 C 12.84 g/m*3 16.4 C 0 km/h
515 13-07-2009 06:56:59 16.5 C 12.92 g/m*3 16.5 C 0 km/h
516 13-07-2009 07:07:59 16.8 C 13.3 g/m*3 16.8 C 0 km/h
517 13-07-2009 07:19:59 17.2 C 13.47 g/m*3 17.2 C 0 km/h
518 13-07-2009 07:31:59 17.6 C 13.95 g/m*3 17.6 C 0 km/h
519 13-07-2009 07:43:59 17.6 C 13.8 g/m*3 17.6 C 0 km/h
520 13-07-2009 07:55:59 17.3 C 13.55 g/m*3 17.3 C 0 km/h
521 13-07-2009 08:08:57 17.4 C 13.49 g/m*3 17.4 C 0 km/h
522 13-07-2009 08:20:56 17.7 C 13.73 g/m*3 17.7 C 0 km/h
523 13-07-2009 08:32:56 17.7 C 13.58 g/m*3 17.7 C 0 km/h
524 13-07-2009 08:44:56 17.9 C 13.59 g/m*3 17.9 C 0 km/h
525 13-07-2009 08:56:56 18.4 C 13.84 g/m*3 18.4 C 0 km/h
Sensor: Nr:Datum:Temp:Abs-Feuchte:Windchill:Wind:
Aussen-T/F 526 13-07-2009 09:08:56 19.1 C 14.26 g/m*3 19.1 C 0 km/h
527 13-07-2009 09:20:55 19 C 13.53 g/m*3 19 C 0 km/h
528 13-07-2009 09:32:56 19.5 C 13.59 g/m*3 19.5 C 0 km/h
529 13-07-2009 09:44:56 19.3 C 12.61 g/m*3 19.3 C 0 km/h
530 13-07-2009 09:56:57 20.6 C 13.6 g/m*3 20.6 C 0 km/h
531 13-07-2009 10:08:55 20.5 C 12.63 g/m*3 20.5 C 0 km/h
532 13-07-2009 10:20:55 20.7 C 13.14 g/m*3 20.7 C 0 km/h
533 13-07-2009 10:32:55 21.4 C 13.5 g/m*3 21.4 C 0 km/h
534 13-07-2009 10:44:55 21.9 C 12.93 g/m*3 21.9 C 0 km/h
535 13-07-2009 10:56:55 21.2 C 11.68 g/m*3 21.2 C 0 km/h
536 13-07-2009 11:08:55 21.2 C 10.93 g/m*3 21.2 C 0 km/h
537 13-07-2009 11:20:54 21.9 C 10.23 g/m*3 21.9 C 0 km/h
538 13-07-2009 11:32:55 22.5 C 9.39 g/m*3 22.5 C 0 km/h
539 13-07-2009 11:44:54 23.2 C 8.73 g/m*3 23.2 C 0 km/h
540 13-07-2009 11:56:54 24.3 C 8.19 g/m*3 24.3 C 0 km/h
541 13-07-2009 12:08:54 24.1 C 8.31 g/m*3 24.1 C 0 km/h
542 13-07-2009 12:20:54 24.3 C 7.97 g/m*3 24.3 C 0 km/h
543 13-07-2009 12:32:54 24.9 C 7.55 g/m*3 24.9 C 0 km/h
544 13-07-2009 12:44:54 26.1 C 7.59 g/m*3 26.1 C 0 km/h
545 13-07-2009 12:56:54 26.7 C 7.34 g/m*3 26.7 C 0 km/h
546 13-07-2009 13:08:54 27.7 C 7.22 g/m*3 27.7 C 0 km/h
547 13-07-2009 13:20:54 27.7 C 6.69 g/m*3 27.7 C 0 km/h
548 13-07-2009 13:32:53 29.5 C 6.79 g/m*3 29.5 C 0 km/h
549 13-07-2009 13:44:53 28.2 C 7.15 g/m*3 28.2 C 0 km/h
550 13-07-2009 13:56:53 26.7 C 6.58 g/m*3 26.7 C 0 km/h
Sensor: Nr:Datum:Temp:Abs-Feuchte:Windchill:Wind:
Aussen-T/F 551 13-07-2009 14:08:53 27.9 C 6.76 g/m*3 27.9 C 0 km/h
552 13-07-2009 14:20:53 27.8 C 6.99 g/m*3 27.8 C 0 km/h
553 13-07-2009 14:32:53 27.8 C 6.99 g/m*3 27.8 C 0 km/h
554 13-07-2009 14:44:53 28.4 C 7.23 g/m*3 28.4 C 0 km/h
555 13-07-2009 14:56:53 28.1 C 6.84 g/m*3 28.1 C 0 km/h
556 13-07-2009 15:08:53 28.3 C 6.91 g/m*3 28.3 C 0 km/h
557 13-07-2009 15:20:52 28.4 C 7.23 g/m*3 28.4 C 0 km/h
558 13-07-2009 15:32:52 29.2 C 7.55 g/m*3 29.2 C 0 km/h
559 13-07-2009 15:44:52 29.3 C 7.3 g/m*3 29.3 C 0 km/h
560 13-07-2009 15:56:52 29 C 8.62 g/m*3 29 C 0 km/h
561 13-07-2009 16:08:52 29.6 C 7.42 g/m*3 29.6 C 0 km/h
562 13-07-2009 16:20:51 29.5 C 9.15 g/m*3 29.5 C 0 km/h
563 13-07-2009 16:32:02 30.1 C 9.15 g/m*3 30.1 C 0 km/h
564 13-07-2009 16:44:02 30 C 6.67 g/m*3 30 C 0 km/h
565 13-07-2009 16:56:01 29.8 C 9 g/m*3 29.8 C 0 km/h
566 13-07-2009 17:08:02 29.1 C 9.24 g/m*3 29.1 C 0 km/h
567 13-07-2009 17:20:01 28.9 C 10 g/m*3 28.9 C 0 km/h
568 13-07-2009 17:32:01 28.2 C 9.9 g/m*3 28.2 C 0 km/h
569 13-07-2009 17:44:01 29.3 C 9.63 g/m*3 29.3 C 0 km/h
570 13-07-2009 17:56:01 29.3 C 9.93 g/m*3 29.3 C 0 km/h
571 13-07-2009 18:08:01 28.3 C 10.23 g/m*3 28.3 C 0 km/h
572 13-07-2009 18:20:00 27.3 C 10.47 g/m*3 27.3 C 0 km/h
573 13-07-2009 18:32:01 26.4 C 10.95 g/m*3 26.4 C 0 km/h
574 13-07-2009 18:44:01 25.6 C 11.43 g/m*3 25.6 C 0 km/h
575 13-07-2009 18:56:01 25.2 C 11.64 g/m*3 25.2 C 0 km/h
Sensor: Nr:Datum:Temp:Abs-Feuchte:Windchill:Wind:
Aussen-T/F 576 13-07-2009 19:08:00 24.7 C 11.77 g/m*3 24.7 C 0 km/h
577 13-07-2009 19:20:00 24.3 C 11.06 g/m*3 24.3 C 0 km/h
578 13-07-2009 19:32:01 23.7 C 13.05 g/m*3 23.7 C 0 km/h
579 13-07-2009 19:44:01 21.7 C 13.73 g/m*3 21.7 C 0 km/h
580 13-07-2009 19:56:00 21.6 C 13.85 g/m*3 21.6 C 0 km/h
581 13-07-2009 20:08:59 21.6 C 13.66 g/m*3 21.6 C 0 km/h
582 13-07-2009 20:20:00 21.7 C 13.73 g/m*3 21.7 C 0 km/h
583 13-07-2009 20:32:00 21.9 C 13.7 g/m*3 21.9 C 0 km/h
584 13-07-2009 20:44:00 21.8 C 13.62 g/m*3 21.8 C 0 km/h
585 13-07-2009 20:56:59 21.9 C 13.31 g/m*3 21.9 C 0 km/h
586 13-07-2009 21:08:59 22 C 13.2 g/m*3 22 C 0 km/h
587 13-07-2009 21:20:59 22.3 C 12.83 g/m*3 22.3 C 0 km/h
588 13-07-2009 21:32:59 22.4 C 12.91 g/m*3 22.4 C 0 km/h
589 13-07-2009 21:44:59 22.2 C 12.76 g/m*3 22.2 C 0 km/h
590 13-07-2009 21:56:59 22.2 C 12.96 g/m*3 22.2 C 0 km/h
591 13-07-2009 22:09:01 21.4 C 13.5 g/m*3 21.4 C 0 km/h
592 13-07-2009 22:21:01 20.6 C 13.78 g/m*3 20.6 C 0 km/h
593 13-07-2009 22:33:01 20.2 C 14.16 g/m*3 20.2 C 0 km/h
594 13-07-2009 22:45:01 20 C 14.34 g/m*3 20 C 0 km/h
595 13-07-2009 22:57:01 19.7 C 14.26 g/m*3 19.7 C 0 km/h
596 13-07-2009 23:09:01 19.7 C 14.26 g/m*3 19.7 C 0 km/h
597 13-07-2009 23:21:02 20 C 14.52 g/m*3 20 C 0 km/h
598 13-07-2009 23:33:02 20 C 14.34 g/m*3 20 C 0 km/h
599 13-07-2009 23:45:02 19.9 C 14.43 g/m*3 19.9 C 0 km/h
600 13-07-2009 23:57:02 19.6 C 14.18 g/m*3 19.6 C 0 km/h
Sensor: Nr:Datum:Temp:Abs-Feuchte:Windchill:Wind:
Aussen-T/F 601 14-07-2009 00:09:02 19.7 C 14.09 g/m*3 19.7 C 0 km/h
602 14-07-2009 00:21:02 19.7 C 13.92 g/m*3 19.7 C 0 km/h
603 14-07-2009 00:33:02 19.4 C 13.85 g/m*3 19.4 C 0 km/h
604 14-07-2009 00:45:02 19.2 C 13.85 g/m*3 19.2 C 0 km/h
605 14-07-2009 00:57:02 19 C 13.85 g/m*3 19 C 0 km/h
606 14-07-2009 01:09:02 18.9 C 14.09 g/m*3 18.9 C 0 km/h
607 14-07-2009 01:21:02 18.9 C 14.26 g/m*3 18.9 C 0 km/h
608 14-07-2009 01:33:02 18.8 C 14.33 g/m*3 18.8 C 0 km/h
609 14-07-2009 01:45:02 18.7 C 14.25 g/m*3 18.7 C 0 km/h
610 14-07-2009 01:57:02 18.7 C 14.41 g/m*3 18.7 C 0 km/h
611 14-07-2009 02:09:02 18.7 C 14.41 g/m*3 18.7 C 0 km/h
612 14-07-2009 02:21:02 18.6 C 14.48 g/m*3 18.6 C 0 km/h
613 14-07-2009 02:33:02 18.9 C 14.74 g/m*3 18.9 C 0 km/h
614 14-07-2009 02:45:02 18.8 C 14.66 g/m*3 18.8 C 0 km/h
615 14-07-2009 02:57:02 18.7 C 14.57 g/m*3 18.7 C 0 km/h
616 14-07-2009 03:09:02 18.7 C 14.57 g/m*3 18.7 C 0 km/h
617 14-07-2009 03:32:03 18.7 C 14.57 g/m*3 18.7 C 0 km/h
618 14-07-2009 03:44:03 18.9 C 14.9 g/m*3 18.9 C 0 km/h
619 14-07-2009 03:56:03 18.9 C 14.9 g/m*3 18.9 C 0 km/h
620 14-07-2009 04:08:03 18.8 C 14.82 g/m*3 18.8 C 0 km/h
621 14-07-2009 04:20:03 18.6 C 14.48 g/m*3 18.6 C 0 km/h
622 14-07-2009 04:32:03 18.7 C 14.73 g/m*3 18.7 C 0 km/h
623 14-07-2009 04:44:03 18.8 C 14.82 g/m*3 18.8 C 0 km/h
624 14-07-2009 04:56:03 18.7 C 14.73 g/m*3 18.7 C 0 km/h
625 14-07-2009 05:08:03 18.7 C 14.73 g/m*3 18.7 C 0 km/h
Sensor: Nr:Datum:Temp:Abs-Feuchte:Windchill:Wind:
Aussen-T/F 626 14-07-2009 05:20:03 18.8 C 14.66 g/m*3 18.8 C 0 km/h
627 14-07-2009 05:32:03 18.7 C 14.57 g/m*3 18.7 C 0 km/h
628 14-07-2009 05:44:03 18.7 C 14.57 g/m*3 18.7 C 0 km/h
629 14-07-2009 05:56:03 18.7 C 14.57 g/m*3 18.7 C 0 km/h
630 14-07-2009 06:08:03 18.7 C 14.73 g/m*3 18.7 C 0 km/h
631 14-07-2009 06:20:03 18.6 C 14.48 g/m*3 18.6 C 0 km/h
632 14-07-2009 06:32:03 18.6 C 14.64 g/m*3 18.6 C 0 km/h
633 14-07-2009 06:44:03 18.6 C 14.64 g/m*3 18.6 C 0 km/h
634 14-07-2009 06:56:03 18.6 C 14.64 g/m*3 18.6 C 0 km/h
635 14-07-2009 07:08:03 18.9 C 14.9 g/m*3 18.9 C 0 km/h
636 14-07-2009 07:20:04 19.1 C 14.92 g/m*3 19.1 C 0 km/h
637 14-07-2009 07:32:04 19.1 C 14.92 g/m*3 19.1 C 0 km/h
638 14-07-2009 07:44:04 19.2 C 15.01 g/m*3 19.2 C 0 km/h
639 14-07-2009 07:45:01 19.1 C 14.75 g/m*3 19.1 C 0 km/h
640 14-07-2009 07:57:01 19.1 C 14.75 g/m*3 19.1 C 0 km/h
641 14-07-2009 08:09:02 19.2 C 14.84 g/m*3 19.2 C 0 km/h
642 14-07-2009 08:21:01 19.5 C 14.94 g/m*3 19.5 C 0 km/h
643 14-07-2009 08:33:01 19.6 C 14.86 g/m*3 19.6 C 0 km/h
644 14-07-2009 08:45:01 20 C 15.04 g/m*3 20 C 0 km/h
645 14-07-2009 08:57:01 20.3 C 14.95 g/m*3 20.3 C 0 km/h
646 14-07-2009 09:09:01 20.6 C 14.86 g/m*3 20.6 C 0 km/h
647 14-07-2009 09:21:02 21 C 14.84 g/m*3 21 C 0 km/h
648 14-07-2009 09:33:01 21.5 C 14.71 g/m*3 21.5 C 0 km/h
649 14-07-2009 09:45:02 21.6 C 14.03 g/m*3 21.6 C 0 km/h
650 14-07-2009 09:57:02 21.9 C 14.28 g/m*3 21.9 C 0 km/h
Sensor: Nr:Datum:Temp:Abs-Feuchte:Windchill:Wind:
Aussen-T/F 651 14-07-2009 10:09:01 22 C 13.78 g/m*3 22 C 0 km/h
652 14-07-2009 10:21:01 21.3 C 13.79 g/m*3 21.3 C 0 km/h
653 14-07-2009 10:33:01 21.1 C 14.19 g/m*3 21.1 C 0 km/h
654 14-07-2009 10:45:01 21.6 C 14.41 g/m*3 21.6 C 0 km/h
655 14-07-2009 10:57:01 22 C 13.39 g/m*3 22 C 0 km/h
656 14-07-2009 11:09:01 23.1 C 13.64 g/m*3 23.1 C 0 km/h
657 14-07-2009 11:21:01 22.9 C 13.08 g/m*3 22.9 C 0 km/h
658 14-07-2009 11:33:02 23.4 C 13.46 g/m*3 23.4 C 0 km/h
659 14-07-2009 11:45:01 23.4 C 12.62 g/m*3 23.4 C 0 km/h
660 14-07-2009 11:57:01 24.3 C 12.83 g/m*3 24.3 C 0 km/h
661 14-07-2009 12:09:02 24.3 C 11.51 g/m*3 24.3 C 0 km/h
662 14-07-2009 12:21:01 25.2 C 11.87 g/m*3 25.2 C 0 km/h
663 14-07-2009 12:33:01 26.3 C 11.14 g/m*3 26.3 C 0 km/h
664 14-07-2009 12:45:01 26.7 C 11.64 g/m*3 26.7 C 0 km/h
665 14-07-2009 12:57:01 27.9 C 10.82 g/m*3 27.9 C 0 km/h
666 14-07-2009 13:09:01 27.4 C 10.79 g/m*3 27.4 C 0 km/h
667 14-07-2009 13:21:02 27.4 C 10.52 g/m*3 27.4 C 0 km/h
668 14-07-2009 13:33:01 28.7 C 10.46 g/m*3 28.7 C 0 km/h
669 14-07-2009 13:45:02 27.3 C 9.94 g/m*3 27.3 C 0 km/h
670 14-07-2009 13:57:02 28 C 9.79 g/m*3 28 C 0 km/h
671 14-07-2009 14:09:01 28.1 C 9.57 g/m*3 28.1 C 0 km/h
672 14-07-2009 14:21:02 27.9 C 10.28 g/m*3 27.9 C 0 km/h
673 14-07-2009 14:33:01 27.6 C 10.38 g/m*3 27.6 C 0 km/h
674 14-07-2009 14:45:01 27.2 C 10.15 g/m*3 27.2 C 0 km/h
675 14-07-2009 14:57:02 26.9 C 10.49 g/m*3 26.9 C 0 km/h
Sensor: Nr:Datum:Temp:Abs-Feuchte:Windchill:Wind:
Aussen-T/F 676 14-07-2009 15:09:01 27.4 C 10.79 g/m*3 27.4 C 0 km/h
677 14-07-2009 15:21:01 28.1 C 9.84 g/m*3 28.1 C 0 km/h
678 14-07-2009 15:33:02 28.3 C 10.23 g/m*3 28.3 C 0 km/h
679 14-07-2009 15:45:01 28.6 C 10.12 g/m*3 28.6 C 0 km/h
680 14-07-2009 15:57:01 29.4 C 9.98 g/m*3 29.4 C 0 km/h
681 14-07-2009 16:09:02 29.1 C 9.82 g/m*3 29.1 C 0 km/h
682 14-07-2009 16:21:01 28.5 C 9.78 g/m*3 28.5 C 0 km/h
683 14-07-2009 16:33:01 29 C 9.48 g/m*3 29 C 0 km/h
684 14-07-2009 16:45:01 29.5 C 10.03 g/m*3 29.5 C 0 km/h
685 14-07-2009 16:57:01 29 C 9.77 g/m*3 29 C 0 km/h
686 14-07-2009 17:09:01 28.7 C 10.17 g/m*3 28.7 C 0 km/h
687 14-07-2009 17:21:02 28.5 C 10.06 g/m*3 28.5 C 0 km/h
688 14-07-2009 17:33:01 29.9 C 9.65 g/m*3 29.9 C 0 km/h
689 14-07-2009 17:45:02 28.6 C 10.12 g/m*3 28.6 C 0 km/h
690 14-07-2009 17:57:02 27.8 C 10.22 g/m*3 27.8 C 0 km/h
691 14-07-2009 18:09:01 27.6 C 10.11 g/m*3 27.6 C 0 km/h
692 14-07-2009 18:21:02 28.8 C 9.94 g/m*3 28.8 C 0 km/h
693 14-07-2009 18:33:01 30.1 C 9.76 g/m*3 30.1 C 0 km/h
694 14-07-2009 18:45:01 30.3 C 9.86 g/m*3 30.3 C 0 km/h
695 14-07-2009 18:57:02 29.3 C 9.34 g/m*3 29.3 C 0 km/h
696 14-07-2009 19:09:01 28.4 C 10.01 g/m*3 28.4 C 0 km/h
697 14-07-2009 19:21:01 28.2 C 10.45 g/m*3 28.2 C 0 km/h
698 14-07-2009 19:33:02 30.1 C 9.76 g/m*3 30.1 C 0 km/h
699 14-07-2009 19:45:01 30.3 C 9.86 g/m*3 30.3 C 0 km/h
700 14-07-2009 19:57:01 30 C 9.7 g/m*3 30 C 0 km/h
Sensor: Nr:Datum:Temp:Abs-Feuchte:Windchill:Wind:
Aussen-T/F 701 14-07-2009 20:09:02 28.7 C 10.17 g/m*3 28.7 C 0 km/h
702 14-07-2009 20:21:01 29.4 C 10.27 g/m*3 29.4 C 0 km/h
703 14-07-2009 20:33:01 29.2 C 10.16 g/m*3 29.2 C 0 km/h
704 14-07-2009 20:45:01 28.2 C 10.72 g/m*3 28.2 C 0 km/h
705 14-07-2009 20:57:01 27.7 C 11.23 g/m*3 27.7 C 0 km/h
706 14-07-2009 21:09:01 26.7 C 11.39 g/m*3 26.7 C 0 km/h
707 14-07-2009 21:21:01 25.8 C 11.8 g/m*3 25.8 C 0 km/h
708 14-07-2009 21:33:02 24.8 C 11.84 g/m*3 24.8 C 0 km/h
709 14-07-2009 21:45:01 24.1 C 11.82 g/m*3 24.1 C 0 km/h
710 14-07-2009 21:57:01 23.4 C 11.99 g/m*3 23.4 C 0 km/h
711 14-07-2009 22:10:53 22.9 C 12.26 g/m*3 22.9 C 0 km/h
712 14-07-2009 22:22:53 22.7 C 12.53 g/m*3 22.7 C 0 km/h
713 14-07-2009 22:34:53 22.7 C 12.53 g/m*3 22.7 C 0 km/h
714 14-07-2009 22:46:53 22.6 C 12.66 g/m*3 22.6 C 0 km/h
715 14-07-2009 22:58:53 22.5 C 12.98 g/m*3 22.5 C 0 km/h
716 14-07-2009 23:10:53 22.4 C 12.91 g/m*3 22.4 C 0 km/h
717 14-07-2009 23:22:53 22.2 C 12.96 g/m*3 22.2 C 0 km/h
718 14-07-2009 23:34:53 22 C 13 g/m*3 22 C 0 km/h
719 14-07-2009 23:46:53 22.2 C 12.96 g/m*3 22.2 C 0 km/h
720 14-07-2009 23:58:53 22.4 C 12.91 g/m*3 22.4 C 0 km/h
721 15-07-2009 00:10:53 22.9 C 13.08 g/m*3 22.9 C 0 km/h
722 15-07-2009 00:22:53 22.7 C 12.73 g/m*3 22.7 C 0 km/h
723 15-07-2009 00:34:54 22.3 C 12.44 g/m*3 22.3 C 0 km/h
724 15-07-2009 00:46:54 22.1 C 12.3 g/m*3 22.1 C 0 km/h
725 15-07-2009 00:58:54 22 C 12.42 g/m*3 22 C 0 km/h
Sensor: Nr:Datum:Temp:Abs-Feuchte:Windchill:Wind:
Aussen-T/F 726 15-07-2009 01:10:54 21.8 C 12.66 g/m*3 21.8 C 0 km/h
727 15-07-2009 01:22:54 21.7 C 12.78 g/m*3 21.7 C 0 km/h
728 15-07-2009 01:34:54 21.5 C 12.82 g/m*3 21.5 C 0 km/h
729 15-07-2009 01:46:54 21.4 C 12.75 g/m*3 21.4 C 0 km/h
730 15-07-2009 01:58:54 21.2 C 12.79 g/m*3 21.2 C 0 km/h
731 15-07-2009 02:10:54 21.2 C 12.79 g/m*3 21.2 C 0 km/h
732 15-07-2009 02:22:54 20.9 C 12.57 g/m*3 20.9 C 0 km/h
733 15-07-2009 02:34:54 20.9 C 12.57 g/m*3 20.9 C 0 km/h
734 15-07-2009 02:46:54 21.1 C 11.98 g/m*3 21.1 C 0 km/h
735 15-07-2009 02:58:54 21 C 11.91 g/m*3 21 C 0 km/h
736 15-07-2009 03:10:54 21 C 11.72 g/m*3 21 C 0 km/h
737 15-07-2009 03:22:54 20.9 C 12.02 g/m*3 20.9 C 0 km/h
738 15-07-2009 03:34:54 20.6 C 11.99 g/m*3 20.6 C 0 km/h
739 15-07-2009 03:46:54 20.5 C 12.1 g/m*3 20.5 C 0 km/h
740 15-07-2009 03:58:54 20.5 C 11.74 g/m*3 20.5 C 0 km/h
741 15-07-2009 04:10:54 20.5 C 11.57 g/m*3 20.5 C 0 km/h
742 15-07-2009 04:22:55 20.4 C 11.5 g/m*3 20.4 C 0 km/h
743 15-07-2009 04:34:55 20.1 C 11.3 g/m*3 20.1 C 0 km/h
744 15-07-2009 04:46:55 19.7 C 11.55 g/m*3 19.7 C 0 km/h
745 15-07-2009 04:58:55 19.5 C 11.58 g/m*3 19.5 C 0 km/h
746 15-07-2009 05:10:55 19.7 C 11.72 g/m*3 19.7 C 0 km/h
747 15-07-2009 05:22:55 19.8 C 11.61 g/m*3 19.8 C 0 km/h
748 15-07-2009 05:34:55 19.9 C 11.68 g/m*3 19.9 C 0 km/h
749 15-07-2009 05:46:55 19.9 C 11.68 g/m*3 19.9 C 0 km/h
750 15-07-2009 05:58:55 19.9 C 11.68 g/m*3 19.9 C 0 km/h
Sensor: Nr:Datum:Temp:Abs-Feuchte:Windchill:Wind:
Aussen-T/F 751 15-07-2009 06:10:55 19.9 C 11.68 g/m*3 19.9 C 0 km/h
752 15-07-2009 06:22:55 19.9 C 11.68 g/m*3 19.9 C 0 km/h
753 15-07-2009 06:34:55 19.8 C 11.79 g/m*3 19.8 C 0 km/h
754 15-07-2009 06:46:52 19.7 C 11.72 g/m*3 19.7 C 0 km/h
755 15-07-2009 06:58:52 19.9 C 11.85 g/m*3 19.9 C 0 km/h
756 15-07-2009 07:10:52 20 C 11.75 g/m*3 20 C 0 km/h
757 15-07-2009 07:22:52 20.2 C 12.06 g/m*3 20.2 C 0 km/h
758 15-07-2009 07:34:51 20.7 C 12.06 g/m*3 20.7 C 0 km/h
759 15-07-2009 07:46:52 21 C 11.54 g/m*3 21 C 0 km/h
760 15-07-2009 07:58:52 20.9 C 11.66 g/m*3 20.9 C 0 km/h
761 15-07-2009 08:10:51 20.8 C 11.59 g/m*3 20.8 C 0 km/h
762 15-07-2009 08:22:51 20.8 C 11.59 g/m*3 20.8 C 0 km/h
763 15-07-2009 08:34:51 20.8 C 11.23 g/m*3 20.8 C 0 km/h
764 15-07-2009 08:46:51 21 C 11.17 g/m*3 21 C 0 km/h
765 15-07-2009 08:58:51 21.6 C 11.19 g/m*3 21.6 C 0 km/h
766 15-07-2009 09:10:51 21.9 C 11.19 g/m*3 21.9 C 0 km/h
767 15-07-2009 09:22:50 22 C 11.26 g/m*3 22 C 0 km/h
768 15-07-2009 09:34:51 21.8 C 11.13 g/m*3 21.8 C 0 km/h
769 15-07-2009 09:46:50 22.4 C 11.32 g/m*3 22.4 C 0 km/h
770 15-07-2009 09:58:50 22.7 C 11.31 g/m*3 22.7 C 0 km/h
771 15-07-2009 10:10:50 23.1 C 10.96 g/m*3 23.1 C 0 km/h
772 15-07-2009 10:22:50 23.4 C 11.14 g/m*3 23.4 C 0 km/h
773 15-07-2009 10:34:50 23.4 C 10.93 g/m*3 23.4 C 0 km/h
774 15-07-2009 10:46:50 23.8 C 11.19 g/m*3 23.8 C 0 km/h
775 15-07-2009 10:58:50 24.1 C 10.72 g/m*3 24.1 C 0 km/h
Sensor: Nr:Datum:Temp:Abs-Feuchte:Windchill:Wind:
Aussen-T/F 776 15-07-2009 11:10:50 24.3 C 10.62 g/m*3 24.3 C 0 km/h
777 15-07-2009 11:22:50 25 C 10.59 g/m*3 25 C 0 km/h
778 15-07-2009 11:34:49 25 C 10.36 g/m*3 25 C 0 km/h
779 15-07-2009 11:46:50 25.1 C 9.95 g/m*3 25.1 C 0 km/h
780 15-07-2009 11:58:50 25.4 C 9.89 g/m*3 25.4 C 0 km/h
781 15-07-2009 12:10:49 25.6 C 9.28 g/m*3 25.6 C 0 km/h
782 15-07-2009 12:22:49 26 C 8.76 g/m*3 26 C 0 km/h
783 15-07-2009 12:34:49 26.9 C 8.45 g/m*3 26.9 C 0 km/h
784 15-07-2009 12:46:49 27.7 C 8.29 g/m*3 27.7 C 0 km/h
785 15-07-2009 12:58:49 28 C 7.89 g/m*3 28 C 0 km/h
786 15-07-2009 13:10:49 27.6 C 7.71 g/m*3 27.6 C 0 km/h
787 15-07-2009 13:22:48 28.1 C 7.93 g/m*3 28.1 C 0 km/h
788 15-07-2009 13:34:49 29 C 7.76 g/m*3 29 C 0 km/h
789 15-07-2009 13:46:48 28.7 C 7.35 g/m*3 28.7 C 0 km/h
790 15-07-2009 13:58:48 28.4 C 6.95 g/m*3 28.4 C 0 km/h
791 15-07-2009 14:10:48 28.2 C 6.87 g/m*3 28.2 C 0 km/h
792 15-07-2009 14:22:47 28 C 7.07 g/m*3 28 C 0 km/h
793 15-07-2009 14:34:48 28.3 C 7.19 g/m*3 28.3 C 0 km/h
794 15-07-2009 14:46:47 28.2 C 6.87 g/m*3 28.2 C 0 km/h
795 15-07-2009 14:58:47 29.1 C 7.22 g/m*3 29.1 C 0 km/h
796 15-07-2009 15:10:47 29.4 C 6.75 g/m*3 29.4 C 0 km/h
797 15-07-2009 15:22:48 30.1 C 6.71 g/m*3 30.1 C 0 km/h
798 15-07-2009 15:34:47 30.3 C 6.78 g/m*3 30.3 C 0 km/h
799 15-07-2009 15:46:47 29.7 C 6.27 g/m*3 29.7 C 0 km/h
800 15-07-2009 15:58:47 29.4 C 6.75 g/m*3 29.4 C 0 km/h
Sensor: Nr:Datum:Temp:Abs-Feuchte:Windchill:Wind:
Aussen-T/F 801 15-07-2009 16:10:47 29.8 C 6.9 g/m*3 29.8 C 0 km/h
802 15-07-2009 16:22:47 29.8 C 7.2 g/m*3 29.8 C 0 km/h
803 15-07-2009 16:34:46 29.6 C 6.53 g/m*3 29.6 C 0 km/h
804 15-07-2009 16:46:47 29.4 C 7.05 g/m*3 29.4 C 0 km/h
805 15-07-2009 16:58:47 28.9 C 6.86 g/m*3 28.9 C 0 km/h
806 15-07-2009 17:10:47 29.3 C 6.72 g/m*3 29.3 C 0 km/h
807 15-07-2009 17:22:46 28.9 C 6.57 g/m*3 28.9 C 0 km/h
808 15-07-2009 17:34:46 29.1 C 6.64 g/m*3 29.1 C 0 km/h
809 15-07-2009 17:46:46 28.5 C 6.71 g/m*3 28.5 C 0 km/h
810 15-07-2009 17:58:46 28.5 C 6.99 g/m*3 28.5 C 0 km/h
811 15-07-2009 18:10:46 28 C 6.8 g/m*3 28 C 0 km/h
812 15-07-2009 18:22:45 27.9 C 7.3 g/m*3 27.9 C 0 km/h
813 15-07-2009 18:34:46 27.5 C 6.88 g/m*3 27.5 C 0 km/h
814 15-07-2009 18:46:45 28.1 C 6.56 g/m*3 28.1 C 0 km/h
815 15-07-2009 18:58:45 28.6 C 6.74 g/m*3 28.6 C 0 km/h
816 15-07-2009 19:10:45 27.8 C 6.99 g/m*3 27.8 C 0 km/h
817 15-07-2009 19:22:45 27.7 C 6.95 g/m*3 27.7 C 0 km/h
818 15-07-2009 19:34:45 28.4 C 6.95 g/m*3 28.4 C 0 km/h
819 15-07-2009 19:46:45 28.5 C 6.99 g/m*3 28.5 C 0 km/h
820 15-07-2009 19:58:45 28.4 C 6.95 g/m*3 28.4 C 0 km/h
821 15-07-2009 20:10:44 28.1 C 6.84 g/m*3 28.1 C 0 km/h
822 15-07-2009 20:22:45 27.8 C 6.72 g/m*3 27.8 C 0 km/h
823 15-07-2009 20:34:44 26.9 C 7.42 g/m*3 26.9 C 0 km/h
824 15-07-2009 20:46:44 26.1 C 6.85 g/m*3 26.1 C 0 km/h
825 15-07-2009 20:58:44 25.4 C 7.53 g/m*3 25.4 C 0 km/h
Sensor: Nr:Datum:Temp:Abs-Feuchte:Windchill:Wind:
Aussen-T/F 826 15-07-2009 21:10:44 24.8 C 7.74 g/m*3 24.8 C 0 km/h
827 15-07-2009 21:22:44 24.1 C 7.88 g/m*3 24.1 C 0 km/h
828 15-07-2009 21:34:44 23.4 C 7.99 g/m*3 23.4 C 0 km/h
829 15-07-2009 21:46:43 22.7 C 8.08 g/m*3 22.7 C 0 km/h
830 15-07-2009 21:58:43 22.3 C 8.1 g/m*3 22.3 C 0 km/h
831 15-07-2009 22:10:44 22 C 8.35 g/m*3 22 C 0 km/h
832 15-07-2009 22:23:44 21.8 C 8.83 g/m*3 21.8 C 0 km/h
833 15-07-2009 22:35:44 21.4 C 9.37 g/m*3 21.4 C 0 km/h
834 15-07-2009 22:47:44 21.1 C 9.03 g/m*3 21.1 C 0 km/h
835 15-07-2009 22:59:44 20.7 C 9 g/m*3 20.7 C 0 km/h
836 15-07-2009 23:11:44 20.6 C 9.13 g/m*3 20.6 C 0 km/h
837 15-07-2009 23:23:44 20.2 C 9.09 g/m*3 20.2 C 0 km/h
838 15-07-2009 23:35:44 20 C 9.16 g/m*3 20 C 0 km/h
839 15-07-2009 23:47:44 19.7 C 9.17 g/m*3 19.7 C 0 km/h
840 15-07-2009 23:59:44 19.2 C 9.4 g/m*3 19.2 C 0 km/h
841 16-07-2009 00:11:44 19.1 C 9.51 g/m*3 19.1 C 0 km/h
842 16-07-2009 00:23:44 18.9 C 9.56 g/m*3 18.9 C 0 km/h
843 16-07-2009 00:35:44 18.7 C 9.61 g/m*3 18.7 C 0 km/h
844 16-07-2009 00:47:45 18.5 C 9.65 g/m*3 18.5 C 0 km/h
845 16-07-2009 00:59:45 18.2 C 9.79 g/m*3 18.2 C 0 km/h
846 16-07-2009 01:11:45 18 C 9.68 g/m*3 18 C 0 km/h
847 16-07-2009 01:23:45 17.7 C 9.96 g/m*3 17.7 C 0 km/h
848 16-07-2009 01:35:45 17.5 C 9.99 g/m*3 17.5 C 0 km/h
849 16-07-2009 01:47:45 17.2 C 9.96 g/m*3 17.2 C 0 km/h
850 16-07-2009 01:59:45 17.2 C 9.96 g/m*3 17.2 C 0 km/h
Sensor: Nr:Datum:Temp:Abs-Feuchte:Windchill:Wind:
Aussen-T/F 851 16-07-2009 02:11:45 16.9 C 10.07 g/m*3 16.9 C 0 km/h
852 16-07-2009 02:23:45 16.8 C 10.15 g/m*3 16.8 C 0 km/h
853 16-07-2009 02:35:45 16.8 C 10.15 g/m*3 16.8 C 0 km/h
854 16-07-2009 02:47:45 16.8 C 10.29 g/m*3 16.8 C 0 km/h
855 16-07-2009 02:59:45 16.7 C 10.23 g/m*3 16.7 C 0 km/h
856 16-07-2009 03:11:45 16.6 C 10.17 g/m*3 16.6 C 0 km/h
857 16-07-2009 03:23:45 16.5 C 9.97 g/m*3 16.5 C 0 km/h
858 16-07-2009 03:35:45 16.4 C 10.19 g/m*3 16.4 C 0 km/h
859 16-07-2009 03:47:45 16.2 C 10.2 g/m*3 16.2 C 0 km/h
860 16-07-2009 03:59:45 16.1 C 10.14 g/m*3 16.1 C 0 km/h
861 16-07-2009 04:11:45 16 C 10.22 g/m*3 16 C 0 km/h
862 16-07-2009 04:23:46 15.9 C 10.29 g/m*3 15.9 C 0 km/h
863 16-07-2009 04:35:46 15.9 C 10.29 g/m*3 15.9 C 0 km/h
864 16-07-2009 04:47:46 15.8 C 10.36 g/m*3 15.8 C 0 km/h
865 16-07-2009 04:59:46 15.9 C 10.29 g/m*3 15.9 C 0 km/h
866 16-07-2009 05:11:46 15.8 C 10.23 g/m*3 15.8 C 0 km/h
867 16-07-2009 05:23:46 15.6 C 10.37 g/m*3 15.6 C 0 km/h
868 16-07-2009 05:35:46 15.5 C 10.31 g/m*3 15.5 C 0 km/h
869 16-07-2009 05:47:46 15.4 C 10.12 g/m*3 15.4 C 0 km/h
870 16-07-2009 05:59:46 15.4 C 10.25 g/m*3 15.4 C 0 km/h
871 16-07-2009 06:11:46 15.5 C 10.31 g/m*3 15.5 C 0 km/h
872 16-07-2009 06:23:46 15.6 C 10.37 g/m*3 15.6 C 0 km/h
873 16-07-2009 06:35:44 15.7 C 10.57 g/m*3 15.7 C 0 km/h
874 16-07-2009 06:47:44 15.9 C 10.56 g/m*3 15.9 C 0 km/h
875 16-07-2009 06:59:44 16.2 C 10.62 g/m*3 16.2 C 0 km/h
Sensor: Nr:Datum:Temp:Abs-Feuchte:Windchill:Wind:
Aussen-T/F 876 16-07-2009 07:11:44 16.4 C 10.47 g/m*3 16.4 C 0 km/h
877 16-07-2009 07:23:43 16.5 C 10.39 g/m*3 16.5 C 0 km/h
878 16-07-2009 07:35:43 16.6 C 10.45 g/m*3 16.6 C 0 km/h
879 16-07-2009 07:47:44 16.6 C 10.45 g/m*3 16.6 C 0 km/h
880 16-07-2009 07:59:44 16.7 C 10.23 g/m*3 16.7 C 0 km/h
881 16-07-2009 08:11:43 16.9 C 10.36 g/m*3 16.9 C 0 km/h
882 16-07-2009 08:23:43 17.3 C 10.46 g/m*3 17.3 C 0 km/h
883 16-07-2009 08:35:43 17.5 C 10.44 g/m*3 17.5 C 0 km/h
884 16-07-2009 08:47:43 17.8 C 10.47 g/m*3 17.8 C 0 km/h
885 16-07-2009 08:59:43 18.3 C 10.63 g/m*3 18.3 C 0 km/h
886 16-07-2009 09:11:42 18.9 C 10.85 g/m*3 18.9 C 0 km/h
887 16-07-2009 09:23:43 19.6 C 10.8 g/m*3 19.6 C 0 km/h
888 16-07-2009 09:35:42 20.4 C 10.79 g/m*3 20.4 C 0 km/h
889 16-07-2009 09:47:42 20.9 C 10.75 g/m*3 20.9 C 0 km/h
890 16-07-2009 09:59:42 21.6 C 10.62 g/m*3 21.6 C 0 km/h
891 16-07-2009 10:11:42 22.3 C 10.47 g/m*3 22.3 C 0 km/h
892 16-07-2009 10:23:42 22.8 C 10.57 g/m*3 22.8 C 0 km/h
893 16-07-2009 10:35:42 23.4 C 10.51 g/m*3 23.4 C 0 km/h
894 16-07-2009 10:47:42 23.9 C 9.74 g/m*3 23.9 C 0 km/h
895 16-07-2009 10:59:42 24 C 8.05 g/m*3 24 C 0 km/h
896 16-07-2009 11:11:41 24.7 C 8.37 g/m*3 24.7 C 0 km/h
897 16-07-2009 11:23:42 25 C 7.6 g/m*3 25 C 0 km/h
898 16-07-2009 11:35:42 25.3 C 7.96 g/m*3 25.3 C 0 km/h
899 16-07-2009 11:47:41 25.6 C 7.86 g/m*3 25.6 C 0 km/h
900 16-07-2009 11:59:41 26.3 C 7.92 g/m*3 26.3 C 0 km/h
Sensor: Nr:Datum:Temp:Abs-Feuchte:Windchill:Wind:
Aussen-T/F 901 16-07-2009 12:11:42 27.1 C 6.73 g/m*3 27.1 C 0 km/h
902 16-07-2009 12:23:41 28.1 C 6.56 g/m*3 28.1 C 0 km/h
903 16-07-2009 12:35:41 29.3 C 6.13 g/m*3 29.3 C 0 km/h
904 16-07-2009 12:47:40 29.3 C 6.13 g/m*3 29.3 C 0 km/h
905 16-07-2009 12:59:40 29.3 C 5.84 g/m*3 29.3 C 0 km/h
906 16-07-2009 13:11:41 29.7 C 5.97 g/m*3 29.7 C 0 km/h
907 16-07-2009 13:23:40 30.4 C 6.2 g/m*3 30.4 C 0 km/h
908 16-07-2009 13:35:40 30.9 C 6.37 g/m*3 30.9 C 0 km/h
909 16-07-2009 13:47:40 30.4 C 6.2 g/m*3 30.4 C 0 km/h
910 16-07-2009 13:59:40 31.3 C 6.5 g/m*3 31.3 C 0 km/h
911 16-07-2009 14:11:40 30.8 C 6.33 g/m*3 30.8 C 0 km/h
912 16-07-2009 14:23:40 30.1 C 6.1 g/m*3 30.1 C 0 km/h
913 16-07-2009 14:35:39 30.1 C 6.1 g/m*3 30.1 C 0 km/h
914 16-07-2009 14:47:40 29.9 C 6.03 g/m*3 29.9 C 0 km/h
915 16-07-2009 14:59:40 30.5 C 6.23 g/m*3 30.5 C 0 km/h
916 16-07-2009 15:11:39 30.4 C 6.2 g/m*3 30.4 C 0 km/h
917 16-07-2009 15:23:39 30.8 C 6.33 g/m*3 30.8 C 0 km/h
918 16-07-2009 15:35:39 31.2 C 6.47 g/m*3 31.2 C 0 km/h
919 16-07-2009 15:47:39 31.5 C 6.57 g/m*3 31.5 C 0 km/h
920 16-07-2009 15:59:39 31.3 C 6.5 g/m*3 31.3 C 0 km/h
921 16-07-2009 16:11:38 31.2 C 6.47 g/m*3 31.2 C 0 km/h
922 16-07-2009 16:23:39 31.4 C 6.54 g/m*3 31.4 C 0 km/h
923 16-07-2009 16:35:39 31.4 C 6.54 g/m*3 31.4 C 0 km/h
924 16-07-2009 16:47:38 31.5 C 6.9 g/m*3 31.5 C 0 km/h
925 16-07-2009 16:59:38 31 C 7.36 g/m*3 31 C 0 km/h
Sensor: Nr:Datum:Temp:Abs-Feuchte:Windchill:Wind:
Aussen-T/F 926 16-07-2009 17:11:39 30.6 C 8.14 g/m*3 30.6 C 0 km/h
927 16-07-2009 17:23:38 29.9 C 9.05 g/m*3 29.9 C 0 km/h
928 16-07-2009 17:35:38 29.3 C 9.05 g/m*3 29.3 C 0 km/h
929 16-07-2009 17:47:37 29.1 C 8.95 g/m*3 29.1 C 0 km/h
930 16-07-2009 17:59:37 29.8 C 9 g/m*3 29.8 C 0 km/h
931 16-07-2009 18:11:38 31 C 8.64 g/m*3 31 C 0 km/h
932 16-07-2009 18:23:38 30.5 C 9.35 g/m*3 30.5 C 0 km/h
933 16-07-2009 18:35:37 30.6 C 9.08 g/m*3 30.6 C 0 km/h
934 16-07-2009 18:47:38 31.7 C 7.64 g/m*3 31.7 C 0 km/h
935 16-07-2009 18:59:38 32.3 C 6.86 g/m*3 32.3 C 0 km/h
936 16-07-2009 19:11:37 32.5 C 7.28 g/m*3 32.5 C 0 km/h
937 16-07-2009 19:23:37 32.4 C 7.24 g/m*3 32.4 C 0 km/h
938 16-07-2009 19:35:36 32.2 C 7.51 g/m*3 32.2 C 0 km/h
939 16-07-2009 19:47:37 31.9 C 7.72 g/m*3 31.9 C 0 km/h
940 16-07-2009 19:59:38 31.3 C 8.46 g/m*3 31.3 C 0 km/h
941 16-07-2009 20:11:36 29.9 C 9.35 g/m*3 29.9 C 0 km/h
942 16-07-2009 20:23:36 28.7 C 9.04 g/m*3 28.7 C 0 km/h
943 16-07-2009 20:35:37 28 C 8.97 g/m*3 28 C 0 km/h
944 16-07-2009 20:47:36 26.9 C 8.96 g/m*3 26.9 C 0 km/h
945 16-07-2009 20:59:36 26.3 C 8.91 g/m*3 26.3 C 0 km/h
946 16-07-2009 21:11:36 25.3 C 8.9 g/m*3 25.3 C 0 km/h
947 16-07-2009 21:23:36 24.6 C 8.55 g/m*3 24.6 C 0 km/h
948 16-07-2009 21:35:36 24.2 C 8.58 g/m*3 24.2 C 0 km/h
949 16-07-2009 21:47:35 23.7 C 8.98 g/m*3 23.7 C 0 km/h
950 16-07-2009 21:59:35 23.3 C 8.99 g/m*3 23.3 C 0 km/h
Sensor: Nr:Datum:Temp:Abs-Feuchte:Windchill:Wind:
Aussen-T/F 951 16-07-2009 22:11:36 23 C 9.04 g/m*3 23 C 0 km/h
952 16-07-2009 22:23:35 22.7 C 9.5 g/m*3 22.7 C 0 km/h
953 16-07-2009 22:36:36 22.4 C 9.33 g/m*3 22.4 C 0 km/h
954 16-07-2009 22:48:36 22.1 C 9.56 g/m*3 22.1 C 0 km/h
955 16-07-2009 23:00:36 22 C 9.7 g/m*3 22 C 0 km/h
956 16-07-2009 23:12:36 21.8 C 9.78 g/m*3 21.8 C 0 km/h
957 16-07-2009 23:24:36 21.6 C 9.67 g/m*3 21.6 C 0 km/h
958 16-07-2009 23:36:36 21.5 C 9.62 g/m*3 21.5 C 0 km/h
959 16-07-2009 23:48:36 21.4 C 9.75 g/m*3 21.4 C 0 km/h
960 17-07-2009 00:00:36 21.4 C 9.56 g/m*3 21.4 C 0 km/h
961 17-07-2009 00:12:36 21.3 C 9.69 g/m*3 21.3 C 0 km/h
962 17-07-2009 00:24:36 21.2 C 9.64 g/m*3 21.2 C 0 km/h
963 17-07-2009 00:36:36 21.1 C 9.58 g/m*3 21.1 C 0 km/h
964 17-07-2009 00:48:36 21.1 C 10.13 g/m*3 21.1 C 0 km/h
965 17-07-2009 01:00:36 20.8 C 9.96 g/m*3 20.8 C 0 km/h
966 17-07-2009 01:12:36 20.7 C 9.9 g/m*3 20.7 C 0 km/h
967 17-07-2009 01:24:36 20.5 C 9.79 g/m*3 20.5 C 0 km/h
968 17-07-2009 01:36:36 20.2 C 9.62 g/m*3 20.2 C 0 km/h
969 17-07-2009 01:48:36 20.2 C 9.97 g/m*3 20.2 C 0 km/h
970 17-07-2009 02:00:37 20.1 C 9.73 g/m*3 20.1 C 0 km/h
971 17-07-2009 02:12:37 20 C 9.68 g/m*3 20 C 0 km/h
972 17-07-2009 02:24:37 20 C 10.02 g/m*3 20 C 0 km/h
973 17-07-2009 02:36:37 20 C 10.37 g/m*3 20 C 0 km/h
974 17-07-2009 02:48:37 19.8 C 9.91 g/m*3 19.8 C 0 km/h
975 17-07-2009 03:00:37 19.8 C 9.91 g/m*3 19.8 C 0 km/h
Sensor: Nr:Datum:Temp:Abs-Feuchte:Windchill:Wind:
Aussen-T/F 976 17-07-2009 03:12:37 19.6 C 9.96 g/m*3 19.6 C 0 km/h
977 17-07-2009 03:24:37 19.6 C 9.96 g/m*3 19.6 C 0 km/h
978 17-07-2009 03:36:37 19.7 C 10.36 g/m*3 19.7 C 0 km/h
979 17-07-2009 03:48:37 19.7 C 10.36 g/m*3 19.7 C 0 km/h
980 17-07-2009 04:00:37 19.5 C 10.41 g/m*3 19.5 C 0 km/h
981 17-07-2009 04:12:37 19.5 C 10.41 g/m*3 19.5 C 0 km/h
982 17-07-2009 04:24:37 19.5 C 10.57 g/m*3 19.5 C 0 km/h
983 17-07-2009 04:36:37 19.4 C 10.51 g/m*3 19.4 C 0 km/h
984 17-07-2009 04:48:37 19.3 C 10.45 g/m*3 19.3 C 0 km/h
985 17-07-2009 05:00:37 19 C 10.27 g/m*3 19 C 0 km/h
986 17-07-2009 05:12:37 19.1 C 10.49 g/m*3 19.1 C 0 km/h
987 17-07-2009 05:24:37 19.1 C 10.49 g/m*3 19.1 C 0 km/h
988 17-07-2009 05:36:37 19.1 C 10.66 g/m*3 19.1 C 0 km/h
989 17-07-2009 05:48:37 19.1 C 10.49 g/m*3 19.1 C 0 km/h
990 17-07-2009 06:00:37 19.1 C 10.49 g/m*3 19.1 C 0 km/h
991 17-07-2009 06:12:38 19.1 C 10.82 g/m*3 19.1 C 0 km/h
992 17-07-2009 06:24:38 19 C 10.92 g/m*3 19 C 0 km/h
993 17-07-2009 06:36:38 18.9 C 10.69 g/m*3 18.9 C 0 km/h
994 17-07-2009 06:48:38 19.2 C 10.88 g/m*3 19.2 C 0 km/h
995 17-07-2009 07:00:36 19.3 C 10.78 g/m*3 19.3 C 0 km/h
996 17-07-2009 07:12:37 19.4 C 10.68 g/m*3 19.4 C 0 km/h
997 17-07-2009 07:24:35 18.7 C 12.49 g/m*3 18.7 C 0 km/h
998 17-07-2009 07:36:35 18.5 C 12.97 g/m*3 18.5 C 0 km/h
999 17-07-2009 07:48:35 18.3 C 13.13 g/m*3 18.3 C 0 km/h
1000 17-07-2009 08:00:35 18.1 C 13.13 g/m*3 18.1 C 0 km/h
Sensor: Nr:Datum:Temp:Abs-Feuchte:Windchill:Wind:
Aussen-T/F 1001 17-07-2009 08:12:35 18 C 13.36 g/m*3 18 C 0 km/h
1002 17-07-2009 08:24:35 18.1 C 13.6 g/m*3 18.1 C 0 km/h
1003 17-07-2009 08:36:35 18.3 C 13.92 g/m*3 18.3 C 0 km/h
1004 17-07-2009 08:48:35 18.2 C 13.68 g/m*3 18.2 C 0 km/h
1005 17-07-2009 09:00:34 18.5 C 13.92 g/m*3 18.5 C 0 km/h
1006 17-07-2009 09:12:34 18.7 C 14.09 g/m*3 18.7 C 0 km/h
1007 17-07-2009 09:24:35 18.9 C 14.26 g/m*3 18.9 C 0 km/h
1008 17-07-2009 09:36:34 19.1 C 13.93 g/m*3 19.1 C 0 km/h
1009 17-07-2009 09:48:35 19.3 C 13.77 g/m*3 19.3 C 0 km/h
1010 17-07-2009 10:00:34 20 C 13.65 g/m*3 20 C 0 km/h
1011 17-07-2009 10:12:34 20.7 C 13.68 g/m*3 20.7 C 0 km/h
1012 17-07-2009 10:24:34 20.9 C 12.38 g/m*3 20.9 C 0 km/h
1013 17-07-2009 10:36:33 21.1 C 11.98 g/m*3 21.1 C 0 km/h
1014 17-07-2009 10:48:34 21 C 11.72 g/m*3 21 C 0 km/h
1015 17-07-2009 11:00:34 21.6 C 11.57 g/m*3 21.6 C 0 km/h
1016 17-07-2009 11:12:34 22.8 C 11.58 g/m*3 22.8 C 0 km/h
1017 17-07-2009 11:24:33 23 C 10.89 g/m*3 23 C 0 km/h
1018 17-07-2009 11:36:34 22.3 C 10.47 g/m*3 22.3 C 0 km/h
1019 17-07-2009 11:48:33 21.8 C 10.36 g/m*3 21.8 C 0 km/h
1020 17-07-2009 12:00:33 21.5 C 10.18 g/m*3 21.5 C 0 km/h
1021 17-07-2009 12:12:33 21.5 C 9.62 g/m*3 21.5 C 0 km/h
1022 17-07-2009 12:24:32 22.1 C 9.56 g/m*3 22.1 C 0 km/h
1023 17-07-2009 12:36:33 22.3 C 9.08 g/m*3 22.3 C 0 km/h
1024 17-07-2009 12:48:32 23 C 8.84 g/m*3 23 C 0 km/h
1025 17-07-2009 13:00:32 24.4 C 8.68 g/m*3 24.4 C 0 km/h
Sensor: Nr:Datum:Temp:Abs-Feuchte:Windchill:Wind:
Aussen-T/F 1026 17-07-2009 13:12:32 23.2 C 8.11 g/m*3 23.2 C 0 km/h
1027 17-07-2009 13:24:33 24.9 C 8.24 g/m*3 24.9 C 0 km/h
1028 17-07-2009 13:36:32 25.4 C 7.77 g/m*3 25.4 C 0 km/h
1029 17-07-2009 13:48:32 25.8 C 7.22 g/m*3 25.8 C 0 km/h
1030 17-07-2009 14:00:32 25.6 C 7.38 g/m*3 25.6 C 0 km/h
1031 17-07-2009 14:12:32 25.1 C 7.18 g/m*3 25.1 C 0 km/h
1032 17-07-2009 14:24:32 25.3 C 7.26 g/m*3 25.3 C 0 km/h
1033 17-07-2009 14:36:31 25.8 C 6.98 g/m*3 25.8 C 0 km/h
1034 17-07-2009 14:48:31 26 C 6.82 g/m*3 26 C 0 km/h
1035 17-07-2009 15:00:32 24.9 C 6.87 g/m*3 24.9 C 0 km/h
1036 17-07-2009 15:12:32 24.4 C 7.12 g/m*3 24.4 C 0 km/h
1037 17-07-2009 15:24:02 24.2 C 7.04 g/m*3 24.2 C 0 km/h
1038 17-07-2009 15:36:02 23.9 C 7.14 g/m*3 23.9 C 0 km/h
1039 17-07-2009 15:48:01 24.8 C 7.51 g/m*3 24.8 C 0 km/h
1040 17-07-2009 16:00:01 24.6 C 7.2 g/m*3 24.6 C 0 km/h
1041 17-07-2009 16:12:02 24.5 C 6.94 g/m*3 24.5 C 0 km/h
1042 17-07-2009 16:24:01 24.5 C 7.16 g/m*3 24.5 C 0 km/h
1043 17-07-2009 16:36:01 24.4 C 6.9 g/m*3 24.4 C 0 km/h
1044 17-07-2009 16:48:01 23.5 C 6.56 g/m*3 23.5 C 0 km/h
1045 17-07-2009 17:00:01 22.9 C 7.36 g/m*3 22.9 C 0 km/h
1046 17-07-2009 17:12:01 22.7 C 7.48 g/m*3 22.7 C 0 km/h
1047 17-07-2009 17:24:01 22.7 C 7.48 g/m*3 22.7 C 0 km/h
1048 17-07-2009 17:36:00 22.7 C 7.27 g/m*3 22.7 C 0 km/h
1049 17-07-2009 17:48:01 22.5 C 7.39 g/m*3 22.5 C 0 km/h
1050 17-07-2009 18:00:01 22.3 C 6.71 g/m*3 22.3 C 0 km/h
Sensor: Nr:Datum:Temp:Abs-Feuchte:Windchill:Wind:
Aussen-T/F 1051 17-07-2009 18:12:00 22.1 C 6.83 g/m*3 22.1 C 0 km/h
1052 17-07-2009 18:24:00 22 C 6.6 g/m*3 22 C 0 km/h
1053 17-07-2009 18:35:59 21.6 C 6.83 g/m*3 21.6 C 0 km/h
1054 17-07-2009 18:48:00 21.6 C 7.02 g/m*3 21.6 C 0 km/h
1055 17-07-2009 19:00:00 21.2 C 7.41 g/m*3 21.2 C 0 km/h
1056 17-07-2009 19:12:59 21.1 C 7.55 g/m*3 21.1 C 0 km/h
1057 17-07-2009 19:24:59 21.2 C 7.6 g/m*3 21.2 C 0 km/h
1058 17-07-2009 19:36:00 21.3 C 7.83 g/m*3 21.3 C 0 km/h
1059 17-07-2009 19:48:59 21 C 7.88 g/m*3 21 C 0 km/h
1060 17-07-2009 20:00:59 20.6 C 7.7 g/m*3 20.6 C 0 km/h
1061 17-07-2009 20:12:59 20.4 C 7.78 g/m*3 20.4 C 0 km/h
1062 17-07-2009 20:24:59 20.2 C 8.04 g/m*3 20.2 C 0 km/h
1063 17-07-2009 20:36:59 20 C 7.95 g/m*3 20 C 0 km/h
1064 17-07-2009 20:48:58 19.7 C 8.32 g/m*3 19.7 C 0 km/h
1065 17-07-2009 21:00:59 19.6 C 8.44 g/m*3 19.6 C 0 km/h
1066 17-07-2009 21:12:59 19.5 C 8.39 g/m*3 19.5 C 0 km/h
1067 17-07-2009 21:24:58 19.5 C 8.39 g/m*3 19.5 C 0 km/h
1068 17-07-2009 21:36:58 19.5 C 8.22 g/m*3 19.5 C 0 km/h
1069 17-07-2009 21:48:58 19.3 C 8.13 g/m*3 19.3 C 0 km/h
1070 17-07-2009 22:00:58 19.2 C 8.24 g/m*3 19.2 C 0 km/h
1071 17-07-2009 22:12:58 19 C 8.15 g/m*3 19 C 0 km/h
1072 17-07-2009 22:24:58 18.9 C 8.42 g/m*3 18.9 C 0 km/h
1073 17-07-2009 22:36:57 18.7 C 8.49 g/m*3 18.7 C 0 km/h
1074 17-07-2009 22:49:59 18.6 C 8.75 g/m*3 18.6 C 0 km/h
1075 17-07-2009 23:01:59 18.5 C 8.86 g/m*3 18.5 C 0 km/h
Sensor: Nr:Datum:Temp:Abs-Feuchte:Windchill:Wind:
Aussen-T/F 1076 17-07-2009 23:13:59 18.6 C 9.23 g/m*3 18.6 C 0 km/h
1077 17-07-2009 23:25:59 18.5 C 9.33 g/m*3 18.5 C 0 km/h
1078 17-07-2009 23:37:59 18.6 C 9.39 g/m*3 18.6 C 0 km/h
1079 17-07-2009 23:49:59 18.4 C 9.28 g/m*3 18.4 C 0 km/h
1080 18-07-2009 00:01:59 18.3 C 9.22 g/m*3 18.3 C 0 km/h
1081 18-07-2009 00:13:59 18.2 C 9.17 g/m*3 18.2 C 0 km/h
1082 18-07-2009 00:25:59 18.3 C 9.07 g/m*3 18.3 C 0 km/h
1083 18-07-2009 00:37:59 18.1 C 9.12 g/m*3 18.1 C 0 km/h
1084 18-07-2009 00:49:59 17.7 C 9.51 g/m*3 17.7 C 0 km/h
1085 18-07-2009 01:01:59 17 C 9.69 g/m*3 17 C 0 km/h
1086 18-07-2009 01:13:59 17 C 9.26 g/m*3 17 C 0 km/h
1087 18-07-2009 01:25:59 17.1 C 9.17 g/m*3 17.1 C 0 km/h
1088 18-07-2009 01:37:59 17.1 C 9.03 g/m*3 17.1 C 0 km/h
1089 18-07-2009 01:49:59 17 C 8.83 g/m*3 17 C 0 km/h
1090 18-07-2009 02:01:59 17 C 8.68 g/m*3 17 C 0 km/h
1091 18-07-2009 02:14:00 16.9 C 8.63 g/m*3 16.9 C 0 km/h
1092 18-07-2009 02:26:00 16.8 C 8.58 g/m*3 16.8 C 0 km/h
1093 18-07-2009 02:37:00 16.7 C 8.67 g/m*3 16.7 C 0 km/h
1094 18-07-2009 02:49:00 16.7 C 8.67 g/m*3 16.7 C 0 km/h
1095 18-07-2009 03:01:00 16.6 C 8.62 g/m*3 16.6 C 0 km/h
1096 18-07-2009 03:13:00 16.5 C 8.71 g/m*3 16.5 C 0 km/h
1097 18-07-2009 03:25:00 16.4 C 8.65 g/m*3 16.4 C 0 km/h
1098 18-07-2009 03:37:00 16.1 C 8.64 g/m*3 16.1 C 0 km/h
1099 18-07-2009 03:49:00 16 C 8.72 g/m*3 16 C 0 km/h
1100 18-07-2009 04:01:00 15.9 C 8.67 g/m*3 15.9 C 0 km/h
Sensor: Nr:Datum:Temp:Abs-Feuchte:Windchill:Wind:
Aussen-T/F 1101 18-07-2009 04:13:00 15.7 C 8.7 g/m*3 15.7 C 0 km/h
1102 18-07-2009 04:25:00 15.4 C 8.54 g/m*3 15.4 C 0 km/h
1103 18-07-2009 04:37:00 15.2 C 8.44 g/m*3 15.2 C 0 km/h
1104 18-07-2009 04:49:00 15 C 8.33 g/m*3 15 C 0 km/h
1105 18-07-2009 05:01:00 15 C 8.33 g/m*3 15 C 0 km/h
1106 18-07-2009 05:13:00 15 C 8.33 g/m*3 15 C 0 km/h
1107 18-07-2009 05:25:00 15 C 8.33 g/m*3 15 C 0 km/h
1108 18-07-2009 05:37:00 14.9 C 8.54 g/m*3 14.9 C 0 km/h
1109 18-07-2009 05:49:00 14.8 C 8.49 g/m*3 14.8 C 0 km/h
1110 18-07-2009 06:01:00 15.1 C 8.51 g/m*3 15.1 C 0 km/h
1111 18-07-2009 06:13:00 15.1 C 8.39 g/m*3 15.1 C 0 km/h
1112 18-07-2009 06:25:01 15.1 C 8.39 g/m*3 15.1 C 0 km/h
1113 18-07-2009 06:37:01 15.1 C 8.39 g/m*3 15.1 C 0 km/h
1114 18-07-2009 06:49:01 15 C 8.33 g/m*3 15 C 0 km/h
1115 18-07-2009 07:01:01 14.9 C 8.54 g/m*3 14.9 C 0 km/h
1116 18-07-2009 07:13:01 14.9 C 8.67 g/m*3 14.9 C 0 km/h
1117 18-07-2009 07:25:01 14.8 C 8.61 g/m*3 14.8 C 0 km/h
1118 18-07-2009 07:37:01 15 C 8.72 g/m*3 15 C 0 km/h
1119 18-07-2009 07:49:58 15.4 C 8.67 g/m*3 15.4 C 0 km/h
1120 18-07-2009 08:01:58 15.5 C 8.86 g/m*3 15.5 C 0 km/h
1121 18-07-2009 08:13:58 15.9 C 8.94 g/m*3 15.9 C 0 km/h
1122 18-07-2009 08:25:58 16 C 8.86 g/m*3 16 C 0 km/h
1123 18-07-2009 08:37:58 16.3 C 8.88 g/m*3 16.3 C 0 km/h
1124 18-07-2009 08:49:57 16.8 C 9.15 g/m*3 16.8 C 0 km/h
1125 18-07-2009 09:01:58 16.9 C 8.77 g/m*3 16.9 C 0 km/h
Sensor: Nr:Datum:Temp:Abs-Feuchte:Windchill:Wind:
Aussen-T/F 1126 18-07-2009 09:13:58 16.9 C 8.77 g/m*3 16.9 C 0 km/h
1127 18-07-2009 09:25:57 17.1 C 8.15 g/m*3 17.1 C 0 km/h
1128 18-07-2009 09:37:57 17.1 C 7.86 g/m*3 17.1 C 0 km/h
1129 18-07-2009 09:49:57 17 C 7.67 g/m*3 17 C 0 km/h
1130 18-07-2009 10:01:57 17.1 C 7.86 g/m*3 17.1 C 0 km/h
1131 18-07-2009 10:13:57 17.4 C 8.15 g/m*3 17.4 C 0 km/h
1132 18-07-2009 10:25:56 17.3 C 8.1 g/m*3 17.3 C 0 km/h
1133 18-07-2009 10:37:57 17.5 C 8.2 g/m*3 17.5 C 0 km/h
1134 18-07-2009 10:49:56 17.6 C 7.8 g/m*3 17.6 C 0 km/h
1135 18-07-2009 11:01:56 17.8 C 7.59 g/m*3 17.8 C 0 km/h
1136 18-07-2009 11:13:56 18 C 7.53 g/m*3 18 C 0 km/h
1137 18-07-2009 11:25:56 18.7 C 7.84 g/m*3 18.7 C 0 km/h
1138 18-07-2009 11:37:56 18.9 C 7.78 g/m*3 18.9 C 0 km/h
1139 18-07-2009 11:49:56 18.8 C 7.25 g/m*3 18.8 C 0 km/h
1140 18-07-2009 12:01:55 18.4 C 7.24 g/m*3 18.4 C 0 km/h
1141 18-07-2009 12:13:55 18.7 C 7.36 g/m*3 18.7 C 0 km/h
1142 18-07-2009 12:25:56 19.4 C 7.34 g/m*3 19.4 C 0 km/h
1143 18-07-2009 12:37:55 20.2 C 7.34 g/m*3 20.2 C 0 km/h
1144 18-07-2009 12:49:55 19.5 C 7.72 g/m*3 19.5 C 0 km/h
1145 18-07-2009 13:01:54 19 C 7.82 g/m*3 19 C 0 km/h
1146 18-07-2009 13:13:54 18.1 C 7.88 g/m*3 18.1 C 0 km/h
1147 18-07-2009 13:25:55 18.8 C 7.73 g/m*3 18.8 C 0 km/h
1148 18-07-2009 13:37:55 18.1 C 7.57 g/m*3 18.1 C 0 km/h
1149 18-07-2009 13:49:54 17.7 C 8.3 g/m*3 17.7 C 0 km/h
1150 18-07-2009 14:01:55 17.9 C 7.94 g/m*3 17.9 C 0 km/h
Sensor: Nr:Datum:Temp:Abs-Feuchte:Windchill:Wind:
Aussen-T/F 1151 18-07-2009 14:13:55 18.1 C 7.88 g/m*3 18.1 C 0 km/h
1152 18-07-2009 14:25:54 18.1 C 7.73 g/m*3 18.1 C 0 km/h
1153 18-07-2009 14:37:54 18.3 C 8.13 g/m*3 18.3 C 0 km/h
1154 18-07-2009 14:49:54 18.3 C 7.82 g/m*3 18.3 C 0 km/h
1155 18-07-2009 15:01:54 18.1 C 7.11 g/m*3 18.1 C 0 km/h
1156 18-07-2009 15:13:54 18.1 C 7.42 g/m*3 18.1 C 0 km/h
1157 18-07-2009 15:25:54 17.8 C 7.89 g/m*3 17.8 C 0 km/h
1158 18-07-2009 15:37:53 17.8 C 7.59 g/m*3 17.8 C 0 km/h
1159 18-07-2009 15:49:54 17.9 C 7.94 g/m*3 17.9 C 0 km/h
1160 18-07-2009 16:01:53 17.9 C 8.4 g/m*3 17.9 C 0 km/h
1161 18-07-2009 16:13:53 17.9 C 8.4 g/m*3 17.9 C 0 km/h
1162 18-07-2009 16:25:53 17.9 C 8.55 g/m*3 17.9 C 0 km/h
1163 18-07-2009 16:37:53 18.1 C 8.5 g/m*3 18.1 C 0 km/h
1164 18-07-2009 16:49:53 18.2 C 8.7 g/m*3 18.2 C 0 km/h
1165 18-07-2009 17:01:53 18.2 C 8.86 g/m*3 18.2 C 0 km/h
1166 18-07-2009 17:13:53 17.2 C 9.67 g/m*3 17.2 C 0 km/h
1167 18-07-2009 17:25:52 16.6 C 10.31 g/m*3 16.6 C 0 km/h
1168 18-07-2009 17:37:53 17.6 C 10.95 g/m*3 17.6 C 0 km/h
1169 18-07-2009 17:49:52 18.7 C 10.73 g/m*3 18.7 C 0 km/h
1170 18-07-2009 18:01:52 19.5 C 10.57 g/m*3 19.5 C 0 km/h
1171 18-07-2009 18:13:52 19.7 C 10.53 g/m*3 19.7 C 0 km/h
1172 18-07-2009 18:25:52 19.5 C 10.41 g/m*3 19.5 C 0 km/h
1173 18-07-2009 18:37:52 19.8 C 10.25 g/m*3 19.8 C 0 km/h
1174 18-07-2009 18:49:51 20.1 C 9.91 g/m*3 20.1 C 0 km/h
1175 18-07-2009 19:01:51 21.3 C 10.07 g/m*3 21.3 C 0 km/h
Sensor: Nr:Datum:Temp:Abs-Feuchte:Windchill:Wind:
Aussen-T/F 1176 18-07-2009 19:13:51 21.9 C 9.26 g/m*3 21.9 C 0 km/h
1177 18-07-2009 19:25:52 22 C 9.12 g/m*3 22 C 0 km/h
1178 18-07-2009 19:37:51 22.4 C 8.54 g/m*3 22.4 C 0 km/h
1179 18-07-2009 19:49:51 22.1 C 7.03 g/m*3 22.1 C 0 km/h
1180 18-07-2009 20:01:51 20.8 C 6.52 g/m*3 20.8 C 0 km/h
1181 18-07-2009 20:13:51 21.4 C 6.75 g/m*3 21.4 C 0 km/h
1182 18-07-2009 20:25:51 21.3 C 7.27 g/m*3 21.3 C 0 km/h
1183 18-07-2009 20:37:50 20.9 C 7.29 g/m*3 20.9 C 0 km/h
1184 18-07-2009 20:49:51 20 C 7.43 g/m*3 20 C 0 km/h
1185 18-07-2009 21:01:50 19.3 C 7.3 g/m*3 19.3 C 0 km/h
1186 18-07-2009 21:13:50 18.9 C 7.29 g/m*3 18.9 C 0 km/h
1187 18-07-2009 21:25:50 18.5 C 7.44 g/m*3 18.5 C 0 km/h
1188 18-07-2009 21:37:50 18.4 C 7.39 g/m*3 18.4 C 0 km/h
1189 18-07-2009 21:49:50 18.2 C 7.46 g/m*3 18.2 C 0 km/h
1190 18-07-2009 22:01:50 17.9 C 7.48 g/m*3 17.9 C 0 km/h
1191 18-07-2009 22:13:50 17.5 C 7.6 g/m*3 17.5 C 0 km/h
1192 18-07-2009 22:25:49 17.4 C 7.71 g/m*3 17.4 C 0 km/h
1193 18-07-2009 22:37:50 17.2 C 8.05 g/m*3 17.2 C 0 km/h
1194 18-07-2009 22:49:49 16.7 C 8.24 g/m*3 16.7 C 0 km/h
1195 18-07-2009 23:01:49 16.4 C 8.23 g/m*3 16.4 C 0 km/h
1196 18-07-2009 23:13:49 16.2 C 8.27 g/m*3 16.2 C 0 km/h
1197 18-07-2009 23:25:49 16.2 C 8.27 g/m*3 16.2 C 0 km/h
1198 18-07-2009 23:37:49 16.3 C 8.32 g/m*3 16.3 C 0 km/h
1199 18-07-2009 23:49:49 16.2 C 8.14 g/m*3 16.2 C 0 km/h
1200 19-07-2009 00:01:48 15.8 C 8.35 g/m*3 15.8 C 0 km/h
Sensor: Nr:Datum:Temp:Abs-Feuchte:Windchill:Wind:
Aussen-T/F 1201 19-07-2009 00:13:48 15.5 C 8.33 g/m*3 15.5 C 0 km/h
1202 19-07-2009 00:25:48 15.3 C 8.36 g/m*3 15.3 C 0 km/h
1203 19-07-2009 00:37:48 15.2 C 8.31 g/m*3 15.2 C 0 km/h
1204 19-07-2009 00:49:49 15 C 8.33 g/m*3 15 C 0 km/h
1205 19-07-2009 01:01:48 14.7 C 8.44 g/m*3 14.7 C 0 km/h
1206 19-07-2009 01:13:48 14.5 C 8.58 g/m*3 14.5 C 0 km/h
1207 19-07-2009 01:25:48 14.4 C 8.53 g/m*3 14.4 C 0 km/h
1208 19-07-2009 01:38:50 14.3 C 8.6 g/m*3 14.3 C 0 km/h
1209 19-07-2009 01:50:50 14.4 C 8.65 g/m*3 14.4 C 0 km/h
1210 19-07-2009 02:02:50 14.7 C 8.56 g/m*3 14.7 C 0 km/h
1211 19-07-2009 02:14:51 14.6 C 8.51 g/m*3 14.6 C 0 km/h
1212 19-07-2009 02:26:51 14.7 C 8.44 g/m*3 14.7 C 0 km/h
1213 19-07-2009 02:38:51 14.7 C 8.31 g/m*3 14.7 C 0 km/h
1214 19-07-2009 02:50:51 15 C 8.08 g/m*3 15 C 0 km/h
1215 19-07-2009 03:02:51 15.1 C 8 g/m*3 15.1 C 0 km/h
1216 19-07-2009 03:14:51 15 C 8.08 g/m*3 15 C 0 km/h
1217 19-07-2009 03:26:51 15 C 8.21 g/m*3 15 C 0 km/h
1218 19-07-2009 03:38:51 15 C 8.21 g/m*3 15 C 0 km/h
1219 19-07-2009 03:50:51 15 C 8.21 g/m*3 15 C 0 km/h
1220 19-07-2009 04:02:51 15.1 C 8.39 g/m*3 15.1 C 0 km/h
1221 19-07-2009 04:14:51 15.4 C 8.15 g/m*3 15.4 C 0 km/h
1222 19-07-2009 04:26:51 15 C 8.46 g/m*3 15 C 0 km/h
1223 19-07-2009 04:38:51 15 C 8.59 g/m*3 15 C 0 km/h
1224 19-07-2009 04:50:51 14.2 C 9.28 g/m*3 14.2 C 0 km/h
1225 19-07-2009 05:02:51 14.1 C 9.47 g/m*3 14.1 C 0 km/h
Sensor: Nr:Datum:Temp:Abs-Feuchte:Windchill:Wind:
Aussen-T/F 1226 19-07-2009 05:14:51 14.1 C 9.59 g/m*3 14.1 C 0 km/h
1227 19-07-2009 05:26:51 14.2 C 9.77 g/m*3 14.2 C 0 km/h
1228 19-07-2009 05:38:51 14.3 C 9.83 g/m*3 14.3 C 0 km/h
1229 19-07-2009 05:50:51 14.5 C 9.95 g/m*3 14.5 C 0 km/h
1230 19-07-2009 06:02:51 14.7 C 10.07 g/m*3 14.7 C 0 km/h
1231 19-07-2009 06:14:51 14.5 C 9.95 g/m*3 14.5 C 0 km/h
1232 19-07-2009 06:26:52 14.5 C 9.95 g/m*3 14.5 C 0 km/h
1233 19-07-2009 06:38:52 14.4 C 10.01 g/m*3 14.4 C 0 km/h
1234 19-07-2009 06:50:52 14.7 C 10.07 g/m*3 14.7 C 0 km/h
1235 19-07-2009 07:02:52 14.9 C 10.07 g/m*3 14.9 C 0 km/h
1236 19-07-2009 07:14:52 14.9 C 9.94 g/m*3 14.9 C 0 km/h
1237 19-07-2009 07:26:52 14.9 C 10.07 g/m*3 14.9 C 0 km/h
1238 19-07-2009 07:38:52 15.8 C 10.1 g/m*3 15.8 C 0 km/h
1239 19-07-2009 07:50:52 16.1 C 9.73 g/m*3 16.1 C 0 km/h
1240 19-07-2009 08:02:52 15.8 C 9.96 g/m*3 15.8 C 0 km/h
1241 19-07-2009 08:14:52 15.4 C 10.25 g/m*3 15.4 C 0 km/h
1242 19-07-2009 08:26:52 15.2 C 10.25 g/m*3 15.2 C 0 km/h
1243 19-07-2009 08:38:52 15.4 C 10.51 g/m*3 15.4 C 0 km/h
1244 19-07-2009 08:50:52 15.6 C 10.51 g/m*3 15.6 C 0 km/h
1245 19-07-2009 09:02:52 15.9 C 10.43 g/m*3 15.9 C 0 km/h
1246 19-07-2009 09:14:52 16.4 C 10.33 g/m*3 16.4 C 0 km/h
1247 19-07-2009 09:26:52 17 C 10.13 g/m*3 17 C 0 km/h
1248 19-07-2009 09:38:52 17 C 9.98 g/m*3 17 C 0 km/h
1249 19-07-2009 09:50:52 17.4 C 10.23 g/m*3 17.4 C 0 km/h
1250 19-07-2009 10:02:49 17.8 C 9.87 g/m*3 17.8 C 0 km/h
Sensor: Nr:Datum:Temp:Abs-Feuchte:Windchill:Wind:
Aussen-T/F 1251 19-07-2009 10:14:49 18.4 C 9.75 g/m*3 18.4 C 0 km/h
1252 19-07-2009 10:26:49 19 C 9.29 g/m*3 19 C 0 km/h
1253 19-07-2009 10:38:50 19 C 9.13 g/m*3 19 C 0 km/h
1254 19-07-2009 10:50:49 18.5 C 9.49 g/m*3 18.5 C 0 km/h
1255 19-07-2009 11:02:49 18.2 C 9.95 g/m*3 18.2 C 0 km/h
1256 19-07-2009 11:14:48 17.6 C 10.2 g/m*3 17.6 C 0 km/h
1257 19-07-2009 11:26:48 18.5 C 9.97 g/m*3 18.5 C 0 km/h
1258 19-07-2009 11:38:49 18.1 C 10.04 g/m*3 18.1 C 0 km/h
1259 19-07-2009 11:50:48 19.4 C 10.01 g/m*3 19.4 C 0 km/h
1260 19-07-2009 12:02:48 19.5 C 9.4 g/m*3 19.5 C 0 km/h
1261 19-07-2009 12:14:49 17.8 C 10.78 g/m*3 17.8 C 0 km/h
1262 19-07-2009 12:26:49 19.7 C 10.87 g/m*3 19.7 C 0 km/h
1263 19-07-2009 12:38:48 20 C 9.51 g/m*3 20 C 0 km/h
1264 19-07-2009 12:50:48 19.5 C 8.89 g/m*3 19.5 C 0 km/h
1265 19-07-2009 13:02:48 19.1 C 8.52 g/m*3 19.1 C 0 km/h
1266 19-07-2009 13:14:48 19.6 C 7.6 g/m*3 19.6 C 0 km/h
1267 19-07-2009 13:26:49 21.4 C 7.31 g/m*3 21.4 C 0 km/h
1268 19-07-2009 13:38:47 20.4 C 7.25 g/m*3 20.4 C 0 km/h
1269 19-07-2009 13:50:48 20.6 C 7.7 g/m*3 20.6 C 0 km/h
1270 19-07-2009 14:02:47 22 C 6.99 g/m*3 22 C 0 km/h
1271 19-07-2009 14:14:47 23 C 6.78 g/m*3 23 C 0 km/h
1272 19-07-2009 14:26:47 22 C 6.79 g/m*3 22 C 0 km/h
1273 19-07-2009 14:38:47 21.3 C 6.9 g/m*3 21.3 C 0 km/h
1274 19-07-2009 14:50:47 19.2 C 7.26 g/m*3 19.2 C 0 km/h
1275 19-07-2009 15:02:47 19.9 C 8.25 g/m*3 19.9 C 0 km/h
Sensor: Nr:Datum:Temp:Abs-Feuchte:Windchill:Wind:
Aussen-T/F 1276 19-07-2009 15:14:46 21.2 C 7.6 g/m*3 21.2 C 0 km/h
1277 19-07-2009 15:26:46 21.1 C 7.92 g/m*3 21.1 C 0 km/h
1278 19-07-2009 15:38:46 22.5 C 7.79 g/m*3 22.5 C 0 km/h
1279 19-07-2009 15:50:46 22.6 C 7.43 g/m*3 22.6 C 0 km/h
1280 19-07-2009 16:02:46 21.7 C 7.44 g/m*3 21.7 C 0 km/h
1281 19-07-2009 16:14:46 20 C 6.74 g/m*3 20 C 0 km/h
1282 19-07-2009 16:26:46 17.5 C 9.84 g/m*3 17.5 C 0 km/h
1283 19-07-2009 16:38:46 17.8 C 10.32 g/m*3 17.8 C 0 km/h
1284 19-07-2009 16:50:46 19 C 8.47 g/m*3 19 C 0 km/h
1285 19-07-2009 17:02:45 21.2 C 8.9 g/m*3 21.2 C 0 km/h
1286 19-07-2009 17:14:46 21.2 C 7.6 g/m*3 21.2 C 0 km/h
1287 19-07-2009 17:26:46 20.8 C 7.42 g/m*3 20.8 C 0 km/h
1288 19-07-2009 17:38:45 20.8 C 7.79 g/m*3 20.8 C 0 km/h
1289 19-07-2009 17:50:45 21.4 C 7.87 g/m*3 21.4 C 0 km/h
1290 19-07-2009 18:02:45 22 C 7.18 g/m*3 22 C 0 km/h
1291 19-07-2009 18:14:45 21.7 C 7.44 g/m*3 21.7 C 0 km/h
1292 19-07-2009 18:26:45 23.4 C 7.36 g/m*3 23.4 C 0 km/h
1293 19-07-2009 18:38:45 22 C 6.79 g/m*3 22 C 0 km/h
1294 19-07-2009 18:50:44 23.4 C 6.73 g/m*3 23.4 C 0 km/h
1295 19-07-2009 19:02:45 23.4 C 6.52 g/m*3 23.4 C 0 km/h
1296 19-07-2009 19:14:44 21.4 C 6.75 g/m*3 21.4 C 0 km/h
1297 19-07-2009 19:26:44 21 C 6.78 g/m*3 21 C 0 km/h
1298 19-07-2009 19:38:44 20.8 C 7.06 g/m*3 20.8 C 0 km/h
1299 19-07-2009 19:50:44 21.9 C 7.14 g/m*3 21.9 C 0 km/h
1300 19-07-2009 20:02:44 21.9 C 6.75 g/m*3 21.9 C 0 km/h
Sensor: Nr:Datum:Temp:Abs-Feuchte:Windchill:Wind:
Aussen-T/F 1301 19-07-2009 20:14:43 21.2 C 6.86 g/m*3 21.2 C 0 km/h
1302 19-07-2009 20:26:43 21 C 7.14 g/m*3 21 C 0 km/h
1303 19-07-2009 20:38:43 20.5 C 7.12 g/m*3 20.5 C 0 km/h
1304 19-07-2009 20:50:43 20.3 C 7.21 g/m*3 20.3 C 0 km/h
1305 19-07-2009 21:02:43 19.8 C 7 g/m*3 19.8 C 0 km/h
1306 19-07-2009 21:14:43 19.4 C 6.84 g/m*3 19.4 C 0 km/h
1307 19-07-2009 21:26:44 18.9 C 6.97 g/m*3 18.9 C 0 km/h
1308 19-07-2009 21:38:42 18.7 C 7.04 g/m*3 18.7 C 0 km/h
1309 19-07-2009 21:50:43 18.4 C 6.92 g/m*3 18.4 C 0 km/h
1310 19-07-2009 22:02:42 18.2 C 6.99 g/m*3 18.2 C 0 km/h
1311 19-07-2009 22:14:42 17.9 C 7.18 g/m*3 17.9 C 0 km/h
1312 19-07-2009 22:26:42 17.8 C 7.29 g/m*3 17.8 C 0 km/h
1313 19-07-2009 22:39:43 17.7 C 7.24 g/m*3 17.7 C 0 km/h
1314 19-07-2009 22:51:43 17.9 C 7.18 g/m*3 17.9 C 0 km/h
1315 19-07-2009 23:03:43 18 C 7.22 g/m*3 18 C 0 km/h
1316 19-07-2009 23:15:43 17.7 C 7.54 g/m*3 17.7 C 0 km/h
1317 19-07-2009 23:27:43 17.2 C 7.61 g/m*3 17.2 C 0 km/h
1318 19-07-2009 23:39:43 17.1 C 7.71 g/m*3 17.1 C 0 km/h
1319 19-07-2009 23:51:44 17.4 C 7.41 g/m*3 17.4 C 0 km/h
1320 20-07-2009 00:03:44 18 C 7.07 g/m*3 18 C 0 km/h
1321 20-07-2009 00:15:44 18.1 C 7.11 g/m*3 18.1 C 0 km/h
1322 20-07-2009 00:27:44 17.9 C 7.18 g/m*3 17.9 C 0 km/h
1323 20-07-2009 00:39:44 17.5 C 7.16 g/m*3 17.5 C 0 km/h
1324 20-07-2009 00:51:44 17.4 C 7.26 g/m*3 17.4 C 0 km/h
1325 20-07-2009 01:03:44 17.3 C 7.22 g/m*3 17.3 C 0 km/h
Sensor: Nr:Datum:Temp:Abs-Feuchte:Windchill:Wind:
Aussen-T/F 1326 20-07-2009 01:15:44 17.2 C 7.32 g/m*3 17.2 C 0 km/h
1327 20-07-2009 01:27:44 17 C 7.38 g/m*3 17 C 0 km/h
1328 20-07-2009 01:39:44 17 C 7.38 g/m*3 17 C 0 km/h
1329 20-07-2009 01:51:44 17 C 7.38 g/m*3 17 C 0 km/h
1330 20-07-2009 02:03:44 16.9 C 7.62 g/m*3 16.9 C 0 km/h
1331 20-07-2009 02:15:44 16.7 C 7.67 g/m*3 16.7 C 0 km/h
1332 20-07-2009 02:27:44 16.5 C 7.86 g/m*3 16.5 C 0 km/h
1333 20-07-2009 02:39:44 16.3 C 7.91 g/m*3 16.3 C 0 km/h
1334 20-07-2009 02:51:44 16.2 C 8 g/m*3 16.2 C 0 km/h
1335 20-07-2009 03:03:44 16.1 C 7.81 g/m*3 16.1 C 0 km/h
1336 20-07-2009 03:15:44 16 C 8.04 g/m*3 16 C 0 km/h
1337 20-07-2009 03:27:44 15.9 C 8.13 g/m*3 15.9 C 0 km/h
1338 20-07-2009 03:39:44 15.9 C 8.26 g/m*3 15.9 C 0 km/h
1339 20-07-2009 03:51:44 15.9 C 8.26 g/m*3 15.9 C 0 km/h
1340 20-07-2009 04:03:45 15.8 C 8.35 g/m*3 15.8 C 0 km/h
1341 20-07-2009 04:15:45 15.7 C 8.43 g/m*3 15.7 C 0 km/h
1342 20-07-2009 04:27:45 15.7 C 8.56 g/m*3 15.7 C 0 km/h
1343 20-07-2009 04:39:45 15.6 C 8.51 g/m*3 15.6 C 0 km/h
1344 20-07-2009 04:51:45 15.6 C 8.51 g/m*3 15.6 C 0 km/h
1345 20-07-2009 05:03:45 15.6 C 8.64 g/m*3 15.6 C 0 km/h
1346 20-07-2009 05:15:45 15.6 C 8.64 g/m*3 15.6 C 0 km/h
1347 20-07-2009 05:27:45 15.5 C 8.72 g/m*3 15.5 C 0 km/h
1348 20-07-2009 05:39:45 15.4 C 8.8 g/m*3 15.4 C 0 km/h
1349 20-07-2009 05:51:45 15.5 C 8.99 g/m*3 15.5 C 0 km/h
1350 20-07-2009 06:03:45 15.6 C 8.91 g/m*3 15.6 C 0 km/h
Sensor: Nr:Datum:Temp:Abs-Feuchte:Windchill:Wind:
Aussen-T/F 1351 20-07-2009 06:15:45 15.5 C 8.86 g/m*3 15.5 C 0 km/h
1352 20-07-2009 06:27:45 15.5 C 8.99 g/m*3 15.5 C 0 km/h
1353 20-07-2009 06:39:45 15.5 C 9.12 g/m*3 15.5 C 0 km/h
1354 20-07-2009 06:51:45 15.6 C 9.18 g/m*3 15.6 C 0 km/h
1355 20-07-2009 07:03:43 15.7 C 9.23 g/m*3 15.7 C 0 km/h
1356 20-07-2009 07:15:43 15.9 C 9.34 g/m*3 15.9 C 0 km/h
1357 20-07-2009 07:27:43 16.2 C 9.38 g/m*3 16.2 C 0 km/h
1358 20-07-2009 07:39:43 16.4 C 9.35 g/m*3 16.4 C 0 km/h
1359 20-07-2009 07:51:43 16.7 C 9.38 g/m*3 16.7 C 0 km/h
1360 20-07-2009 08:03:43 17 C 9.26 g/m*3 17 C 0 km/h
1361 20-07-2009 08:15:42 17.3 C 9.13 g/m*3 17.3 C 0 km/h
1362 20-07-2009 08:27:42 17.6 C 9.15 g/m*3 17.6 C 0 km/h
1363 20-07-2009 08:39:42 17.6 C 9.15 g/m*3 17.6 C 0 km/h
1364 20-07-2009 08:51:42 17.6 C 9 g/m*3 17.6 C 0 km/h
1365 20-07-2009 09:03:42 18 C 8.91 g/m*3 18 C 0 km/h
1366 20-07-2009 09:15:41 18.5 C 9.02 g/m*3 18.5 C 0 km/h
1367 20-07-2009 09:27:41 18.8 C 8.86 g/m*3 18.8 C 0 km/h
1368 20-07-2009 09:39:42 19.5 C 8.73 g/m*3 19.5 C 0 km/h
1369 20-07-2009 09:51:41 19.5 C 8.22 g/m*3 19.5 C 0 km/h
1370 20-07-2009 10:03:41 19.3 C 8.13 g/m*3 19.3 C 0 km/h
1371 20-07-2009 10:15:42 20.1 C 8 g/m*3 20.1 C 0 km/h
1372 20-07-2009 10:27:42 20.1 C 8 g/m*3 20.1 C 0 km/h
1373 20-07-2009 10:39:41 19.8 C 7.69 g/m*3 19.8 C 0 km/h
1374 20-07-2009 10:51:41 19.7 C 7.98 g/m*3 19.7 C 0 km/h
1375 20-07-2009 11:03:41 19.3 C 7.63 g/m*3 19.3 C 0 km/h
Sensor: Nr:Datum:Temp:Abs-Feuchte:Windchill:Wind:
Aussen-T/F 1376 20-07-2009 11:15:41 20.2 C 7.87 g/m*3 20.2 C 0 km/h
1377 20-07-2009 11:27:41 20.9 C 7.83 g/m*3 20.9 C 0 km/h
1378 20-07-2009 11:39:40 20.9 C 7.65 g/m*3 20.9 C 0 km/h
1379 20-07-2009 11:51:40 21.2 C 7.41 g/m*3 21.2 C 0 km/h
1380 20-07-2009 12:03:41 20.8 C 7.6 g/m*3 20.8 C 0 km/h
1381 20-07-2009 12:15:40 20.6 C 7.34 g/m*3 20.6 C 0 km/h
1382 20-07-2009 12:27:40 21.2 C 7.23 g/m*3 21.2 C 0 km/h
1383 20-07-2009 12:39:40 21.9 C 7.33 g/m*3 21.9 C 0 km/h
1384 20-07-2009 12:51:40 21.5 C 7.17 g/m*3 21.5 C 0 km/h
1385 20-07-2009 13:03:40 21.4 C 7.12 g/m*3 21.4 C 0 km/h
1386 20-07-2009 13:15:39 21.3 C 7.27 g/m*3 21.3 C 0 km/h
1387 20-07-2009 13:27:39 21.9 C 6.75 g/m*3 21.9 C 0 km/h
1388 20-07-2009 13:39:40 23.5 C 6.98 g/m*3 23.5 C 0 km/h
1389 20-07-2009 13:51:39 23.8 C 6.45 g/m*3 23.8 C 0 km/h
1390 20-07-2009 14:03:39 23.7 C 6.42 g/m*3 23.7 C 0 km/h
1391 20-07-2009 14:15:39 23.7 C 6.42 g/m*3 23.7 C 0 km/h
1392 20-07-2009 14:27:39 23.9 C 6.49 g/m*3 23.9 C 0 km/h
1393 20-07-2009 14:39:39 24.5 C 6.27 g/m*3 24.5 C 0 km/h
1394 20-07-2009 14:51:39 24.2 C 5.94 g/m*3 24.2 C 0 km/h
1395 20-07-2009 15:03:38 25.2 C 6.05 g/m*3 25.2 C 0 km/h
1396 20-07-2009 15:15:39 25.7 C 5.75 g/m*3 25.7 C 0 km/h
1397 20-07-2009 15:27:39 24.4 C 5.79 g/m*3 24.4 C 0 km/h
1398 20-07-2009 15:39:38 24.1 C 6.13 g/m*3 24.1 C 0 km/h
1399 20-07-2009 15:51:38 24.7 C 6.11 g/m*3 24.7 C 0 km/h
1400 20-07-2009 16:03:38 24.4 C 6.01 g/m*3 24.4 C 0 km/h
Sensor: Nr:Datum:Temp:Abs-Feuchte:Windchill:Wind:
Aussen-T/F 1401 20-07-2009 16:15:38 24.1 C 6.35 g/m*3 24.1 C 0 km/h
1402 20-07-2009 16:27:38 24.1 C 6.35 g/m*3 24.1 C 0 km/h
1403 20-07-2009 16:39:37 24.9 C 5.95 g/m*3 24.9 C 0 km/h
1404 20-07-2009 16:51:38 25.5 C 5.68 g/m*3 25.5 C 0 km/h
1405 20-07-2009 17:03:38 25 C 6.22 g/m*3 25 C 0 km/h
1406 20-07-2009 17:15:37 25.5 C 5.68 g/m*3 25.5 C 0 km/h
1407 20-07-2009 17:27:37 24.7 C 5.66 g/m*3 24.7 C 0 km/h
1408 20-07-2009 17:39:37 24.4 C 6.01 g/m*3 24.4 C 0 km/h
1409 20-07-2009 17:51:37 24 C 5.87 g/m*3 24 C 0 km/h
1410 20-07-2009 18:03:37 23.8 C 6.24 g/m*3 23.8 C 0 km/h
1411 20-07-2009 18:15:36 23.3 C 6.27 g/m*3 23.3 C 0 km/h
1412 20-07-2009 18:27:36 24.4 C 6.01 g/m*3 24.4 C 0 km/h
1413 20-07-2009 18:39:37 24.6 C 6.53 g/m*3 24.6 C 0 km/h
1414 20-07-2009 18:51:36 24.2 C 6.38 g/m*3 24.2 C 0 km/h
1415 20-07-2009 19:03:36 24.2 C 6.6 g/m*3 24.2 C 0 km/h
1416 20-07-2009 19:15:36 23.8 C 6.67 g/m*3 23.8 C 0 km/h
1417 20-07-2009 19:27:36 23.7 C 6.42 g/m*3 23.7 C 0 km/h
1418 20-07-2009 19:39:36 23.8 C 6.24 g/m*3 23.8 C 0 km/h
1419 20-07-2009 19:51:35 23 C 6.37 g/m*3 23 C 0 km/h
1420 20-07-2009 20:03:36 23 C 6.58 g/m*3 23 C 0 km/h
1421 20-07-2009 20:15:36 22.8 C 6.5 g/m*3 22.8 C 0 km/h
1422 20-07-2009 20:27:36 22.6 C 6.83 g/m*3 22.6 C 0 km/h
1423 20-07-2009 20:39:35 22.1 C 6.83 g/m*3 22.1 C 0 km/h
1424 20-07-2009 20:51:36 21.7 C 7.25 g/m*3 21.7 C 0 km/h
1425 20-07-2009 21:03:35 21.2 C 7.41 g/m*3 21.2 C 0 km/h
Sensor: Nr:Datum:Temp:Abs-Feuchte:Windchill:Wind:
Aussen-T/F 1426 20-07-2009 21:15:35 20.5 C 7.47 g/m*3 20.5 C 0 km/h
1427 20-07-2009 21:27:35 20 C 7.43 g/m*3 20 C 0 km/h
1428 20-07-2009 21:39:35 19.6 C 7.6 g/m*3 19.6 C 0 km/h
1429 20-07-2009 21:51:34 19.2 C 7.42 g/m*3 19.2 C 0 km/h
1430 20-07-2009 22:03:35 19 C 7.82 g/m*3 19 C 0 km/h
1431 20-07-2009 22:15:34 18.8 C 7.89 g/m*3 18.8 C 0 km/h
1432 20-07-2009 22:27:34 18.7 C 7.84 g/m*3 18.7 C 0 km/h
1433 20-07-2009 22:39:34 18.5 C 7.91 g/m*3 18.5 C 0 km/h
1434 20-07-2009 22:51:34 18.5 C 8.07 g/m*3 18.5 C 0 km/h
1435 20-07-2009 23:03:34 18.5 C 8.07 g/m*3 18.5 C 0 km/h
1436 20-07-2009 23:15:33 18.4 C 8.02 g/m*3 18.4 C 0 km/h
1437 20-07-2009 23:27:33 18.2 C 8.08 g/m*3 18.2 C 0 km/h
1438 20-07-2009 23:39:34 18.1 C 8.03 g/m*3 18.1 C 0 km/h
1439 20-07-2009 23:51:33 18 C 8.14 g/m*3 18 C 0 km/h
1440 21-07-2009 00:03:33 17.9 C 8.24 g/m*3 17.9 C 0 km/h
1441 21-07-2009 00:15:33 17.8 C 8.35 g/m*3 17.8 C 0 km/h
1442 21-07-2009 00:27:33 17.7 C 8.3 g/m*3 17.7 C 0 km/h
1443 21-07-2009 00:39:32 17.6 C 8.25 g/m*3 17.6 C 0 km/h
1444 21-07-2009 00:51:33 17.6 C 8.4 g/m*3 17.6 C 0 km/h
1445 21-07-2009 01:03:32 17.6 C 8.55 g/m*3 17.6 C 0 km/h
1446 21-07-2009 01:15:32 17.7 C 8.75 g/m*3 17.7 C 0 km/h
1447 21-07-2009 01:27:32 17.7 C 8.75 g/m*3 17.7 C 0 km/h
1448 21-07-2009 01:39:33 17.5 C 8.65 g/m*3 17.5 C 0 km/h
1449 21-07-2009 01:51:32 17.5 C 8.8 g/m*3 17.5 C 0 km/h
1450 21-07-2009 02:03:32 17.5 C 8.8 g/m*3 17.5 C 0 km/h
Sensor: Nr:Datum:Temp:Abs-Feuchte:Windchill:Wind:
Aussen-T/F 1451 21-07-2009 02:15:32 17.5 C 8.8 g/m*3 17.5 C 0 km/h
1452 21-07-2009 02:27:32 17.3 C 8.84 g/m*3 17.3 C 0 km/h
1453 21-07-2009 02:39:32 16.7 C 9.81 g/m*3 16.7 C 0 km/h
1454 21-07-2009 02:52:01 16 C 9.95 g/m*3 16 C 0 km/h
1455 21-07-2009 03:04:01 15.7 C 10.3 g/m*3 15.7 C 0 km/h
1456 21-07-2009 03:16:02 15.3 C 10.58 g/m*3 15.3 C 0 km/h
1457 21-07-2009 03:28:02 15 C 10.51 g/m*3 15 C 0 km/h
1458 21-07-2009 03:40:01 15 C 10.64 g/m*3 15 C 0 km/h
1459 21-07-2009 03:52:01 15.2 C 10.77 g/m*3 15.2 C 0 km/h
1460 21-07-2009 04:04:02 15.3 C 10.97 g/m*3 15.3 C 0 km/h
1461 21-07-2009 04:16:01 15.2 C 10.9 g/m*3 15.2 C 0 km/h
1462 21-07-2009 04:28:01 15.2 C 10.9 g/m*3 15.2 C 0 km/h
1463 21-07-2009 04:40:02 15.5 C 11.24 g/m*3 15.5 C 0 km/h
1464 21-07-2009 04:52:01 15.5 C 11.1 g/m*3 15.5 C 0 km/h
1465 21-07-2009 05:04:01 15.5 C 10.97 g/m*3 15.5 C 0 km/h
1466 21-07-2009 05:16:02 15.5 C 10.84 g/m*3 15.5 C 0 km/h
1467 21-07-2009 05:28:02 15.5 C 10.84 g/m*3 15.5 C 0 km/h
1468 21-07-2009 05:40:01 15.5 C 10.84 g/m*3 15.5 C 0 km/h
1469 21-07-2009 05:52:01 15.5 C 10.84 g/m*3 15.5 C 0 km/h
1470 21-07-2009 06:04:02 15.4 C 10.77 g/m*3 15.4 C 0 km/h
1471 21-07-2009 06:16:01 15.3 C 10.58 g/m*3 15.3 C 0 km/h
1472 21-07-2009 06:28:01 15.2 C 10.51 g/m*3 15.2 C 0 km/h
1473 21-07-2009 06:40:02 15.4 C 10.64 g/m*3 15.4 C 0 km/h
1474 21-07-2009 06:52:01 15.6 C 10.77 g/m*3 15.6 C 0 km/h
1475 21-07-2009 07:04:02 15.9 C 10.83 g/m*3 15.9 C 0 km/h
Sensor: Nr:Datum:Temp:Abs-Feuchte:Windchill:Wind:
Aussen-T/F 1476 21-07-2009 07:16:01 16.1 C 10.97 g/m*3 16.1 C 0 km/h
1477 21-07-2009 07:28:01 16.2 C 10.89 g/m*3 16.2 C 0 km/h
1478 21-07-2009 07:40:01 16.1 C 11.1 g/m*3 16.1 C 0 km/h
1479 21-07-2009 07:52:01 16.3 C 11.24 g/m*3 16.3 C 0 km/h
1480 21-07-2009 08:04:01 16.4 C 11.31 g/m*3 16.4 C 0 km/h
1481 21-07-2009 08:16:02 16.8 C 11.44 g/m*3 16.8 C 0 km/h
1482 21-07-2009 08:28:02 17.3 C 11.64 g/m*3 17.3 C 0 km/h
1483 21-07-2009 08:40:01 17.7 C 11.62 g/m*3 17.7 C 0 km/h
1484 21-07-2009 08:52:01 18.4 C 11.48 g/m*3 18.4 C 0 km/h
1485 21-07-2009 09:04:01 19 C 10.92 g/m*3 19 C 0 km/h
1486 21-07-2009 09:16:02 19.5 C 10.91 g/m*3 19.5 C 0 km/h
1487 21-07-2009 09:28:02 20 C 10.54 g/m*3 20 C 0 km/h
1488 21-07-2009 09:40:01 20.4 C 10.44 g/m*3 20.4 C 0 km/h
1489 21-07-2009 09:52:02 21.2 C 10.38 g/m*3 21.2 C 0 km/h
1490 21-07-2009 10:04:01 22 C 10.29 g/m*3 22 C 0 km/h
1491 21-07-2009 10:16:02 22.4 C 10.33 g/m*3 22.4 C 0 km/h
1492 21-07-2009 10:28:02 22.4 C 10.13 g/m*3 22.4 C 0 km/h
1493 21-07-2009 10:40:01 22.6 C 10.25 g/m*3 22.6 C 0 km/h
1494 21-07-2009 10:52:02 22.8 C 10.36 g/m*3 22.8 C 0 km/h
1495 21-07-2009 11:04:01 23.4 C 9.67 g/m*3 23.4 C 0 km/h
1496 21-07-2009 11:16:01 24.1 C 9.63 g/m*3 24.1 C 0 km/h
1497 21-07-2009 11:28:01 24.2 C 9.68 g/m*3 24.2 C 0 km/h
1498 21-07-2009 11:40:02 24.4 C 9.35 g/m*3 24.4 C 0 km/h
1499 21-07-2009 11:52:01 25.6 C 9.76 g/m*3 25.6 C 0 km/h
1500 21-07-2009 12:04:02 27.1 C 9.83 g/m*3 27.1 C 0 km/h
Sensor: Nr:Datum:Temp:Abs-Feuchte:Windchill:Wind:
Aussen-T/F 1501 21-07-2009 12:16:01 27.7 C 9.63 g/m*3 27.7 C 0 km/h
1502 21-07-2009 12:28:01 28.5 C 9.78 g/m*3 28.5 C 0 km/h
1503 21-07-2009 12:40:02 29 C 8.62 g/m*3 29 C 0 km/h
1504 21-07-2009 12:52:01 28.5 C 8.38 g/m*3 28.5 C 0 km/h
1505 21-07-2009 13:04:01 29.3 C 9.05 g/m*3 29.3 C 0 km/h
1506 21-07-2009 13:16:01 30.4 C 8.99 g/m*3 30.4 C 0 km/h
1507 21-07-2009 13:28:01 31.1 C 8.37 g/m*3 31.1 C 0 km/h
1508 21-07-2009 13:40:01 31.1 C 7.72 g/m*3 31.1 C 0 km/h
1509 21-07-2009 13:52:01 31 C 8 g/m*3 31 C 0 km/h
1510 21-07-2009 14:04:01 31 C 7.68 g/m*3 31 C 0 km/h
1511 21-07-2009 14:16:02 30.5 C 8.1 g/m*3 30.5 C 0 km/h
1512 21-07-2009 14:28:02 30.1 C 8.23 g/m*3 30.1 C 0 km/h
1513 21-07-2009 14:40:01 30.7 C 8.82 g/m*3 30.7 C 0 km/h
1514 21-07-2009 14:52:02 31.3 C 8.46 g/m*3 31.3 C 0 km/h
1515 21-07-2009 15:04:01 31.6 C 7.93 g/m*3 31.6 C 0 km/h
1516 21-07-2009 15:16:01 32.2 C 7.17 g/m*3 32.2 C 0 km/h
1517 21-07-2009 15:28:02 31.5 C 7.89 g/m*3 31.5 C 0 km/h
1518 21-07-2009 15:40:01 31.2 C 8.09 g/m*3 31.2 C 0 km/h
1519 21-07-2009 15:52:01 31.1 C 8.04 g/m*3 31.1 C 0 km/h
1520 21-07-2009 16:04:02 30.9 C 7.96 g/m*3 30.9 C 0 km/h
1521 21-07-2009 16:16:01 30.6 C 8.46 g/m*3 30.6 C 0 km/h
1522 21-07-2009 16:28:01 31.1 C 8.04 g/m*3 31.1 C 0 km/h
1523 21-07-2009 16:40:02 31.7 C 8.31 g/m*3 31.7 C 0 km/h
1524 21-07-2009 16:52:01 31.5 C 7.89 g/m*3 31.5 C 0 km/h
1525 21-07-2009 17:04:02 31.2 C 9.38 g/m*3 31.2 C 0 km/h
Sensor: Nr:Datum:Temp:Abs-Feuchte:Windchill:Wind:
Aussen-T/F 1526 21-07-2009 17:16:02 30.8 C 10.45 g/m*3 30.8 C 0 km/h
1527 21-07-2009 17:28:02 30.6 C 10.34 g/m*3 30.6 C 0 km/h
1528 21-07-2009 17:40:01 30.6 C 10.65 g/m*3 30.6 C 0 km/h
1529 21-07-2009 17:52:02 30.6 C 10.65 g/m*3 30.6 C 0 km/h
1530 21-07-2009 18:04:04 30.8 C 11.08 g/m*3 30.8 C 0 km/h
1531 21-07-2009 18:16:01 31.4 C 9.81 g/m*3 31.4 C 0 km/h
1532 21-07-2009 18:28:01 31.6 C 10.57 g/m*3 31.6 C 0 km/h
1533 21-07-2009 18:40:01 30.9 C 10.5 g/m*3 30.9 C 0 km/h
1534 21-07-2009 18:52:01 30.3 C 11.1 g/m*3 30.3 C 0 km/h
1535 21-07-2009 19:04:01 30 C 11.52 g/m*3 30 C 0 km/h
1536 21-07-2009 19:16:01 29.6 C 11.57 g/m*3 29.6 C 0 km/h
1537 21-07-2009 19:28:01 29.3 C 11.39 g/m*3 29.3 C 0 km/h
1538 21-07-2009 19:40:01 28.4 C 11.4 g/m*3 28.4 C 0 km/h
1539 21-07-2009 19:52:02 27.7 C 11.77 g/m*3 27.7 C 0 km/h
1540 21-07-2009 20:04:01 27.3 C 12.04 g/m*3 27.3 C 0 km/h
1541 21-07-2009 20:16:02 27 C 11.84 g/m*3 27 C 0 km/h
1542 21-07-2009 20:28:02 26.5 C 12.02 g/m*3 26.5 C 0 km/h
1543 21-07-2009 20:40:02 26.3 C 11.88 g/m*3 26.3 C 0 km/h
1544 21-07-2009 20:52:02 26.2 C 11.82 g/m*3 26.2 C 0 km/h
1545 21-07-2009 21:04:02 25.9 C 11.86 g/m*3 25.9 C 0 km/h
1546 21-07-2009 21:16:01 25.7 C 11.97 g/m*3 25.7 C 0 km/h
1547 21-07-2009 21:28:01 25.4 C 12.01 g/m*3 25.4 C 0 km/h
1548 21-07-2009 21:40:02 25.1 C 11.81 g/m*3 25.1 C 0 km/h
1549 21-07-2009 21:51:01 24.5 C 11.86 g/m*3 24.5 C 0 km/h
1550 21-07-2009 22:05:05 24.8 C 12.29 g/m*3 24.8 C 0 km/h
Sensor: Nr:Datum:Temp:Abs-Feuchte:Windchill:Wind:
Aussen-T/F 1551 21-07-2009 22:17:05 24.8 C 12.29 g/m*3 24.8 C 0 km/h
1552 21-07-2009 22:29:05 24.6 C 12.15 g/m*3 24.6 C 0 km/h
1553 21-07-2009 22:41:05 24.5 C 12.09 g/m*3 24.5 C 0 km/h
1554 21-07-2009 22:53:05 24.5 C 12.31 g/m*3 24.5 C 0 km/h
1555 21-07-2009 23:05:05 24.4 C 12.24 g/m*3 24.4 C 0 km/h
1556 21-07-2009 23:17:05 24.2 C 12.32 g/m*3 24.2 C 0 km/h
1557 21-07-2009 23:29:05 23.9 C 12.33 g/m*3 23.9 C 0 km/h
1558 21-07-2009 23:41:05 23.6 C 12.34 g/m*3 23.6 C 0 km/h
1559 21-07-2009 23:53:05 23.6 C 12.34 g/m*3 23.6 C 0 km/h
1560 22-07-2009 00:05:05 23.7 C 12.19 g/m*3 23.7 C 0 km/h
1561 22-07-2009 00:17:05 23.7 C 12.19 g/m*3 23.7 C 0 km/h
1562 22-07-2009 00:29:05 23.7 C 11.98 g/m*3 23.7 C 0 km/h
1563 22-07-2009 00:41:06 23.8 C 11.83 g/m*3 23.8 C 0 km/h
1564 22-07-2009 00:53:06 23.9 C 11.68 g/m*3 23.9 C 0 km/h
1565 22-07-2009 01:05:06 24.1 C 11.38 g/m*3 24.1 C 0 km/h
1566 22-07-2009 01:17:06 23.9 C 12.11 g/m*3 23.9 C 0 km/h
1567 22-07-2009 01:29:06 22.6 C 13.46 g/m*3 22.6 C 0 km/h
1568 22-07-2009 01:41:06 21.2 C 14.46 g/m*3 21.2 C 0 km/h
1569 22-07-2009 01:53:06 21.1 C 14.92 g/m*3 21.1 C 0 km/h
1570 22-07-2009 02:05:06 20.8 C 15.03 g/m*3 20.8 C 0 km/h
1571 22-07-2009 02:17:06 21.1 C 15.29 g/m*3 21.1 C 0 km/h
1572 22-07-2009 02:29:06 20.9 C 14.93 g/m*3 20.9 C 0 km/h
1573 22-07-2009 02:41:06 20.7 C 14.76 g/m*3 20.7 C 0 km/h
1574 22-07-2009 02:53:06 20.6 C 14.68 g/m*3 20.6 C 0 km/h
1575 22-07-2009 03:05:06 20.6 C 14.5 g/m*3 20.6 C 0 km/h
Sensor: Nr:Datum:Temp:Abs-Feuchte:Windchill:Wind:
Aussen-T/F 1576 22-07-2009 03:17:06 20.8 C 14.67 g/m*3 20.8 C 0 km/h
1577 22-07-2009 03:29:06 20.7 C 14.4 g/m*3 20.7 C 0 km/h
1578 22-07-2009 03:41:06 20.7 C 14.4 g/m*3 20.7 C 0 km/h
1579 22-07-2009 03:53:06 20.6 C 14.5 g/m*3 20.6 C 0 km/h
1580 22-07-2009 04:05:06 20.6 C 14.5 g/m*3 20.6 C 0 km/h
1581 22-07-2009 04:17:06 20.5 C 14.41 g/m*3 20.5 C 0 km/h
1582 22-07-2009 04:29:07 20.4 C 14.15 g/m*3 20.4 C 0 km/h
1583 22-07-2009 04:41:07 20 C 13.65 g/m*3 20 C 0 km/h
1584 22-07-2009 04:53:07 19.9 C 13.57 g/m*3 19.9 C 0 km/h
1585 22-07-2009 05:05:07 20 C 13.31 g/m*3 20 C 0 km/h
1586 22-07-2009 05:17:07 19.7 C 13.08 g/m*3 19.7 C 0 km/h
1587 22-07-2009 05:29:07 19.4 C 13.01 g/m*3 19.4 C 0 km/h
1588 22-07-2009 05:41:07 19.7 C 13.25 g/m*3 19.7 C 0 km/h
1589 22-07-2009 05:53:07 19.2 C 13.03 g/m*3 19.2 C 0 km/h
1590 22-07-2009 06:05:07 19.1 C 12.95 g/m*3 19.1 C 0 km/h
1591 22-07-2009 06:17:07 19.6 C 12.83 g/m*3 19.6 C 0 km/h
1592 22-07-2009 06:29:07 19.8 C 12.64 g/m*3 19.8 C 0 km/h
1593 22-07-2009 06:41:07 20.3 C 12.49 g/m*3 20.3 C 0 km/h
1594 22-07-2009 06:53:07 20.6 C 12.17 g/m*3 20.6 C 0 km/h
1595 22-07-2009 07:05:05 20.8 C 12.13 g/m*3 20.8 C 0 km/h
1596 22-07-2009 07:17:05 20.8 C 12.13 g/m*3 20.8 C 0 km/h
1597 22-07-2009 07:29:05 20.9 C 12.2 g/m*3 20.9 C 0 km/h
1598 22-07-2009 07:41:05 21.1 C 11.98 g/m*3 21.1 C 0 km/h
1599 22-07-2009 07:53:04 21.2 C 12.05 g/m*3 21.2 C 0 km/h
1600 22-07-2009 08:05:05 21.3 C 12.12 g/m*3 21.3 C 0 km/h
Sensor: Nr:Datum:Temp:Abs-Feuchte:Windchill:Wind:
Aussen-T/F 1601 22-07-2009 08:17:05 21.6 C 12.14 g/m*3 21.6 C 0 km/h
1602 22-07-2009 08:29:05 21.4 C 12.37 g/m*3 21.4 C 0 km/h
1603 22-07-2009 08:41:04 21.6 C 12.14 g/m*3 21.6 C 0 km/h
1604 22-07-2009 08:53:05 21.6 C 12.14 g/m*3 21.6 C 0 km/h
1605 22-07-2009 09:05:04 21.6 C 12.33 g/m*3 21.6 C 0 km/h
1606 22-07-2009 09:17:04 21.8 C 12.47 g/m*3 21.8 C 0 km/h
1607 22-07-2009 09:29:04 22.3 C 12.44 g/m*3 22.3 C 0 km/h
1608 22-07-2009 09:41:03 22.7 C 12.53 g/m*3 22.7 C 0 km/h
1609 22-07-2009 09:53:04 23.2 C 12.27 g/m*3 23.2 C 0 km/h
1610 22-07-2009 10:05:03 23.5 C 13.11 g/m*3 23.5 C 0 km/h
1611 22-07-2009 10:17:03 23.7 C 13.26 g/m*3 23.7 C 0 km/h
1612 22-07-2009 10:29:03 23.8 C 12.69 g/m*3 23.8 C 0 km/h
1613 22-07-2009 10:41:04 23.8 C 13.12 g/m*3 23.8 C 0 km/h
1614 22-07-2009 10:53:03 24.3 C 13.06 g/m*3 24.3 C 0 km/h
1615 22-07-2009 11:05:03 24.5 C 12.98 g/m*3 24.5 C 0 km/h
1616 22-07-2009 11:17:02 24.5 C 12.31 g/m*3 24.5 C 0 km/h
1617 22-07-2009 11:29:02 24.9 C 11.45 g/m*3 24.9 C 0 km/h
1618 22-07-2009 11:41:03 25 C 10.82 g/m*3 25 C 0 km/h
1619 22-07-2009 11:53:02 25.1 C 10.65 g/m*3 25.1 C 0 km/h
1620 22-07-2009 12:05:02 26.4 C 10.95 g/m*3 26.4 C 0 km/h
1621 22-07-2009 12:17:03 26.4 C 10.46 g/m*3 26.4 C 0 km/h
1622 22-07-2009 12:29:03 26.8 C 10.44 g/m*3 26.8 C 0 km/h
1623 22-07-2009 12:41:02 26.7 C 10.12 g/m*3 26.7 C 0 km/h
1624 22-07-2009 12:53:02 27.4 C 9.74 g/m*3 27.4 C 0 km/h
1625 22-07-2009 13:05:02 27.5 C 9.52 g/m*3 27.5 C 0 km/h
Sensor: Nr:Datum:Temp:Abs-Feuchte:Windchill:Wind:
Aussen-T/F 1626 22-07-2009 13:17:02 27.8 C 9.68 g/m*3 27.8 C 0 km/h
1627 22-07-2009 13:29:02 28.3 C 9.68 g/m*3 28.3 C 0 km/h
1628 22-07-2009 13:41:01 28.8 C 9.09 g/m*3 28.8 C 0 km/h
1629 22-07-2009 13:53:01 28.9 C 9.71 g/m*3 28.9 C 0 km/h
1630 22-07-2009 14:05:01 28.7 C 9.32 g/m*3 28.7 C 0 km/h
1631 22-07-2009 14:17:01 29.4 C 9.39 g/m*3 29.4 C 0 km/h
1632 22-07-2009 14:29:01 29.2 C 9.87 g/m*3 29.2 C 0 km/h
1633 22-07-2009 14:41:01 30 C 9.4 g/m*3 30 C 0 km/h
1634 22-07-2009 14:53:01 29.9 C 9.65 g/m*3 29.9 C 0 km/h
1635 22-07-2009 15:05:01 29.1 C 9.24 g/m*3 29.1 C 0 km/h
1636 22-07-2009 15:17:00 29.4 C 9.39 g/m*3 29.4 C 0 km/h
1637 22-07-2009 15:29:00 30 C 10.01 g/m*3 30 C 0 km/h
1638 22-07-2009 15:41:01 30.3 C 9.55 g/m*3 30.3 C 0 km/h
1639 22-07-2009 15:53:00 30.3 C 9.55 g/m*3 30.3 C 0 km/h
1640 22-07-2009 16:05:00 29.5 C 9.15 g/m*3 29.5 C 0 km/h
1641 22-07-2009 16:16:59 30 C 9.4 g/m*3 30 C 0 km/h
1642 22-07-2009 16:28:59 30.4 C 9.3 g/m*3 30.4 C 0 km/h
1643 22-07-2009 16:41:00 30.6 C 8.77 g/m*3 30.6 C 0 km/h
1644 22-07-2009 16:53:59 31 C 8.96 g/m*3 31 C 0 km/h
1645 22-07-2009 17:05:59 31.2 C 8.41 g/m*3 31.2 C 0 km/h
1646 22-07-2009 17:17:00 31.1 C 8.37 g/m*3 31.1 C 0 km/h
1647 22-07-2009 17:29:00 31.1 C 8.37 g/m*3 31.1 C 0 km/h
1648 22-07-2009 17:41:59 31 C 8.64 g/m*3 31 C 0 km/h
1649 22-07-2009 17:53:59 31.5 C 8.55 g/m*3 31.5 C 0 km/h
1650 22-07-2009 18:05:59 31.4 C 8.17 g/m*3 31.4 C 0 km/h
Sensor: Nr:Datum:Temp:Abs-Feuchte:Windchill:Wind:
Aussen-T/F 1651 22-07-2009 18:17:59 31.8 C 8.35 g/m*3 31.8 C 0 km/h
1652 22-07-2009 18:29:59 32.1 C 7.47 g/m*3 32.1 C 0 km/h
1653 22-07-2009 18:41:59 31.8 C 7.35 g/m*3 31.8 C 0 km/h
1654 22-07-2009 18:53:59 31.6 C 8.26 g/m*3 31.6 C 0 km/h
1655 22-07-2009 19:05:59 30.8 C 8.23 g/m*3 30.8 C 0 km/h
1656 22-07-2009 19:17:59 30.6 C 9.71 g/m*3 30.6 C 0 km/h
1657 22-07-2009 19:29:59 30.6 C 10.02 g/m*3 30.6 C 0 km/h
1658 22-07-2009 19:41:59 30.3 C 10.48 g/m*3 30.3 C 0 km/h
1659 22-07-2009 19:53:58 29.9 C 10.86 g/m*3 29.9 C 0 km/h
1660 22-07-2009 20:05:59 30.6 C 10.65 g/m*3 30.6 C 0 km/h
1661 22-07-2009 20:17:58 31.1 C 9.97 g/m*3 31.1 C 0 km/h
1662 22-07-2009 20:29:58 30.6 C 9.71 g/m*3 30.6 C 0 km/h
1663 22-07-2009 20:41:58 29.4 C 10.27 g/m*3 29.4 C 0 km/h
1664 22-07-2009 20:53:57 28 C 10.33 g/m*3 28 C 0 km/h
1665 22-07-2009 21:05:58 26.8 C 10.18 g/m*3 26.8 C 0 km/h
1666 22-07-2009 21:17:58 26 C 9.98 g/m*3 26 C 0 km/h
1667 22-07-2009 21:29:58 25.4 C 10.12 g/m*3 25.4 C 0 km/h
1668 22-07-2009 21:41:57 24.7 C 10.19 g/m*3 24.7 C 0 km/h
1669 22-07-2009 21:53:57 24 C 9.79 g/m*3 24 C 0 km/h
1670 22-07-2009 22:05:57 24.3 C 10.4 g/m*3 24.3 C 0 km/h
1671 22-07-2009 22:18:57 24.3 C 10.18 g/m*3 24.3 C 0 km/h
1672 22-07-2009 22:30:57 24.3 C 10.18 g/m*3 24.3 C 0 km/h
1673 22-07-2009 22:42:57 24.3 C 9.96 g/m*3 24.3 C 0 km/h
1674 22-07-2009 22:54:57 24.1 C 10.28 g/m*3 24.1 C 0 km/h
1675 22-07-2009 23:06:57 24.1 C 10.28 g/m*3 24.1 C 0 km/h
Sensor: Nr:Datum:Temp:Abs-Feuchte:Windchill:Wind:
Aussen-T/F 1676 22-07-2009 23:18:57 24.1 C 10.28 g/m*3 24.1 C 0 km/h
1677 22-07-2009 23:30:57 24.1 C 10.28 g/m*3 24.1 C 0 km/h
1678 22-07-2009 23:42:57 24 C 10.44 g/m*3 24 C 0 km/h
1679 22-07-2009 23:54:57 23.9 C 10.82 g/m*3 23.9 C 0 km/h
1680 23-07-2009 00:06:57 23.3 C 11.29 g/m*3 23.3 C 0 km/h
1681 23-07-2009 00:18:58 23.4 C 11.57 g/m*3 23.4 C 0 km/h
1682 23-07-2009 00:30:58 21.7 C 13.16 g/m*3 21.7 C 0 km/h
1683 23-07-2009 00:42:58 21.9 C 13.31 g/m*3 21.9 C 0 km/h
1684 23-07-2009 00:54:58 22.3 C 12.64 g/m*3 22.3 C 0 km/h
1685 23-07-2009 01:06:58 22.8 C 12.19 g/m*3 22.8 C 0 km/h
1686 23-07-2009 01:18:58 23.1 C 11.78 g/m*3 23.1 C 0 km/h
1687 23-07-2009 01:30:58 23.3 C 11.5 g/m*3 23.3 C 0 km/h
1688 23-07-2009 01:42:58 23.1 C 11.37 g/m*3 23.1 C 0 km/h
1689 23-07-2009 01:54:58 22.9 C 11.44 g/m*3 22.9 C 0 km/h
1690 23-07-2009 02:06:58 22.9 C 11.44 g/m*3 22.9 C 0 km/h
1691 23-07-2009 02:18:58 22.8 C 11.58 g/m*3 22.8 C 0 km/h
1692 23-07-2009 02:30:58 22.8 C 11.58 g/m*3 22.8 C 0 km/h
1693 23-07-2009 02:42:58 22.8 C 11.58 g/m*3 22.8 C 0 km/h
1694 23-07-2009 02:54:58 22.7 C 11.72 g/m*3 22.7 C 0 km/h
1695 23-07-2009 03:06:58 22.5 C 11.78 g/m*3 22.5 C 0 km/h
1696 23-07-2009 03:18:58 21.9 C 11.77 g/m*3 21.9 C 0 km/h
1697 23-07-2009 03:30:58 21.9 C 11.77 g/m*3 21.9 C 0 km/h
1698 23-07-2009 03:42:58 21.6 C 11.76 g/m*3 21.6 C 0 km/h
1699 23-07-2009 03:54:58 21.4 C 11.62 g/m*3 21.4 C 0 km/h
1700 23-07-2009 04:06:58 21.4 C 11.81 g/m*3 21.4 C 0 km/h
Sensor: Nr:Datum:Temp:Abs-Feuchte:Windchill:Wind:
Aussen-T/F 1701 23-07-2009 04:18:59 21.3 C 11.74 g/m*3 21.3 C 0 km/h
1702 23-07-2009 04:30:59 21.4 C 11.81 g/m*3 21.4 C 0 km/h
1703 23-07-2009 04:42:59 21.2 C 11.68 g/m*3 21.2 C 0 km/h
1704 23-07-2009 04:54:59 21 C 11.72 g/m*3 21 C 0 km/h
1705 23-07-2009 05:06:59 21 C 11.91 g/m*3 21 C 0 km/h
1706 23-07-2009 05:18:59 21 C 12.09 g/m*3 21 C 0 km/h
1707 23-07-2009 05:30:59 21 C 12.09 g/m*3 21 C 0 km/h
1708 23-07-2009 05:42:59 20.8 C 12.31 g/m*3 20.8 C 0 km/h
1709 23-07-2009 05:54:59 20.8 C 12.49 g/m*3 20.8 C 0 km/h
1710 23-07-2009 06:06:59 20.6 C 12.53 g/m*3 20.6 C 0 km/h
1711 23-07-2009 06:18:59 20.1 C 12.69 g/m*3 20.1 C 0 km/h
1712 23-07-2009 06:30:59 19.8 C 13.15 g/m*3 19.8 C 0 km/h
1713 23-07-2009 06:42:59 19.7 C 13.41 g/m*3 19.7 C 0 km/h
1714 23-07-2009 06:54:59 20 C 13.65 g/m*3 20 C 0 km/h
1715 23-07-2009 07:06:58 20.2 C 13.64 g/m*3 20.2 C 0 km/h
1716 23-07-2009 07:18:57 20.4 C 13.44 g/m*3 20.4 C 0 km/h
1717 23-07-2009 07:30:57 20.7 C 13.5 g/m*3 20.7 C 0 km/h
1718 23-07-2009 07:42:57 21 C 13.19 g/m*3 21 C 0 km/h
1719 23-07-2009 07:54:57 21.3 C 13.42 g/m*3 21.3 C 0 km/h
1720 23-07-2009 08:06:57 21.2 C 13.34 g/m*3 21.2 C 0 km/h
1721 23-07-2009 08:18:57 21 C 13.19 g/m*3 21 C 0 km/h
1722 23-07-2009 08:30:56 19.8 C 13.66 g/m*3 19.8 C 0 km/h
1723 23-07-2009 08:42:56 19.5 C 14.1 g/m*3 19.5 C 0 km/h
1724 23-07-2009 08:54:57 19 C 14.01 g/m*3 19 C 0 km/h
1725 23-07-2009 09:06:56 18.7 C 13.77 g/m*3 18.7 C 0 km/h
Sensor: Nr:Datum:Temp:Abs-Feuchte:Windchill:Wind:
Aussen-T/F 1726 23-07-2009 09:18:56 18.5 C 13.77 g/m*3 18.5 C 0 km/h
1727 23-07-2009 09:30:56 18.4 C 13.68 g/m*3 18.4 C 0 km/h
1728 23-07-2009 09:42:56 18.8 C 14.17 g/m*3 18.8 C 0 km/h
1729 23-07-2009 09:54:56 19.3 C 14.43 g/m*3 19.3 C 0 km/h
1730 23-07-2009 10:06:55 20 C 14.69 g/m*3 20 C 0 km/h
1731 23-07-2009 10:18:56 20.7 C 14.76 g/m*3 20.7 C 0 km/h
1732 23-07-2009 10:30:56 20.9 C 14.39 g/m*3 20.9 C 0 km/h
1733 23-07-2009 10:42:56 21.8 C 14.97 g/m*3 21.8 C 0 km/h
1734 23-07-2009 10:54:55 21.8 C 14.39 g/m*3 21.8 C 0 km/h
1735 23-07-2009 11:06:56 22.5 C 14.38 g/m*3 22.5 C 0 km/h
1736 23-07-2009 11:18:55 23.4 C 14.3 g/m*3 23.4 C 0 km/h
1737 23-07-2009 11:30:55 24 C 14.36 g/m*3 24 C 0 km/h
1738 23-07-2009 11:42:55 24 C 13.71 g/m*3 24 C 0 km/h
1739 23-07-2009 11:54:55 23.1 C 12.4 g/m*3 23.1 C 0 km/h
1740 23-07-2009 12:06:55 24 C 12.84 g/m*3 24 C 0 km/h
1741 23-07-2009 12:18:54 24.6 C 12.38 g/m*3 24.6 C 0 km/h
1742 23-07-2009 12:30:54 25.5 C 11.6 g/m*3 25.5 C 0 km/h
1743 23-07-2009 12:42:54 25.8 C 11.07 g/m*3 25.8 C 0 km/h
1744 23-07-2009 12:54:54 25.8 C 10.59 g/m*3 25.8 C 0 km/h
1745 23-07-2009 13:06:54 25.3 C 10.53 g/m*3 25.3 C 0 km/h
1746 23-07-2009 13:18:54 24.7 C 10.86 g/m*3 24.7 C 0 km/h
1747 23-07-2009 13:30:54 24.5 C 10.74 g/m*3 24.5 C 0 km/h
1748 23-07-2009 13:42:54 24.2 C 10.56 g/m*3 24.2 C 0 km/h
1749 23-07-2009 13:54:54 24 C 10.44 g/m*3 24 C 0 km/h
1750 23-07-2009 14:06:53 24.5 C 10.74 g/m*3 24.5 C 0 km/h
Sensor: Nr:Datum:Temp:Abs-Feuchte:Windchill:Wind:
Aussen-T/F 1751 23-07-2009 14:18:53 24.7 C 10.41 g/m*3 24.7 C 0 km/h
1752 23-07-2009 14:30:53 24.1 C 10.28 g/m*3 24.1 C 0 km/h
1753 23-07-2009 14:42:53 24.5 C 10.3 g/m*3 24.5 C 0 km/h
1754 23-07-2009 14:54:53 24.9 C 10.53 g/m*3 24.9 C 0 km/h
1755 23-07-2009 15:06:52 25.5 C 9.94 g/m*3 25.5 C 0 km/h
1756 23-07-2009 15:18:53 26.5 C 10.26 g/m*3 26.5 C 0 km/h
1757 23-07-2009 15:30:53 25.9 C 9.93 g/m*3 25.9 C 0 km/h
1758 23-07-2009 15:42:53 26.2 C 10.09 g/m*3 26.2 C 0 km/h
1759 23-07-2009 15:54:52 26.1 C 10.04 g/m*3 26.1 C 0 km/h
1760 23-07-2009 16:06:53 25.9 C 10.17 g/m*3 25.9 C 0 km/h
1761 23-07-2009 16:18:52 26.5 C 10.01 g/m*3 26.5 C 0 km/h
1762 23-07-2009 16:30:52 26.9 C 10.24 g/m*3 26.9 C 0 km/h
1763 23-07-2009 16:42:52 26.1 C 9.79 g/m*3 26.1 C 0 km/h
1764 23-07-2009 16:54:52 26.6 C 9.82 g/m*3 26.6 C 0 km/h
1765 23-07-2009 17:06:52 27.5 C 9.52 g/m*3 27.5 C 0 km/h
1766 23-07-2009 17:18:52 27.3 C 9.16 g/m*3 27.3 C 0 km/h
1767 23-07-2009 17:30:51 27.3 C 8.9 g/m*3 27.3 C 0 km/h
1768 23-07-2009 17:42:51 28.3 C 8.85 g/m*3 28.3 C 0 km/h
1769 23-07-2009 17:54:52 28.4 C 8.62 g/m*3 28.4 C 0 km/h
1770 23-07-2009 18:06:51 27.7 C 8.56 g/m*3 27.7 C 0 km/h
1771 23-07-2009 18:18:51 26.9 C 8.96 g/m*3 26.9 C 0 km/h
1772 23-07-2009 18:30:51 27.7 C 8.83 g/m*3 27.7 C 0 km/h
1773 23-07-2009 18:42:51 25.9 C 10.65 g/m*3 25.9 C 0 km/h
1774 23-07-2009 18:54:51 24.9 C 10.53 g/m*3 24.9 C 0 km/h
1775 23-07-2009 19:06:50 24.6 C 10.8 g/m*3 24.6 C 0 km/h
Sensor: Nr:Datum:Temp:Abs-Feuchte:Windchill:Wind:
Aussen-T/F 1776 23-07-2009 19:18:51 24.6 C 10.58 g/m*3 24.6 C 0 km/h
1777 23-07-2009 19:30:51 25.1 C 10.42 g/m*3 25.1 C 0 km/h
1778 23-07-2009 19:42:51 24.1 C 10.5 g/m*3 24.1 C 0 km/h
1779 23-07-2009 19:54:50 24.1 C 10.5 g/m*3 24.1 C 0 km/h
1780 23-07-2009 20:06:50 24.1 C 10.5 g/m*3 24.1 C 0 km/h
1781 23-07-2009 20:18:02 23.7 C 11.55 g/m*3 23.7 C 0 km/h
1782 23-07-2009 20:30:02 23.4 C 11.14 g/m*3 23.4 C 0 km/h
1783 23-07-2009 20:42:01 23 C 11.1 g/m*3 23 C 0 km/h
1784 23-07-2009 20:54:02 22.7 C 11.31 g/m*3 22.7 C 0 km/h
1785 23-07-2009 21:06:01 22.1 C 12.1 g/m*3 22.1 C 0 km/h
1786 23-07-2009 21:18:01 21.1 C 12.71 g/m*3 21.1 C 0 km/h
1787 23-07-2009 21:30:02 20.1 C 13.21 g/m*3 20.1 C 0 km/h
1788 23-07-2009 21:42:01 19.6 C 13.67 g/m*3 19.6 C 0 km/h
1789 23-07-2009 21:54:01 19.1 C 13.61 g/m*3 19.1 C 0 km/h
1790 23-07-2009 22:06:01 19.2 C 13.85 g/m*3 19.2 C 0 km/h
1791 23-07-2009 22:18:01 19.3 C 13.93 g/m*3 19.3 C 0 km/h
1792 23-07-2009 22:30:01 19.3 C 13.77 g/m*3 19.3 C 0 km/h
1793 23-07-2009 22:42:01 19.1 C 13.44 g/m*3 19.1 C 0 km/h
1794 23-07-2009 22:54:00 19 C 13.53 g/m*3 19 C 0 km/h
1795 23-07-2009 23:07:02 18.8 C 13.53 g/m*3 18.8 C 0 km/h
1796 23-07-2009 23:19:02 18.7 C 13.45 g/m*3 18.7 C 0 km/h
1797 23-07-2009 23:31:02 18.7 C 13.13 g/m*3 18.7 C 0 km/h
1798 23-07-2009 23:43:02 18.8 C 13.21 g/m*3 18.8 C 0 km/h
1799 23-07-2009 23:55:02 18.8 C 13.21 g/m*3 18.8 C 0 km/h
1800 24-07-2009 00:07:02 18.9 C 13.12 g/m*3 18.9 C 0 km/h
Sensor: Nr:Datum:Temp:Abs-Feuchte:Windchill:Wind:
Aussen-T/F 1801 24-07-2009 00:19:02 19 C 13.04 g/m*3 19 C 0 km/h
1802 24-07-2009 00:31:02 19 C 13.04 g/m*3 19 C 0 km/h
1803 24-07-2009 00:43:02 19 C 12.87 g/m*3 19 C 0 km/h
1804 24-07-2009 00:55:02 18.8 C 12.72 g/m*3 18.8 C 0 km/h
1805 24-07-2009 01:07:02 18.8 C 12.4 g/m*3 18.8 C 0 km/h
1806 24-07-2009 01:19:02 18.7 C 12.17 g/m*3 18.7 C 0 km/h
1807 24-07-2009 01:31:02 18.8 C 12.08 g/m*3 18.8 C 0 km/h
1808 24-07-2009 01:43:02 18.7 C 11.85 g/m*3 18.7 C 0 km/h
1809 24-07-2009 01:55:02 18.5 C 11.87 g/m*3 18.5 C 0 km/h
1810 24-07-2009 02:07:03 18.3 C 12.04 g/m*3 18.3 C 0 km/h
1811 24-07-2009 02:19:03 18.3 C 11.88 g/m*3 18.3 C 0 km/h
1812 24-07-2009 02:31:03 18.1 C 11.9 g/m*3 18.1 C 0 km/h
1813 24-07-2009 02:43:03 18.1 C 11.9 g/m*3 18.1 C 0 km/h
1814 24-07-2009 02:55:03 17.9 C 11.91 g/m*3 17.9 C 0 km/h
1815 24-07-2009 03:07:03 17.8 C 11.99 g/m*3 17.8 C 0 km/h
1816 24-07-2009 03:19:03 17.9 C 12.06 g/m*3 17.9 C 0 km/h
1817 24-07-2009 03:31:03 18.1 C 11.9 g/m*3 18.1 C 0 km/h
1818 24-07-2009 03:43:03 17.9 C 11.91 g/m*3 17.9 C 0 km/h
1819 24-07-2009 03:55:03 17.7 C 11.92 g/m*3 17.7 C 0 km/h
1820 24-07-2009 04:07:03 17.6 C 11.85 g/m*3 17.6 C 0 km/h
1821 24-07-2009 04:19:03 17.5 C 11.93 g/m*3 17.5 C 0 km/h
1822 24-07-2009 04:31:03 17.4 C 11.71 g/m*3 17.4 C 0 km/h
1823 24-07-2009 04:43:03 17.5 C 11.78 g/m*3 17.5 C 0 km/h
1824 24-07-2009 04:55:03 17.5 C 11.63 g/m*3 17.5 C 0 km/h
1825 24-07-2009 05:07:03 17.5 C 11.48 g/m*3 17.5 C 0 km/h
Sensor: Nr:Datum:Temp:Abs-Feuchte:Windchill:Wind:
Aussen-T/F 1826 24-07-2009 05:19:03 17.4 C 11.41 g/m*3 17.4 C 0 km/h
1827 24-07-2009 05:31:03 17.3 C 11.34 g/m*3 17.3 C 0 km/h
1828 24-07-2009 05:43:03 17.4 C 11.26 g/m*3 17.4 C 0 km/h
1829 24-07-2009 05:55:04 17.3 C 11.05 g/m*3 17.3 C 0 km/h
1830 24-07-2009 06:07:04 17.3 C 10.9 g/m*3 17.3 C 0 km/h
1831 24-07-2009 06:19:04 17.5 C 10.73 g/m*3 17.5 C 0 km/h
1832 24-07-2009 06:31:04 17.4 C 10.67 g/m*3 17.4 C 0 km/h
1833 24-07-2009 06:43:04 17.4 C 10.67 g/m*3 17.4 C 0 km/h
1834 24-07-2009 06:55:04 17.5 C 10.73 g/m*3 17.5 C 0 km/h
1835 24-07-2009 07:07:02 17.7 C 10.71 g/m*3 17.7 C 0 km/h
1836 24-07-2009 07:19:01 17.9 C 10.84 g/m*3 17.9 C 0 km/h
1837 24-07-2009 07:31:01 18.1 C 10.82 g/m*3 18.1 C 0 km/h
1838 24-07-2009 07:43:01 18.2 C 10.72 g/m*3 18.2 C 0 km/h
1839 24-07-2009 07:55:01 18.2 C 10.72 g/m*3 18.2 C 0 km/h
1840 24-07-2009 08:07:01 18.4 C 10.7 g/m*3 18.4 C 0 km/h
1841 24-07-2009 08:19:01 18.3 C 10.63 g/m*3 18.3 C 0 km/h
1842 24-07-2009 08:31:00 18.3 C 10.63 g/m*3 18.3 C 0 km/h
1843 24-07-2009 08:43:00 18.4 C 10.38 g/m*3 18.4 C 0 km/h
1844 24-07-2009 08:55:01 18.5 C 10.28 g/m*3 18.5 C 0 km/h
1845 24-07-2009 09:07:00 18.4 C 10.22 g/m*3 18.4 C 0 km/h
1846 24-07-2009 09:19:00 18.6 C 10.35 g/m*3 18.6 C 0 km/h
1847 24-07-2009 09:31:00 18.9 C 10.53 g/m*3 18.9 C 0 km/h
1848 24-07-2009 09:43:00 19.5 C 10.24 g/m*3 19.5 C 0 km/h
1849 24-07-2009 09:55:00 20.4 C 9.91 g/m*3 20.4 C 0 km/h
1850 24-07-2009 10:07:59 20.5 C 10.14 g/m*3 20.5 C 0 km/h
Sensor: Nr:Datum:Temp:Abs-Feuchte:Windchill:Wind:
Aussen-T/F 1851 24-07-2009 10:19:00 18.4 C 11.17 g/m*3 18.4 C 0 km/h
1852 24-07-2009 10:31:00 18.4 C 11.95 g/m*3 18.4 C 0 km/h
1853 24-07-2009 10:43:00 18.9 C 11.99 g/m*3 18.9 C 0 km/h
1854 24-07-2009 10:55:59 18.6 C 11.78 g/m*3 18.6 C 0 km/h
1855 24-07-2009 11:07:00 19.7 C 11.89 g/m*3 19.7 C 0 km/h
1856 24-07-2009 11:19:59 20.8 C 11.59 g/m*3 20.8 C 0 km/h
1857 24-07-2009 11:31:59 21.4 C 10.69 g/m*3 21.4 C 0 km/h
1858 24-07-2009 11:43:59 21 C 9.89 g/m*3 21 C 0 km/h
1859 24-07-2009 11:55:59 21.5 C 9.81 g/m*3 21.5 C 0 km/h
1860 24-07-2009 12:07:59 21.9 C 9.46 g/m*3 21.9 C 0 km/h
1861 24-07-2009 12:19:59 20 C 10.54 g/m*3 20 C 0 km/h
1862 24-07-2009 12:31:58 18.6 C 11.3 g/m*3 18.6 C 0 km/h
1863 24-07-2009 12:43:58 19.8 C 11.79 g/m*3 19.8 C 0 km/h
1864 24-07-2009 12:55:59 20.4 C 9.91 g/m*3 20.4 C 0 km/h
1865 24-07-2009 13:07:58 21.5 C 10.37 g/m*3 21.5 C 0 km/h
1866 24-07-2009 13:19:58 22.6 C 8.44 g/m*3 22.6 C 0 km/h
1867 24-07-2009 13:31:57 22.4 C 9.14 g/m*3 22.4 C 0 km/h
1868 24-07-2009 13:43:57 23.9 C 7.79 g/m*3 23.9 C 0 km/h
1869 24-07-2009 13:55:58 23.9 C 7.36 g/m*3 23.9 C 0 km/h
1870 24-07-2009 14:07:57 24.2 C 6.82 g/m*3 24.2 C 0 km/h
1871 24-07-2009 14:19:57 22.3 C 8.29 g/m*3 22.3 C 0 km/h
1872 24-07-2009 14:31:58 22 C 7.96 g/m*3 22 C 0 km/h
1873 24-07-2009 14:43:58 23.5 C 6.98 g/m*3 23.5 C 0 km/h
1874 24-07-2009 14:55:57 24.5 C 6.71 g/m*3 24.5 C 0 km/h
1875 24-07-2009 15:07:57 24.8 C 7.06 g/m*3 24.8 C 0 km/h
Sensor: Nr:Datum:Temp:Abs-Feuchte:Windchill:Wind:
Aussen-T/F 1876 24-07-2009 15:19:57 24.9 C 6.41 g/m*3 24.9 C 0 km/h
1877 24-07-2009 15:31:56 25.5 C 6.63 g/m*3 25.5 C 0 km/h
1878 24-07-2009 15:43:56 24.8 C 6.37 g/m*3 24.8 C 0 km/h
1879 24-07-2009 15:55:57 24.8 C 6.83 g/m*3 24.8 C 0 km/h
1880 24-07-2009 16:07:56 25.5 C 5.92 g/m*3 25.5 C 0 km/h
1881 24-07-2009 16:19:56 26 C 5.6 g/m*3 26 C 0 km/h
1882 24-07-2009 16:31:56 26.3 C 5.94 g/m*3 26.3 C 0 km/h
1883 24-07-2009 16:43:56 24.8 C 5.92 g/m*3 24.8 C 0 km/h
1884 24-07-2009 16:55:56 24.8 C 5.69 g/m*3 24.8 C 0 km/h
1885 24-07-2009 17:07:56 25.3 C 5.85 g/m*3 25.3 C 0 km/h
1886 24-07-2009 17:19:56 24.6 C 5.63 g/m*3 24.6 C 0 km/h
1887 24-07-2009 17:31:56 26.4 C 5.73 g/m*3 26.4 C 0 km/h
1888 24-07-2009 17:43:56 25.6 C 6.19 g/m*3 25.6 C 0 km/h
1889 24-07-2009 17:55:55 25.5 C 6.63 g/m*3 25.5 C 0 km/h
1890 24-07-2009 18:07:56 25.9 C 6.78 g/m*3 25.9 C 0 km/h
1891 24-07-2009 18:19:55 26.8 C 6.62 g/m*3 26.8 C 0 km/h
1892 24-07-2009 18:31:55 26.1 C 6.37 g/m*3 26.1 C 0 km/h
1893 24-07-2009 18:43:55 26.5 C 6.26 g/m*3 26.5 C 0 km/h
1894 24-07-2009 18:55:54 26.6 C 6.54 g/m*3 26.6 C 0 km/h
1895 24-07-2009 19:07:55 25.9 C 6.29 g/m*3 25.9 C 0 km/h
1896 24-07-2009 19:19:55 24.7 C 6.11 g/m*3 24.7 C 0 km/h
1897 24-07-2009 19:31:54 23.5 C 6.13 g/m*3 23.5 C 0 km/h
1898 24-07-2009 19:43:54 23.2 C 6.24 g/m*3 23.2 C 0 km/h
1899 24-07-2009 19:55:55 22.2 C 6.68 g/m*3 22.2 C 0 km/h
1900 24-07-2009 20:07:54 20.7 C 7.02 g/m*3 20.7 C 0 km/h
Sensor: Nr:Datum:Temp:Abs-Feuchte:Windchill:Wind:
Aussen-T/F 1901 24-07-2009 20:19:54 20.3 C 7.21 g/m*3 20.3 C 0 km/h
1902 24-07-2009 20:31:53 20.1 C 7.3 g/m*3 20.1 C 0 km/h
1903 24-07-2009 20:43:53 19.7 C 8.15 g/m*3 19.7 C 0 km/h
1904 24-07-2009 20:55:54 19.3 C 8.13 g/m*3 19.3 C 0 km/h
1905 24-07-2009 21:07:53 19.1 C 8.2 g/m*3 19.1 C 0 km/h
1906 24-07-2009 21:19:54 18.9 C 8.26 g/m*3 18.9 C 0 km/h
1907 24-07-2009 21:31:53 18.7 C 8.33 g/m*3 18.7 C 0 km/h
1908 24-07-2009 21:43:53 18.2 C 8.86 g/m*3 18.2 C 0 km/h
1909 24-07-2009 21:55:53 18.1 C 8.5 g/m*3 18.1 C 0 km/h
1910 24-07-2009 22:07:53 18.4 C 8.18 g/m*3 18.4 C 0 km/h
1911 24-07-2009 22:19:53 18.5 C 8.07 g/m*3 18.5 C 0 km/h
1912 24-07-2009 22:31:53 17.7 C 8.45 g/m*3 17.7 C 0 km/h
1913 24-07-2009 22:43:53 17.8 C 7.89 g/m*3 17.8 C 0 km/h
1914 24-07-2009 22:55:52 18 C 7.99 g/m*3 18 C 0 km/h
1915 24-07-2009 23:07:53 17.8 C 8.04 g/m*3 17.8 C 0 km/h
1916 24-07-2009 23:19:52 17.6 C 8.4 g/m*3 17.6 C 0 km/h
1917 24-07-2009 23:31:52 17.3 C 8.4 g/m*3 17.3 C 0 km/h
1918 24-07-2009 23:43:52 17.1 C 8.73 g/m*3 17.1 C 0 km/h
1919 24-07-2009 23:55:52 17.2 C 8.35 g/m*3 17.2 C 0 km/h
1920 25-07-2009 00:07:52 17.2 C 8.35 g/m*3 17.2 C 0 km/h
1921 25-07-2009 00:20:52 16.9 C 8.77 g/m*3 16.9 C 0 km/h
1922 25-07-2009 00:32:52 16.1 C 9.18 g/m*3 16.1 C 0 km/h
1923 25-07-2009 00:44:52 16.2 C 9.1 g/m*3 16.2 C 0 km/h
1924 25-07-2009 00:56:52 16.3 C 8.88 g/m*3 16.3 C 0 km/h
1925 25-07-2009 01:08:52 16.4 C 8.79 g/m*3 16.4 C 0 km/h
Sensor: Nr:Datum:Temp:Abs-Feuchte:Windchill:Wind:
Aussen-T/F 1926 25-07-2009 01:20:52 16.3 C 8.88 g/m*3 16.3 C 0 km/h
1927 25-07-2009 01:32:52 16.2 C 8.96 g/m*3 16.2 C 0 km/h
1928 25-07-2009 01:44:52 16.2 C 9.1 g/m*3 16.2 C 0 km/h
1929 25-07-2009 01:56:52 16.3 C 9.16 g/m*3 16.3 C 0 km/h
1930 25-07-2009 02:08:52 16.3 C 9.16 g/m*3 16.3 C 0 km/h
1931 25-07-2009 02:20:52 16.3 C 9.16 g/m*3 16.3 C 0 km/h
1932 25-07-2009 02:32:53 16.2 C 9.24 g/m*3 16.2 C 0 km/h
1933 25-07-2009 02:44:53 15.9 C 9.21 g/m*3 15.9 C 0 km/h
1934 25-07-2009 02:56:53 15.7 C 9.1 g/m*3 15.7 C 0 km/h
1935 25-07-2009 03:08:53 15.7 C 9.37 g/m*3 15.7 C 0 km/h
1936 25-07-2009 03:20:53 15.6 C 9.44 g/m*3 15.6 C 0 km/h
1937 25-07-2009 03:32:53 15.5 C 9.39 g/m*3 15.5 C 0 km/h
1938 25-07-2009 03:44:53 15.5 C 9.39 g/m*3 15.5 C 0 km/h
1939 25-07-2009 03:56:53 15.2 C 9.35 g/m*3 15.2 C 0 km/h
1940 25-07-2009 04:08:53 15 C 9.36 g/m*3 15 C 0 km/h
1941 25-07-2009 04:20:53 14.8 C 9.37 g/m*3 14.8 C 0 km/h
1942 25-07-2009 04:32:53 14.7 C 9.32 g/m*3 14.7 C 0 km/h
1943 25-07-2009 04:44:53 14.7 C 9.07 g/m*3 14.7 C 0 km/h
1944 25-07-2009 04:56:53 14.8 C 8.87 g/m*3 14.8 C 0 km/h
1945 25-07-2009 05:08:53 14.8 C 8.61 g/m*3 14.8 C 0 km/h
1946 25-07-2009 05:20:53 14.7 C 8.69 g/m*3 14.7 C 0 km/h
1947 25-07-2009 05:32:53 14.6 C 8.76 g/m*3 14.6 C 0 km/h
1948 25-07-2009 05:44:53 14.5 C 8.71 g/m*3 14.5 C 0 km/h
1949 25-07-2009 05:56:53 14.7 C 8.69 g/m*3 14.7 C 0 km/h
1950 25-07-2009 06:08:53 14.7 C 8.69 g/m*3 14.7 C 0 km/h
Sensor: Nr:Datum:Temp:Abs-Feuchte:Windchill:Wind:
Aussen-T/F 1951 25-07-2009 06:20:54 14.7 C 8.81 g/m*3 14.7 C 0 km/h
1952 25-07-2009 06:32:54 14.3 C 8.85 g/m*3 14.3 C 0 km/h
1953 25-07-2009 06:44:54 14.1 C 8.98 g/m*3 14.1 C 0 km/h
1954 25-07-2009 06:56:54 14.2 C 9.16 g/m*3 14.2 C 0 km/h
1955 25-07-2009 07:08:54 14.5 C 9.2 g/m*3 14.5 C 0 km/h
1956 25-07-2009 07:20:54 14.4 C 9.02 g/m*3 14.4 C 0 km/h
1957 25-07-2009 07:32:54 14.4 C 9.02 g/m*3 14.4 C 0 km/h
1958 25-07-2009 07:44:54 14.4 C 9.15 g/m*3 14.4 C 0 km/h
1959 25-07-2009 07:56:54 14.8 C 9.12 g/m*3 14.8 C 0 km/h
1960 25-07-2009 08:08:54 15.3 C 8.88 g/m*3 15.3 C 0 km/h
1961 25-07-2009 08:20:54 15.4 C 8.67 g/m*3 15.4 C 0 km/h
1962 25-07-2009 08:32:52 16.1 C 8.91 g/m*3 16.1 C 0 km/h
1963 25-07-2009 08:44:52 16.3 C 8.6 g/m*3 16.3 C 0 km/h
1964 25-07-2009 08:56:52 16.7 C 8.95 g/m*3 16.7 C 0 km/h
1965 25-07-2009 09:08:52 16.9 C 8.77 g/m*3 16.9 C 0 km/h
1966 25-07-2009 09:20:51 17.1 C 8.59 g/m*3 17.1 C 0 km/h
1967 25-07-2009 09:32:51 17.5 C 8.65 g/m*3 17.5 C 0 km/h
1968 25-07-2009 09:44:52 17.7 C 8.45 g/m*3 17.7 C 0 km/h
1969 25-07-2009 09:56:52 17.9 C 8.4 g/m*3 17.9 C 0 km/h
1970 25-07-2009 10:08:51 18 C 8.14 g/m*3 18 C 0 km/h
1971 25-07-2009 10:20:51 18.4 C 8.18 g/m*3 18.4 C 0 km/h
1972 25-07-2009 10:32:51 19 C 7.99 g/m*3 19 C 0 km/h
1973 25-07-2009 10:44:51 19.1 C 7.7 g/m*3 19.1 C 0 km/h
1974 25-07-2009 10:56:51 19.2 C 7.59 g/m*3 19.2 C 0 km/h
1975 25-07-2009 11:08:50 19.6 C 7.43 g/m*3 19.6 C 0 km/h
Sensor: Nr:Datum:Temp:Abs-Feuchte:Windchill:Wind:
Aussen-T/F 1976 25-07-2009 11:20:51 20 C 7.09 g/m*3 20 C 0 km/h
1977 25-07-2009 11:32:50 20 C 7.26 g/m*3 20 C 0 km/h
1978 25-07-2009 11:44:50 20.4 C 7.08 g/m*3 20.4 C 0 km/h
1979 25-07-2009 11:56:51 19.5 C 7.72 g/m*3 19.5 C 0 km/h
1980 25-07-2009 12:08:50 18.9 C 8.26 g/m*3 18.9 C 0 km/h
1981 25-07-2009 12:20:50 18.9 C 8.59 g/m*3 18.9 C 0 km/h
1982 25-07-2009 12:32:50 19.9 C 8.59 g/m*3 19.9 C 0 km/h
1983 25-07-2009 12:44:50 21 C 8.61 g/m*3 21 C 0 km/h
1984 25-07-2009 12:56:50 22 C 8.15 g/m*3 22 C 0 km/h
1985 25-07-2009 13:08:50 21 C 8.24 g/m*3 21 C 0 km/h
1986 25-07-2009 13:20:49 20.7 C 7.56 g/m*3 20.7 C 0 km/h
1987 25-07-2009 13:32:49 21.8 C 7.48 g/m*3 21.8 C 0 km/h
1988 25-07-2009 13:44:49 23 C 7.19 g/m*3 23 C 0 km/h
1989 25-07-2009 13:56:49 22.2 C 7.46 g/m*3 22.2 C 0 km/h
1990 25-07-2009 14:08:49 22.6 C 7.23 g/m*3 22.6 C 0 km/h
1991 25-07-2009 14:20:48 21.7 C 7.25 g/m*3 21.7 C 0 km/h
1992 25-07-2009 14:32:49 21.8 C 8.06 g/m*3 21.8 C 0 km/h
1993 25-07-2009 14:44:49 22.2 C 7.66 g/m*3 22.2 C 0 km/h
1994 25-07-2009 14:56:49 22.4 C 7.35 g/m*3 22.4 C 0 km/h
1995 25-07-2009 15:08:48 21.6 C 7.78 g/m*3 21.6 C 0 km/h
1996 25-07-2009 15:20:49 23.1 C 7.65 g/m*3 23.1 C 0 km/h
1997 25-07-2009 15:32:48 22.3 C 6.71 g/m*3 22.3 C 0 km/h
1998 25-07-2009 15:44:48 21.8 C 7.48 g/m*3 21.8 C 0 km/h
1999 25-07-2009 15:56:48 22.8 C 7.32 g/m*3 22.8 C 0 km/h
2000 25-07-2009 16:08:48 23.7 C 6.84 g/m*3 23.7 C 0 km/h
Sensor: Nr:Datum:Temp:Abs-Feuchte:Windchill:Wind:
Aussen-T/F 2001 25-07-2009 16:20:48 22.8 C 7.32 g/m*3 22.8 C 0 km/h
2002 25-07-2009 16:32:48 23.2 C 7.69 g/m*3 23.2 C 0 km/h
2003 25-07-2009 16:44:47 22.9 C 7.36 g/m*3 22.9 C 0 km/h
2004 25-07-2009 16:56:47 24 C 7.61 g/m*3 24 C 0 km/h
2005 25-07-2009 17:08:48 24.3 C 6.42 g/m*3 24.3 C 0 km/h
2006 25-07-2009 17:20:47 23.9 C 6.92 g/m*3 23.9 C 0 km/h
2007 25-07-2009 17:32:47 24.2 C 6.6 g/m*3 24.2 C 0 km/h
2008 25-07-2009 17:44:47 23 C 6.58 g/m*3 23 C 0 km/h
2009 25-07-2009 17:56:47 22.2 C 7.46 g/m*3 22.2 C 0 km/h
2010 25-07-2009 18:08:47 21.1 C 7.74 g/m*3 21.1 C 0 km/h
2011 25-07-2009 18:20:46 21.8 C 7.67 g/m*3 21.8 C 0 km/h
2012 25-07-2009 18:32:46 21.1 C 7.55 g/m*3 21.1 C 0 km/h
2013 25-07-2009 18:44:46 19.3 C 8.79 g/m*3 19.3 C 0 km/h
2014 25-07-2009 18:56:46 17.1 C 10.19 g/m*3 17.1 C 0 km/h
2015 25-07-2009 19:08:46 16.6 C 11.16 g/m*3 16.6 C 0 km/h
2016 25-07-2009 19:20:46 17.7 C 12.07 g/m*3 17.7 C 0 km/h
2017 25-07-2009 19:32:46 18.7 C 12.49 g/m*3 18.7 C 0 km/h
2018 25-07-2009 19:44:46 19.8 C 12.47 g/m*3 19.8 C 0 km/h
2019 25-07-2009 19:56:46 19.1 C 11.8 g/m*3 19.1 C 0 km/h
2020 25-07-2009 20:08:46 18.2 C 11.5 g/m*3 18.2 C 0 km/h
2021 25-07-2009 20:20:45 17.7 C 11.47 g/m*3 17.7 C 0 km/h
2022 25-07-2009 20:32:45 17 C 10.85 g/m*3 17 C 0 km/h
2023 25-07-2009 20:44:45 16.8 C 11.01 g/m*3 16.8 C 0 km/h
2024 25-07-2009 20:56:45 16.4 C 11.03 g/m*3 16.4 C 0 km/h
2025 25-07-2009 21:08:45 16.3 C 10.96 g/m*3 16.3 C 0 km/h
Sensor: Nr:Datum:Temp:Abs-Feuchte:Windchill:Wind:
Aussen-T/F 2026 25-07-2009 21:20:45 16.3 C 10.96 g/m*3 16.3 C 0 km/h
2027 25-07-2009 21:32:45 16.4 C 11.17 g/m*3 16.4 C 0 km/h
2028 25-07-2009 21:44:45 16.4 C 11.17 g/m*3 16.4 C 0 km/h
2029 25-07-2009 21:56:45 16.5 C 11.09 g/m*3 16.5 C 0 km/h
2030 25-07-2009 22:08:45 16.6 C 11.16 g/m*3 16.6 C 0 km/h
2031 25-07-2009 22:20:44 16.4 C 11.03 g/m*3 16.4 C 0 km/h
2032 25-07-2009 22:32:44 16.4 C 11.03 g/m*3 16.4 C 0 km/h
2033 25-07-2009 22:44:44 16.5 C 11.09 g/m*3 16.5 C 0 km/h
2034 25-07-2009 22:56:44 16.6 C 11.02 g/m*3 16.6 C 0 km/h
2035 25-07-2009 23:09:53 16.4 C 11.03 g/m*3 16.4 C 0 km/h
2036 25-07-2009 23:21:53 16.5 C 10.95 g/m*3 16.5 C 0 km/h
2037 25-07-2009 23:33:53 16.5 C 10.81 g/m*3 16.5 C 0 km/h
2038 25-07-2009 23:45:53 16.1 C 10.55 g/m*3 16.1 C 0 km/h
2039 25-07-2009 23:57:53 15.6 C 10.37 g/m*3 15.6 C 0 km/h
2040 26-07-2009 00:09:53 15.2 C 10.25 g/m*3 15.2 C 0 km/h
2041 26-07-2009 00:21:53 14.8 C 10.13 g/m*3 14.8 C 0 km/h
2042 26-07-2009 00:33:53 14.7 C 10.2 g/m*3 14.7 C 0 km/h
2043 26-07-2009 00:45:53 14.5 C 10.07 g/m*3 14.5 C 0 km/h
2044 26-07-2009 00:57:53 14.4 C 10.01 g/m*3 14.4 C 0 km/h
2045 26-07-2009 01:09:53 14.1 C 9.95 g/m*3 14.1 C 0 km/h
2046 26-07-2009 01:21:53 14.1 C 9.95 g/m*3 14.1 C 0 km/h
2047 26-07-2009 01:33:53 13.9 C 9.95 g/m*3 13.9 C 0 km/h
2048 26-07-2009 01:45:53 13.7 C 9.83 g/m*3 13.7 C 0 km/h
2049 26-07-2009 01:57:53 13.5 C 9.71 g/m*3 13.5 C 0 km/h
2050 26-07-2009 02:09:53 13.5 C 9.83 g/m*3 13.5 C 0 km/h
Sensor: Nr:Datum:Temp:Abs-Feuchte:Windchill:Wind:
Aussen-T/F 2051 26-07-2009 02:21:54 13.4 C 9.76 g/m*3 13.4 C 0 km/h
2052 26-07-2009 02:33:54 13.3 C 9.7 g/m*3 13.3 C 0 km/h
2053 26-07-2009 02:45:54 13.2 C 9.64 g/m*3 13.2 C 0 km/h
2054 26-07-2009 02:57:54 13.1 C 9.7 g/m*3 13.1 C 0 km/h
2055 26-07-2009 03:09:54 13 C 9.64 g/m*3 13 C 0 km/h
2056 26-07-2009 03:21:54 12.9 C 9.69 g/m*3 12.9 C 0 km/h
2057 26-07-2009 03:33:54 12.8 C 9.63 g/m*3 12.8 C 0 km/h
2058 26-07-2009 03:45:54 12.6 C 9.51 g/m*3 12.6 C 0 km/h
2059 26-07-2009 03:57:54 12.5 C 9.57 g/m*3 12.5 C 0 km/h
2060 26-07-2009 04:09:54 12.4 C 9.51 g/m*3 12.4 C 0 km/h
2061 26-07-2009 04:21:54 12.2 C 9.39 g/m*3 12.2 C 0 km/h
2062 26-07-2009 04:33:54 12.4 C 9.62 g/m*3 12.4 C 0 km/h
2063 26-07-2009 04:45:54 12.5 C 9.68 g/m*3 12.5 C 0 km/h
2064 26-07-2009 04:57:54 12.7 C 9.8 g/m*3 12.7 C 0 km/h
2065 26-07-2009 05:09:54 12.9 C 9.92 g/m*3 12.9 C 0 km/h
2066 26-07-2009 05:21:54 13 C 9.98 g/m*3 13 C 0 km/h
2067 26-07-2009 05:33:54 12.8 C 9.86 g/m*3 12.8 C 0 km/h
2068 26-07-2009 05:45:54 12.8 C 9.86 g/m*3 12.8 C 0 km/h
2069 26-07-2009 05:57:54 12.8 C 9.74 g/m*3 12.8 C 0 km/h
2070 26-07-2009 06:09:54 12.9 C 9.81 g/m*3 12.9 C 0 km/h
2071 26-07-2009 06:21:55 12.9 C 9.69 g/m*3 12.9 C 0 km/h
2072 26-07-2009 06:33:55 13 C 9.64 g/m*3 13 C 0 km/h
2073 26-07-2009 06:45:55 12.8 C 9.52 g/m*3 12.8 C 0 km/h
2074 26-07-2009 06:57:55 12.7 C 9.46 g/m*3 12.7 C 0 km/h
2075 26-07-2009 07:09:55 12.7 C 9.57 g/m*3 12.7 C 0 km/h
Sensor: Nr:Datum:Temp:Abs-Feuchte:Windchill:Wind:
Aussen-T/F 2076 26-07-2009 07:21:55 12.9 C 9.58 g/m*3 12.9 C 0 km/h
2077 26-07-2009 07:33:55 12.9 C 9.47 g/m*3 12.9 C 0 km/h
2078 26-07-2009 07:45:55 13.3 C 9.59 g/m*3 13.3 C 0 km/h
2079 26-07-2009 07:57:55 13.6 C 9.53 g/m*3 13.6 C 0 km/h
2080 26-07-2009 08:09:55 13.7 C 9.59 g/m*3 13.7 C 0 km/h
2081 26-07-2009 08:21:45 13.8 C 9.53 g/m*3 13.8 C 0 km/h
2082 26-07-2009 08:33:45 13.6 C 9.65 g/m*3 13.6 C 0 km/h
2083 26-07-2009 08:45:45 13.6 C 9.77 g/m*3 13.6 C 0 km/h
2084 26-07-2009 08:57:45 14 C 9.89 g/m*3 14 C 0 km/h
2085 26-07-2009 09:09:45 14.4 C 9.89 g/m*3 14.4 C 0 km/h
2086 26-07-2009 09:21:45 14.7 C 9.95 g/m*3 14.7 C 0 km/h
2087 26-07-2009 09:33:44 15.1 C 9.93 g/m*3 15.1 C 0 km/h
2088 26-07-2009 09:45:45 15.6 C 10.11 g/m*3 15.6 C 0 km/h
2089 26-07-2009 09:57:45 15.8 C 9.96 g/m*3 15.8 C 0 km/h
2090 26-07-2009 10:09:44 16 C 10.08 g/m*3 16 C 0 km/h
2091 26-07-2009 10:21:44 16.2 C 10.07 g/m*3 16.2 C 0 km/h
2092 26-07-2009 10:33:44 17.7 C 10.86 g/m*3 17.7 C 0 km/h
2093 26-07-2009 10:45:44 18.1 C 10.04 g/m*3 18.1 C 0 km/h
2094 26-07-2009 10:57:45 18.8 C 10.95 g/m*3 18.8 C 0 km/h
2095 26-07-2009 11:09:43 19.2 C 10.88 g/m*3 19.2 C 0 km/h
2096 26-07-2009 11:21:44 19.9 C 11 g/m*3 19.9 C 0 km/h
2097 26-07-2009 11:33:44 20.6 C 10.92 g/m*3 20.6 C 0 km/h
2098 26-07-2009 11:45:43 21.6 C 11.19 g/m*3 21.6 C 0 km/h
2099 26-07-2009 11:57:43 22.5 C 10.79 g/m*3 22.5 C 0 km/h
2100 26-07-2009 12:09:43 22.8 C 9.96 g/m*3 22.8 C 0 km/h
Sensor: Nr:Datum:Temp:Abs-Feuchte:Windchill:Wind:
Aussen-T/F 2101 26-07-2009 12:21:43 23.3 C 8.36 g/m*3 23.3 C 0 km/h
2102 26-07-2009 12:33:43 24.2 C 7.48 g/m*3 24.2 C 0 km/h
2103 26-07-2009 12:45:42 24.1 C 6.56 g/m*3 24.1 C 0 km/h
2104 26-07-2009 12:57:42 24.2 C 6.6 g/m*3 24.2 C 0 km/h
2105 26-07-2009 13:09:43 24.2 C 6.6 g/m*3 24.2 C 0 km/h
2106 26-07-2009 13:21:42 25.7 C 6.46 g/m*3 25.7 C 0 km/h
2107 26-07-2009 13:33:42 25.4 C 6.83 g/m*3 25.4 C 0 km/h
2108 26-07-2009 13:45:42 25.1 C 7.64 g/m*3 25.1 C 0 km/h
2109 26-07-2009 13:57:42 25.3 C 6.32 g/m*3 25.3 C 0 km/h
2110 26-07-2009 14:09:42 25.1 C 6.71 g/m*3 25.1 C 0 km/h
2111 26-07-2009 14:21:42 25.7 C 6.22 g/m*3 25.7 C 0 km/h
2112 26-07-2009 14:33:42 25.9 C 6.05 g/m*3 25.9 C 0 km/h
2113 26-07-2009 14:45:42 26.5 C 6.26 g/m*3 26.5 C 0 km/h
2114 26-07-2009 14:57:42 27.6 C 5.85 g/m*3 27.6 C 0 km/h
2115 26-07-2009 15:09:41 28.4 C 5.84 g/m*3 28.4 C 0 km/h
2116 26-07-2009 15:21:42 27.9 C 5.95 g/m*3 27.9 C 0 km/h
2117 26-07-2009 15:33:41 28.2 C 6.32 g/m*3 28.2 C 0 km/h
2118 26-07-2009 15:45:41 28.2 C 5.5 g/m*3 28.2 C 0 km/h
2119 26-07-2009 15:57:41 28.7 C 5.65 g/m*3 28.7 C 0 km/h
2120 26-07-2009 16:09:40 27.9 C 5.95 g/m*3 27.9 C 0 km/h
2121 26-07-2009 16:21:41 28.9 C 6 g/m*3 28.9 C 0 km/h
2122 26-07-2009 16:33:41 29 C 5.74 g/m*3 29 C 0 km/h
2123 26-07-2009 16:45:40 28.1 C 5.47 g/m*3 28.1 C 0 km/h
2124 26-07-2009 16:57:40 28.2 C 5.77 g/m*3 28.2 C 0 km/h
2125 26-07-2009 17:09:41 28.4 C 5.56 g/m*3 28.4 C 0 km/h
Sensor: Nr:Datum:Temp:Abs-Feuchte:Windchill:Wind:
Aussen-T/F 2126 26-07-2009 17:21:40 28.6 C 5.62 g/m*3 28.6 C 0 km/h
2127 26-07-2009 17:33:40 30 C 6.06 g/m*3 30 C 0 km/h
2128 26-07-2009 17:45:40 30.4 C 6.2 g/m*3 30.4 C 0 km/h
2129 26-07-2009 17:57:40 30.1 C 6.1 g/m*3 30.1 C 0 km/h
2130 26-07-2009 18:09:40 30 C 6.37 g/m*3 30 C 0 km/h
2131 26-07-2009 18:21:39 30.6 C 6.58 g/m*3 30.6 C 0 km/h
2132 26-07-2009 18:33:39 30.3 C 6.78 g/m*3 30.3 C 0 km/h
2133 26-07-2009 18:45:39 30.8 C 6.33 g/m*3 30.8 C 0 km/h
2134 26-07-2009 18:57:39 30.3 C 6.78 g/m*3 30.3 C 0 km/h
2135 26-07-2009 19:09:39 29.5 C 7.38 g/m*3 29.5 C 0 km/h
2136 26-07-2009 19:21:39 29.6 C 8.31 g/m*3 29.6 C 0 km/h
2137 26-07-2009 19:33:39 29 C 8.04 g/m*3 29 C 0 km/h
2138 26-07-2009 19:45:39 27.9 C 8.11 g/m*3 27.9 C 0 km/h
2139 26-07-2009 19:57:39 26.6 C 8.81 g/m*3 26.6 C 0 km/h
2140 26-07-2009 20:09:38 25.5 C 8.76 g/m*3 25.5 C 0 km/h
2141 26-07-2009 20:21:39 24.9 C 8.24 g/m*3 24.9 C 0 km/h
2142 26-07-2009 20:33:38 24.5 C 8.95 g/m*3 24.5 C 0 km/h
2143 26-07-2009 20:45:38 23.9 C 8.87 g/m*3 23.9 C 0 km/h
2144 26-07-2009 20:57:38 23.1 C 8.89 g/m*3 23.1 C 0 km/h
2145 26-07-2009 21:09:38 22.6 C 9.24 g/m*3 22.6 C 0 km/h
2146 26-07-2009 21:21:38 21.6 C 8.91 g/m*3 21.6 C 0 km/h
2147 26-07-2009 21:33:38 21.3 C 8.57 g/m*3 21.3 C 0 km/h
2148 26-07-2009 21:45:38 21.2 C 8.9 g/m*3 21.2 C 0 km/h
2149 26-07-2009 21:57:38 20.7 C 8.82 g/m*3 20.7 C 0 km/h
2150 26-07-2009 22:09:37 20.6 C 8.77 g/m*3 20.6 C 0 km/h
Sensor: Nr:Datum:Temp:Abs-Feuchte:Windchill:Wind:
Aussen-T/F 2151 26-07-2009 22:22:38 20.4 C 8.67 g/m*3 20.4 C 0 km/h
2152 26-07-2009 22:34:38 20.4 C 8.85 g/m*3 20.4 C 0 km/h
2153 26-07-2009 22:46:38 20.3 C 8.62 g/m*3 20.3 C 0 km/h
2154 26-07-2009 22:58:38 20 C 8.3 g/m*3 20 C 0 km/h
2155 26-07-2009 23:10:38 19.7 C 8.32 g/m*3 19.7 C 0 km/h
2156 26-07-2009 23:22:38 19.8 C 8.54 g/m*3 19.8 C 0 km/h
2157 26-07-2009 23:34:38 19.7 C 8.83 g/m*3 19.7 C 0 km/h
2158 26-07-2009 23:46:38 19.5 C 8.73 g/m*3 19.5 C 0 km/h
2159 26-07-2009 23:58:38 19.1 C 8.69 g/m*3 19.1 C 0 km/h
2160 27-07-2009 00:10:38 18.9 C 9.07 g/m*3 18.9 C 0 km/h
2161 27-07-2009 00:22:38 18.8 C 9.02 g/m*3 18.8 C 0 km/h
2162 27-07-2009 00:34:38 18.6 C 8.59 g/m*3 18.6 C 0 km/h
2163 27-07-2009 00:46:38 18.4 C 8.65 g/m*3 18.4 C 0 km/h
2164 27-07-2009 00:58:38 18 C 8.75 g/m*3 18 C 0 km/h
2165 27-07-2009 01:10:38 17.7 C 8.75 g/m*3 17.7 C 0 km/h
2166 27-07-2009 01:22:38 17.6 C 9 g/m*3 17.6 C 0 km/h
2167 27-07-2009 01:34:38 17.4 C 9.04 g/m*3 17.4 C 0 km/h
2168 27-07-2009 01:46:38 17.2 C 9.23 g/m*3 17.2 C 0 km/h
2169 27-07-2009 01:58:38 17 C 9.26 g/m*3 17 C 0 km/h
2170 27-07-2009 02:10:39 16.9 C 9.49 g/m*3 16.9 C 0 km/h
2171 27-07-2009 02:22:39 16.7 C 9.38 g/m*3 16.7 C 0 km/h
2172 27-07-2009 02:34:39 16.5 C 9.41 g/m*3 16.5 C 0 km/h
2173 27-07-2009 02:46:39 16.3 C 9.43 g/m*3 16.3 C 0 km/h
2174 27-07-2009 02:58:39 16.1 C 9.46 g/m*3 16.1 C 0 km/h
2175 27-07-2009 03:10:39 15.9 C 9.62 g/m*3 15.9 C 0 km/h
Sensor: Nr:Datum:Temp:Abs-Feuchte:Windchill:Wind:
Aussen-T/F 2176 27-07-2009 03:22:39 15.6 C 9.44 g/m*3 15.6 C 0 km/h
2177 27-07-2009 03:34:39 15.4 C 9.46 g/m*3 15.4 C 0 km/h
2178 27-07-2009 03:46:39 15.3 C 9.4 g/m*3 15.3 C 0 km/h
2179 27-07-2009 03:58:39 15 C 9.23 g/m*3 15 C 0 km/h
2180 27-07-2009 04:10:39 14.8 C 9.25 g/m*3 14.8 C 0 km/h
2181 27-07-2009 04:22:39 14.7 C 9.19 g/m*3 14.7 C 0 km/h
2182 27-07-2009 04:34:39 14.5 C 9.2 g/m*3 14.5 C 0 km/h
2183 27-07-2009 04:46:39 14.4 C 9.27 g/m*3 14.4 C 0 km/h
2184 27-07-2009 04:58:39 14.1 C 9.1 g/m*3 14.1 C 0 km/h
2185 27-07-2009 05:10:39 14 C 9.05 g/m*3 14 C 0 km/h
2186 27-07-2009 05:22:39 14 C 9.05 g/m*3 14 C 0 km/h
2187 27-07-2009 05:34:39 13.8 C 9.06 g/m*3 13.8 C 0 km/h
2188 27-07-2009 05:46:39 13.6 C 8.94 g/m*3 13.6 C 0 km/h
2189 27-07-2009 05:58:39 13.5 C 9.01 g/m*3 13.5 C 0 km/h
2190 27-07-2009 06:10:39 13.4 C 8.95 g/m*3 13.4 C 0 km/h
2191 27-07-2009 06:22:40 13.4 C 8.95 g/m*3 13.4 C 0 km/h
2192 27-07-2009 06:34:40 13.4 C 9.07 g/m*3 13.4 C 0 km/h
2193 27-07-2009 06:46:40 13.5 C 9.24 g/m*3 13.5 C 0 km/h
2194 27-07-2009 06:58:40 13.6 C 9.3 g/m*3 13.6 C 0 km/h
2195 27-07-2009 07:10:38 13.7 C 9.47 g/m*3 13.7 C 0 km/h
2196 27-07-2009 07:22:38 13.7 C 9.47 g/m*3 13.7 C 0 km/h
2197 27-07-2009 07:34:37 13.8 C 9.53 g/m*3 13.8 C 0 km/h
2198 27-07-2009 07:46:37 14 C 9.53 g/m*3 14 C 0 km/h
2199 27-07-2009 07:58:37 14.2 C 9.65 g/m*3 14.2 C 0 km/h
2200 27-07-2009 08:10:37 14.4 C 9.77 g/m*3 14.4 C 0 km/h
Sensor: Nr:Datum:Temp:Abs-Feuchte:Windchill:Wind:
Aussen-T/F 2201 27-07-2009 08:22:37 14.7 C 9.95 g/m*3 14.7 C 0 km/h
2202 27-07-2009 08:34:37 15.1 C 9.93 g/m*3 15.1 C 0 km/h
2203 27-07-2009 08:46:36 15.3 C 9.92 g/m*3 15.3 C 0 km/h
2204 27-07-2009 08:58:36 15.8 C 10.1 g/m*3 15.8 C 0 km/h
2205 27-07-2009 09:10:37 16.3 C 10.13 g/m*3 16.3 C 0 km/h
2206 27-07-2009 09:22:37 16.9 C 10.36 g/m*3 16.9 C 0 km/h
2207 27-07-2009 09:34:36 17.7 C 10.41 g/m*3 17.7 C 0 km/h
2208 27-07-2009 09:46:37 18.4 C 10.54 g/m*3 18.4 C 0 km/h
2209 27-07-2009 09:58:37 19.1 C 10.33 g/m*3 19.1 C 0 km/h
2210 27-07-2009 10:10:36 19.9 C 10.65 g/m*3 19.9 C 0 km/h
2211 27-07-2009 10:22:36 20.7 C 10.62 g/m*3 20.7 C 0 km/h
2212 27-07-2009 10:34:35 21.6 C 10.62 g/m*3 21.6 C 0 km/h
2213 27-07-2009 10:46:36 22.3 C 10.66 g/m*3 22.3 C 0 km/h
2214 27-07-2009 10:58:36 23.1 C 10.54 g/m*3 23.1 C 0 km/h
2215 27-07-2009 11:10:35 23.7 C 10.91 g/m*3 23.7 C 0 km/h
2216 27-07-2009 11:22:35 24.3 C 10.62 g/m*3 24.3 C 0 km/h
2217 27-07-2009 11:34:36 24.9 C 8.93 g/m*3 24.9 C 0 km/h
2218 27-07-2009 11:46:35 26.1 C 8.08 g/m*3 26.1 C 0 km/h
2219 27-07-2009 11:58:35 26.5 C 7.51 g/m*3 26.5 C 0 km/h
2220 27-07-2009 12:10:35 26.4 C 7.72 g/m*3 26.4 C 0 km/h
2221 27-07-2009 12:22:35 26.9 C 7.42 g/m*3 26.9 C 0 km/h
2222 27-07-2009 12:34:35 27.4 C 7.1 g/m*3 27.4 C 0 km/h
2223 27-07-2009 12:46:34 28.3 C 7.46 g/m*3 28.3 C 0 km/h
2224 27-07-2009 12:58:34 28.4 C 7.23 g/m*3 28.4 C 0 km/h
2225 27-07-2009 13:10:35 28.8 C 6.25 g/m*3 28.8 C 0 km/h
Sensor: Nr:Datum:Temp:Abs-Feuchte:Windchill:Wind:
Aussen-T/F 2226 27-07-2009 13:22:34 29.1 C 6.06 g/m*3 29.1 C 0 km/h
2227 27-07-2009 13:34:34 29.7 C 6.27 g/m*3 29.7 C 0 km/h
2228 27-07-2009 13:46:34 30.7 C 6.3 g/m*3 30.7 C 0 km/h
2229 27-07-2009 13:58:34 30 C 6.67 g/m*3 30 C 0 km/h
2230 27-07-2009 14:10:34 30 C 6.97 g/m*3 30 C 0 km/h
2231 27-07-2009 14:22:34 29.8 C 7.2 g/m*3 29.8 C 0 km/h
2232 27-07-2009 14:34:33 30.5 C 7.48 g/m*3 30.5 C 0 km/h
2233 27-07-2009 14:46:34 30.9 C 7 g/m*3 30.9 C 0 km/h
2234 27-07-2009 14:58:34 30.9 C 6.37 g/m*3 30.9 C 0 km/h
2235 27-07-2009 15:10:33 30.7 C 6.3 g/m*3 30.7 C 0 km/h
2236 27-07-2009 15:22:33 30 C 6.06 g/m*3 30 C 0 km/h
2237 27-07-2009 15:34:33 29.2 C 6.68 g/m*3 29.2 C 0 km/h
2238 27-07-2009 15:46:33 29.1 C 6.35 g/m*3 29.1 C 0 km/h
2239 27-07-2009 15:58:34 29 C 6.61 g/m*3 29 C 0 km/h
2240 27-07-2009 16:10:32 29.2 C 6.97 g/m*3 29.2 C 0 km/h
2241 27-07-2009 16:22:33 29.7 C 6.86 g/m*3 29.7 C 0 km/h
2242 27-07-2009 16:34:33 30.2 C 6.74 g/m*3 30.2 C 0 km/h
2243 27-07-2009 16:46:32 30 C 7.58 g/m*3 30 C 0 km/h
2244 27-07-2009 16:58:32 29.4 C 8.22 g/m*3 29.4 C 0 km/h
2245 27-07-2009 17:10:32 28.9 C 7.14 g/m*3 28.9 C 0 km/h
2246 27-07-2009 17:22:32 28.2 C 6.87 g/m*3 28.2 C 0 km/h
2247 27-07-2009 17:34:32 27.9 C 7.3 g/m*3 27.9 C 0 km/h
2248 27-07-2009 17:46:31 26.9 C 7.68 g/m*3 26.9 C 0 km/h
2249 27-07-2009 17:58:31 25.1 C 7.87 g/m*3 25.1 C 0 km/h
2250 27-07-2009 18:10:32 24.5 C 7.83 g/m*3 24.5 C 0 km/h
Sensor: Nr:Datum:Temp:Abs-Feuchte:Windchill:Wind:
Aussen-T/F 2251 27-07-2009 18:22:31 23 C 10.07 g/m*3 23 C 0 km/h
2252 27-07-2009 18:34:31 22.1 C 10.54 g/m*3 22.1 C 0 km/h
2253 27-07-2009 18:46:31 20.7 C 11.88 g/m*3 20.7 C 0 km/h
2254 27-07-2009 18:58:31 19.8 C 13.15 g/m*3 19.8 C 0 km/h
2255 27-07-2009 19:10:31 19.4 C 13.35 g/m*3 19.4 C 0 km/h
2256 27-07-2009 19:22:31 19.1 C 13.44 g/m*3 19.1 C 0 km/h
2257 27-07-2009 19:34:30 19 C 13.53 g/m*3 19 C 0 km/h
2258 27-07-2009 19:46:31 19.3 C 13.77 g/m*3 19.3 C 0 km/h
2259 27-07-2009 19:58:31 19.4 C 13.51 g/m*3 19.4 C 0 km/h
2260 27-07-2009 20:10:30 19.7 C 13.58 g/m*3 19.7 C 0 km/h
2261 27-07-2009 20:22:30 20 C 13.48 g/m*3 20 C 0 km/h
2262 27-07-2009 20:34:30 20.5 C 13.52 g/m*3 20.5 C 0 km/h
2263 27-07-2009 20:46:30 20.8 C 13.4 g/m*3 20.8 C 0 km/h
2264 27-07-2009 20:58:31 20.8 C 13.4 g/m*3 20.8 C 0 km/h
2265 27-07-2009 21:10:30 19.9 C 12.89 g/m*3 19.9 C 0 km/h
2266 27-07-2009 21:22:30 19.7 C 12.74 g/m*3 19.7 C 0 km/h
2267 27-07-2009 21:34:29 19.4 C 12.68 g/m*3 19.4 C 0 km/h
2268 27-07-2009 21:46:30 19.1 C 12.46 g/m*3 19.1 C 0 km/h
2269 27-07-2009 21:58:30 18.9 C 12.64 g/m*3 18.9 C 0 km/h
2270 27-07-2009 22:10:29 18.8 C 12.56 g/m*3 18.8 C 0 km/h
2271 27-07-2009 22:22:29 18.7 C 12.65 g/m*3 18.7 C 0 km/h
2272 27-07-2009 22:34:29 18.7 C 12.81 g/m*3 18.7 C 0 km/h
2273 27-07-2009 22:47:30 18.7 C 12.65 g/m*3 18.7 C 0 km/h
2274 27-07-2009 22:59:30 18.5 C 12.02 g/m*3 18.5 C 0 km/h
2275 27-07-2009 23:11:30 18.3 C 11.26 g/m*3 18.3 C 0 km/h
Sensor: Nr:Datum:Temp:Abs-Feuchte:Windchill:Wind:
Aussen-T/F 2276 27-07-2009 23:23:31 18 C 11.21 g/m*3 18 C 0 km/h
2277 27-07-2009 23:35:31 17.7 C 11.01 g/m*3 17.7 C 0 km/h
2278 27-07-2009 23:47:31 17.4 C 10.97 g/m*3 17.4 C 0 km/h
2279 27-07-2009 23:59:31 17.4 C 11.12 g/m*3 17.4 C 0 km/h
2280 28-07-2009 00:11:31 17.5 C 11.03 g/m*3 17.5 C 0 km/h
2281 28-07-2009 00:23:31 17.6 C 10.65 g/m*3 17.6 C 0 km/h
2282 28-07-2009 00:35:31 17.7 C 10.56 g/m*3 17.7 C 0 km/h
2283 28-07-2009 00:47:31 17.7 C 10.56 g/m*3 17.7 C 0 km/h
2284 28-07-2009 00:59:31 17.7 C 10.71 g/m*3 17.7 C 0 km/h
2285 28-07-2009 01:11:31 17.7 C 10.71 g/m*3 17.7 C 0 km/h
2286 28-07-2009 01:23:31 17.6 C 10.5 g/m*3 17.6 C 0 km/h
2287 28-07-2009 01:35:31 17.5 C 10.59 g/m*3 17.5 C 0 km/h
2288 28-07-2009 01:47:31 17.4 C 10.37 g/m*3 17.4 C 0 km/h
2289 28-07-2009 01:59:31 17.3 C 9.87 g/m*3 17.3 C 0 km/h
2290 28-07-2009 02:11:31 17.4 C 9.19 g/m*3 17.4 C 0 km/h
2291 28-07-2009 02:23:31 17 C 8.54 g/m*3 17 C 0 km/h
2292 28-07-2009 02:35:31 16.8 C 8.58 g/m*3 16.8 C 0 km/h
2293 28-07-2009 02:47:31 16.8 C 8.44 g/m*3 16.8 C 0 km/h
2294 28-07-2009 02:59:31 16.6 C 8.33 g/m*3 16.6 C 0 km/h
2295 28-07-2009 03:11:32 16.3 C 8.46 g/m*3 16.3 C 0 km/h
2296 28-07-2009 03:23:32 15.8 C 8.48 g/m*3 15.8 C 0 km/h
2297 28-07-2009 03:35:32 15.5 C 8.72 g/m*3 15.5 C 0 km/h
2298 28-07-2009 03:47:32 15.4 C 8.8 g/m*3 15.4 C 0 km/h
2299 28-07-2009 03:59:32 15.2 C 8.83 g/m*3 15.2 C 0 km/h
2300 28-07-2009 04:11:32 14.8 C 8.74 g/m*3 14.8 C 0 km/h
Sensor: Nr:Datum:Temp:Abs-Feuchte:Windchill:Wind:
Aussen-T/F 2301 28-07-2009 04:23:32 14.5 C 8.71 g/m*3 14.5 C 0 km/h
2302 28-07-2009 04:35:32 14 C 8.56 g/m*3 14 C 0 km/h
2303 28-07-2009 04:47:32 14 C 8.56 g/m*3 14 C 0 km/h
2304 28-07-2009 04:59:32 13.8 C 8.7 g/m*3 13.8 C 0 km/h
2305 28-07-2009 05:11:32 13.6 C 8.71 g/m*3 13.6 C 0 km/h
2306 28-07-2009 05:23:32 13.4 C 8.72 g/m*3 13.4 C 0 km/h
2307 28-07-2009 05:35:32 13.2 C 8.73 g/m*3 13.2 C 0 km/h
2308 28-07-2009 05:47:32 13.1 C 8.79 g/m*3 13.1 C 0 km/h
2309 28-07-2009 05:59:32 12.9 C 8.9 g/m*3 12.9 C 0 km/h
2310 28-07-2009 06:11:32 12.8 C 9.07 g/m*3 12.8 C 0 km/h
2311 28-07-2009 06:23:32 12.8 C 9.07 g/m*3 12.8 C 0 km/h
2312 28-07-2009 06:35:32 12.8 C 9.18 g/m*3 12.8 C 0 km/h
2313 28-07-2009 06:47:32 12.8 C 9.18 g/m*3 12.8 C 0 km/h
2314 28-07-2009 06:59:32 13 C 9.19 g/m*3 13 C 0 km/h
2315 28-07-2009 07:11:30 13.1 C 9.24 g/m*3 13.1 C 0 km/h
2316 28-07-2009 07:23:30 13.3 C 9.36 g/m*3 13.3 C 0 km/h
2317 28-07-2009 07:35:30 13.6 C 9.53 g/m*3 13.6 C 0 km/h
2318 28-07-2009 07:47:29 14 C 9.41 g/m*3 14 C 0 km/h
2319 28-07-2009 07:59:29 14.3 C 9.46 g/m*3 14.3 C 0 km/h
2320 28-07-2009 08:11:30 14.5 C 9.45 g/m*3 14.5 C 0 km/h
2321 28-07-2009 08:23:29 14.7 C 9.32 g/m*3 14.7 C 0 km/h
2322 28-07-2009 08:35:29 15 C 8.85 g/m*3 15 C 0 km/h
2323 28-07-2009 08:47:29 15.4 C 8.93 g/m*3 15.4 C 0 km/h
2324 28-07-2009 08:59:29 15.5 C 8.86 g/m*3 15.5 C 0 km/h
2325 28-07-2009 09:11:29 15.9 C 8.8 g/m*3 15.9 C 0 km/h
Sensor: Nr:Datum:Temp:Abs-Feuchte:Windchill:Wind:
Aussen-T/F 2326 28-07-2009 09:23:29 16.3 C 8.6 g/m*3 16.3 C 0 km/h
2327 28-07-2009 09:35:28 16.6 C 8.62 g/m*3 16.6 C 0 km/h
2328 28-07-2009 09:47:29 17.2 C 8.35 g/m*3 17.2 C 0 km/h
2329 28-07-2009 09:59:29 17.6 C 8.55 g/m*3 17.6 C 0 km/h
2330 28-07-2009 10:11:28 17.8 C 8.35 g/m*3 17.8 C 0 km/h
2331 28-07-2009 10:23:28 18.2 C 7.93 g/m*3 18.2 C 0 km/h
2332 28-07-2009 10:35:27 18.7 C 7.84 g/m*3 18.7 C 0 km/h
2333 28-07-2009 10:47:28 19.1 C 7.54 g/m*3 19.1 C 0 km/h
2334 28-07-2009 10:59:28 20 C 7.6 g/m*3 20 C 0 km/h
2335 28-07-2009 11:11:27 20.1 C 7.82 g/m*3 20.1 C 0 km/h
2336 28-07-2009 11:23:27 20.1 C 7.82 g/m*3 20.1 C 0 km/h
2337 28-07-2009 11:35:28 20.1 C 7.47 g/m*3 20.1 C 0 km/h
2338 28-07-2009 11:47:27 20.3 C 7.56 g/m*3 20.3 C 0 km/h
2339 28-07-2009 11:59:27 20.5 C 7.3 g/m*3 20.5 C 0 km/h
2340 28-07-2009 12:11:27 20.8 C 7.24 g/m*3 20.8 C 0 km/h
2341 28-07-2009 12:23:27 21.7 C 7.06 g/m*3 21.7 C 0 km/h
2342 28-07-2009 12:35:27 22.5 C 6.59 g/m*3 22.5 C 0 km/h
2343 28-07-2009 12:47:26 23.6 C 6.81 g/m*3 23.6 C 0 km/h
2344 28-07-2009 12:59:26 23.5 C 6.56 g/m*3 23.5 C 0 km/h
2345 28-07-2009 13:11:27 24.6 C 6.75 g/m*3 24.6 C 0 km/h
2346 28-07-2009 13:23:26 25.1 C 6.02 g/m*3 25.1 C 0 km/h
2347 28-07-2009 13:35:26 25.5 C 6.16 g/m*3 25.5 C 0 km/h
2348 28-07-2009 13:47:27 26 C 6.09 g/m*3 26 C 0 km/h
2349 28-07-2009 13:59:27 26.7 C 6.33 g/m*3 26.7 C 0 km/h
2350 28-07-2009 14:11:26 25.1 C 6.02 g/m*3 25.1 C 0 km/h
Sensor: Nr:Datum:Temp:Abs-Feuchte:Windchill:Wind:
Aussen-T/F 2351 28-07-2009 14:23:26 25.6 C 6.19 g/m*3 25.6 C 0 km/h
2352 28-07-2009 14:35:25 25.9 C 6.29 g/m*3 25.9 C 0 km/h
2353 28-07-2009 14:47:26 26.2 C 6.15 g/m*3 26.2 C 0 km/h
2354 28-07-2009 14:59:26 25.8 C 6.26 g/m*3 25.8 C 0 km/h
2355 28-07-2009 15:11:25 26.8 C 5.85 g/m*3 26.8 C 0 km/h
2356 28-07-2009 15:23:25 26.3 C 5.69 g/m*3 26.3 C 0 km/h
2357 28-07-2009 15:35:25 26.8 C 5.6 g/m*3 26.8 C 0 km/h
2358 28-07-2009 15:47:25 27.6 C 5.85 g/m*3 27.6 C 0 km/h
2359 28-07-2009 15:59:25 28.2 C 5.77 g/m*3 28.2 C 0 km/h
2360 28-07-2009 16:11:24 27.7 C 5.62 g/m*3 27.7 C 0 km/h
2361 28-07-2009 16:23:25 28.6 C 5.62 g/m*3 28.6 C 0 km/h
2362 28-07-2009 16:35:25 28.7 C 5.65 g/m*3 28.7 C 0 km/h
2363 28-07-2009 16:47:24 28.3 C 5.53 g/m*3 28.3 C 0 km/h
2364 28-07-2009 16:59:24 26.8 C 5.35 g/m*3 26.8 C 0 km/h
2365 28-07-2009 17:11:25 26.6 C 5.54 g/m*3 26.6 C 0 km/h
2366 28-07-2009 17:23:24 28 C 5.71 g/m*3 28 C 0 km/h
2367 28-07-2009 17:35:27 29 C 5.74 g/m*3 29 C 0 km/h
2368 28-07-2009 17:47:24 28.4 C 5.56 g/m*3 28.4 C 0 km/h
2369 28-07-2009 17:59:24 29.1 C 5.78 g/m*3 29.1 C 0 km/h
2370 28-07-2009 18:11:24 28.5 C 5.59 g/m*3 28.5 C 0 km/h
2371 28-07-2009 18:23:23 28.1 C 5.47 g/m*3 28.1 C 0 km/h
2372 28-07-2009 18:35:24 26.6 C 5.54 g/m*3 26.6 C 0 km/h
2373 28-07-2009 18:47:23 26.8 C 6.62 g/m*3 26.8 C 0 km/h
2374 28-07-2009 18:59:23 28.2 C 5.5 g/m*3 28.2 C 0 km/h
2375 28-07-2009 19:11:23 29.3 C 5.84 g/m*3 29.3 C 0 km/h
Sensor: Nr:Datum:Temp:Abs-Feuchte:Windchill:Wind:
Aussen-T/F 2376 28-07-2009 19:23:23 28.5 C 6.15 g/m*3 28.5 C 0 km/h
2377 28-07-2009 19:35:23 27.9 C 6.22 g/m*3 27.9 C 0 km/h
2378 28-07-2009 19:47:22 28.1 C 6.56 g/m*3 28.1 C 0 km/h
2379 28-07-2009 19:59:22 28.1 C 6.29 g/m*3 28.1 C 0 km/h
2380 28-07-2009 20:11:22 27.6 C 6.65 g/m*3 27.6 C 0 km/h
2381 28-07-2009 20:23:23 26.7 C 6.83 g/m*3 26.7 C 0 km/h
2382 28-07-2009 20:35:22 25.5 C 6.63 g/m*3 25.5 C 0 km/h
2383 28-07-2009 20:47:22 24 C 6.74 g/m*3 24 C 0 km/h
2384 28-07-2009 20:59:22 22.6 C 7.03 g/m*3 22.6 C 0 km/h
2385 28-07-2009 21:11:22 22.1 C 6.83 g/m*3 22.1 C 0 km/h
2386 28-07-2009 21:23:22 21.8 C 7.29 g/m*3 21.8 C 0 km/h
2387 28-07-2009 21:35:21 21.4 C 6.75 g/m*3 21.4 C 0 km/h
2388 28-07-2009 21:47:22 21.1 C 7 g/m*3 21.1 C 0 km/h
2389 28-07-2009 21:59:22 20.4 C 7.25 g/m*3 20.4 C 0 km/h
2390 28-07-2009 22:11:21 19.9 C 7.04 g/m*3 19.9 C 0 km/h
2391 28-07-2009 22:23:21 19.7 C 7.13 g/m*3 19.7 C 0 km/h
2392 28-07-2009 22:35:21 19.3 C 7.13 g/m*3 19.3 C 0 km/h
2393 28-07-2009 22:48:21 19.1 C 7.38 g/m*3 19.1 C 0 km/h
2394 28-07-2009 23:00:21 18.7 C 7.36 g/m*3 18.7 C 0 km/h
2395 28-07-2009 23:12:21 18.4 C 7.39 g/m*3 18.4 C 0 km/h
2396 28-07-2009 23:24:21 18.2 C 7.31 g/m*3 18.2 C 0 km/h
2397 28-07-2009 23:36:21 17.8 C 7.44 g/m*3 17.8 C 0 km/h
2398 28-07-2009 23:48:21 17.6 C 7.35 g/m*3 17.6 C 0 km/h
2399 29-07-2009 00:00:21 17.5 C 7.45 g/m*3 17.5 C 0 km/h
2400 29-07-2009 00:12:21 17.2 C 7.47 g/m*3 17.2 C 0 km/h
Sensor: Nr:Datum:Temp:Abs-Feuchte:Windchill:Wind:
Aussen-T/F 2401 29-07-2009 00:24:21 17.1 C 7.71 g/m*3 17.1 C 0 km/h
2402 29-07-2009 00:36:21 16.9 C 7.77 g/m*3 16.9 C 0 km/h
2403 29-07-2009 00:48:21 16.6 C 7.91 g/m*3 16.6 C 0 km/h
2404 29-07-2009 01:00:21 16.4 C 7.96 g/m*3 16.4 C 0 km/h
2405 29-07-2009 01:12:22 16.1 C 8.09 g/m*3 16.1 C 0 km/h
2406 29-07-2009 01:24:22 16 C 8.17 g/m*3 16 C 0 km/h
2407 29-07-2009 01:36:22 15.8 C 8.35 g/m*3 15.8 C 0 km/h
2408 29-07-2009 01:48:22 15.5 C 8.2 g/m*3 15.5 C 0 km/h
2409 29-07-2009 02:00:22 15.3 C 8.36 g/m*3 15.3 C 0 km/h
2410 29-07-2009 02:12:22 15.1 C 8.26 g/m*3 15.1 C 0 km/h
2411 29-07-2009 02:24:22 15 C 8.46 g/m*3 15 C 0 km/h
2412 29-07-2009 02:36:22 15 C 8.59 g/m*3 15 C 0 km/h
2413 29-07-2009 02:48:22 14.7 C 8.56 g/m*3 14.7 C 0 km/h
2414 29-07-2009 03:00:22 14.7 C 8.56 g/m*3 14.7 C 0 km/h
2415 29-07-2009 03:12:22 14.6 C 8.63 g/m*3 14.6 C 0 km/h
2416 29-07-2009 03:24:22 14.3 C 8.6 g/m*3 14.3 C 0 km/h
2417 29-07-2009 03:36:22 14.1 C 8.5 g/m*3 14.1 C 0 km/h
2418 29-07-2009 03:48:22 13.9 C 8.51 g/m*3 13.9 C 0 km/h
2419 29-07-2009 04:00:22 14 C 8.56 g/m*3 14 C 0 km/h
2420 29-07-2009 04:12:22 13.7 C 8.64 g/m*3 13.7 C 0 km/h
2421 29-07-2009 04:24:22 13.6 C 8.59 g/m*3 13.6 C 0 km/h
2422 29-07-2009 04:36:22 13.5 C 8.54 g/m*3 13.5 C 0 km/h
2423 29-07-2009 04:48:22 13.2 C 8.61 g/m*3 13.2 C 0 km/h
2424 29-07-2009 05:00:22 13 C 8.51 g/m*3 13 C 0 km/h
2425 29-07-2009 05:12:23 12.9 C 8.57 g/m*3 12.9 C 0 km/h
Sensor: Nr:Datum:Temp:Abs-Feuchte:Windchill:Wind:
Aussen-T/F 2426 29-07-2009 05:24:23 12.9 C 8.57 g/m*3 12.9 C 0 km/h
2427 29-07-2009 05:36:23 12.8 C 8.51 g/m*3 12.8 C 0 km/h
2428 29-07-2009 05:48:23 12.6 C 8.41 g/m*3 12.6 C 0 km/h
2429 29-07-2009 06:00:23 12.6 C 8.41 g/m*3 12.6 C 0 km/h
2430 29-07-2009 06:12:23 12.5 C 8.47 g/m*3 12.5 C 0 km/h
2431 29-07-2009 06:24:23 12.5 C 8.47 g/m*3 12.5 C 0 km/h
2432 29-07-2009 06:36:23 12.6 C 8.63 g/m*3 12.6 C 0 km/h
2433 29-07-2009 06:48:23 12.6 C 8.63 g/m*3 12.6 C 0 km/h
2434 29-07-2009 07:00:21 12.7 C 8.68 g/m*3 12.7 C 0 km/h
2435 29-07-2009 07:12:21 12.8 C 8.74 g/m*3 12.8 C 0 km/h
2436 29-07-2009 07:24:21 12.7 C 8.79 g/m*3 12.7 C 0 km/h
2437 29-07-2009 07:36:21 12.5 C 8.8 g/m*3 12.5 C 0 km/h
2438 29-07-2009 07:48:21 12.7 C 8.91 g/m*3 12.7 C 0 km/h
2439 29-07-2009 08:00:21 13.1 C 9.01 g/m*3 13.1 C 0 km/h
2440 29-07-2009 08:12:21 13.2 C 8.96 g/m*3 13.2 C 0 km/h
2441 29-07-2009 08:24:20 13.4 C 9.07 g/m*3 13.4 C 0 km/h
2442 29-07-2009 08:36:21 13.8 C 9.06 g/m*3 13.8 C 0 km/h
2443 29-07-2009 08:48:20 14.2 C 9.04 g/m*3 14.2 C 0 km/h
2444 29-07-2009 09:00:20 14.5 C 9.2 g/m*3 14.5 C 0 km/h
2445 29-07-2009 09:12:20 15.4 C 9.07 g/m*3 15.4 C 0 km/h
2446 29-07-2009 09:24:20 16 C 9.13 g/m*3 16 C 0 km/h
2447 29-07-2009 09:36:20 16.8 C 9.44 g/m*3 16.8 C 0 km/h
2448 29-07-2009 09:48:20 17.4 C 9.19 g/m*3 17.4 C 0 km/h
2449 29-07-2009 10:00:20 18.4 C 9.44 g/m*3 18.4 C 0 km/h
2450 29-07-2009 10:12:20 19.2 C 9.4 g/m*3 19.2 C 0 km/h
Sensor: Nr:Datum:Temp:Abs-Feuchte:Windchill:Wind:
Aussen-T/F 2451 29-07-2009 10:24:20 20.1 C 9.39 g/m*3 20.1 C 0 km/h
2452 29-07-2009 10:36:19 20.8 C 9.6 g/m*3 20.8 C 0 km/h
2453 29-07-2009 10:48:20 21.6 C 8.72 g/m*3 21.6 C 0 km/h
2454 29-07-2009 11:00:19 22.5 C 8.59 g/m*3 22.5 C 0 km/h
2455 29-07-2009 11:12:19 22.9 C 8.58 g/m*3 22.9 C 0 km/h
2456 29-07-2009 11:24:19 24.1 C 7.88 g/m*3 24.1 C 0 km/h
2457 29-07-2009 11:36:19 24.8 C 7.74 g/m*3 24.8 C 0 km/h
2458 29-07-2009 11:48:19 24.9 C 8.24 g/m*3 24.9 C 0 km/h
2459 29-07-2009 12:00:19 25.7 C 7.9 g/m*3 25.7 C 0 km/h
2460 29-07-2009 12:12:19 25.9 C 7.75 g/m*3 25.9 C 0 km/h
2461 29-07-2009 12:24:18 26.7 C 7.85 g/m*3 26.7 C 0 km/h
2462 29-07-2009 12:36:19 27.2 C 7.81 g/m*3 27.2 C 0 km/h
2463 29-07-2009 12:48:18 28.1 C 7.93 g/m*3 28.1 C 0 km/h
2464 29-07-2009 13:00:18 28.2 C 6.87 g/m*3 28.2 C 0 km/h
2465 29-07-2009 13:12:18 28.5 C 6.99 g/m*3 28.5 C 0 km/h
2466 29-07-2009 13:24:18 30 C 6.67 g/m*3 30 C 0 km/h
2467 29-07-2009 13:36:18 30.4 C 6.51 g/m*3 30.4 C 0 km/h
2468 29-07-2009 13:48:17 29.8 C 6.6 g/m*3 29.8 C 0 km/h
2469 29-07-2009 14:00:18 29.8 C 6.9 g/m*3 29.8 C 0 km/h
2470 29-07-2009 14:12:18 30 C 6.67 g/m*3 30 C 0 km/h
2471 29-07-2009 14:24:17 30 C 7.58 g/m*3 30 C 0 km/h
2472 29-07-2009 14:36:17 30.3 C 7.7 g/m*3 30.3 C 0 km/h
2473 29-07-2009 14:48:18 30.2 C 6.74 g/m*3 30.2 C 0 km/h
2474 29-07-2009 15:00:17 30.3 C 7.4 g/m*3 30.3 C 0 km/h
2475 29-07-2009 15:12:17 30.6 C 7.2 g/m*3 30.6 C 0 km/h
Sensor: Nr:Datum:Temp:Abs-Feuchte:Windchill:Wind:
Aussen-T/F 2476 29-07-2009 15:24:17 30.8 C 6.97 g/m*3 30.8 C 0 km/h
2477 29-07-2009 15:36:16 30.7 C 6.61 g/m*3 30.7 C 0 km/h
2478 29-07-2009 15:48:17 31 C 7.04 g/m*3 31 C 0 km/h
2479 29-07-2009 16:00:16 31.3 C 6.83 g/m*3 31.3 C 0 km/h
2480 29-07-2009 16:12:16 31.4 C 6.87 g/m*3 31.4 C 0 km/h
2481 29-07-2009 16:24:16 31.4 C 6.87 g/m*3 31.4 C 0 km/h
2482 29-07-2009 16:36:16 31.6 C 6.94 g/m*3 31.6 C 0 km/h
2483 29-07-2009 16:48:16 31.3 C 7.15 g/m*3 31.3 C 0 km/h
2484 29-07-2009 17:00:15 31.7 C 7.31 g/m*3 31.7 C 0 km/h
2485 29-07-2009 17:12:15 31.7 C 7.31 g/m*3 31.7 C 0 km/h
2486 29-07-2009 17:24:16 31.3 C 7.81 g/m*3 31.3 C 0 km/h
2487 29-07-2009 17:36:16 31.8 C 6.68 g/m*3 31.8 C 0 km/h
2488 29-07-2009 17:48:15 32.2 C 7.17 g/m*3 32.2 C 0 km/h
2489 29-07-2009 18:00:16 31.5 C 7.56 g/m*3 31.5 C 0 km/h
2490 29-07-2009 18:12:16 31.3 C 6.83 g/m*3 31.3 C 0 km/h
2491 29-07-2009 18:24:15 31.5 C 6.9 g/m*3 31.5 C 0 km/h
2492 29-07-2009 18:36:15 31.1 C 8.04 g/m*3 31.1 C 0 km/h
2493 29-07-2009 18:48:15 30.7 C 6.61 g/m*3 30.7 C 0 km/h
2494 29-07-2009 19:00:15 30 C 7.88 g/m*3 30 C 0 km/h
2495 29-07-2009 19:12:15 29.5 C 8.56 g/m*3 29.5 C 0 km/h
2496 29-07-2009 19:24:14 29.4 C 8.81 g/m*3 29.4 C 0 km/h
2497 29-07-2009 19:36:14 28.6 C 8.71 g/m*3 28.6 C 0 km/h
2498 29-07-2009 19:48:14 27.6 C 9.31 g/m*3 27.6 C 0 km/h
2499 29-07-2009 20:00:14 26.9 C 9.47 g/m*3 26.9 C 0 km/h
2500 29-07-2009 20:12:14 26.2 C 9.11 g/m*3 26.2 C 0 km/h
Sensor: Nr:Datum:Temp:Abs-Feuchte:Windchill:Wind:
Aussen-T/F 2501 29-07-2009 20:24:14 25.7 C 9.1 g/m*3 25.7 C 0 km/h
2502 29-07-2009 20:36:14 25.2 C 8.85 g/m*3 25.2 C 0 km/h
2503 29-07-2009 20:48:14 24.6 C 8.78 g/m*3 24.6 C 0 km/h
2504 29-07-2009 21:00:13 24.5 C 8.95 g/m*3 24.5 C 0 km/h
2505 29-07-2009 21:12:13 24.1 C 8.53 g/m*3 24.1 C 0 km/h
2506 29-07-2009 21:24:14 23.7 C 8.98 g/m*3 23.7 C 0 km/h
2507 29-07-2009 21:36:13 23.4 C 8.83 g/m*3 23.4 C 0 km/h
2508 29-07-2009 21:48:13 23.4 C 8.83 g/m*3 23.4 C 0 km/h
2509 29-07-2009 22:00:13 23.3 C 8.99 g/m*3 23.3 C 0 km/h
2510 29-07-2009 22:12:14 23.2 C 8.94 g/m*3 23.2 C 0 km/h
2511 29-07-2009 22:24:12 23 C 8.84 g/m*3 23 C 0 km/h
2512 29-07-2009 22:37:13 23 C 8.84 g/m*3 23 C 0 km/h
2513 29-07-2009 22:49:13 22.7 C 9.09 g/m*3 22.7 C 0 km/h
2514 29-07-2009 23:01:13 22.7 C 8.69 g/m*3 22.7 C 0 km/h
2515 29-07-2009 23:13:13 22.4 C 8.94 g/m*3 22.4 C 0 km/h
2516 29-07-2009 23:25:13 22.3 C 9.08 g/m*3 22.3 C 0 km/h
2517 29-07-2009 23:37:13 22.4 C 9.14 g/m*3 22.4 C 0 km/h
2518 29-07-2009 23:49:13 22.3 C 8.89 g/m*3 22.3 C 0 km/h
2519 30-07-2009 00:01:13 22.6 C 9.04 g/m*3 22.6 C 0 km/h
2520 30-07-2009 00:13:13 22.2 C 9.23 g/m*3 22.2 C 0 km/h
2521 30-07-2009 00:25:13 22.3 C 8.89 g/m*3 22.3 C 0 km/h
2522 30-07-2009 00:37:13 22.3 C 9.08 g/m*3 22.3 C 0 km/h
2523 30-07-2009 00:49:13 22.4 C 8.94 g/m*3 22.4 C 0 km/h
2524 30-07-2009 01:01:13 22.5 C 8.79 g/m*3 22.5 C 0 km/h
2525 30-07-2009 01:13:13 22.5 C 8.99 g/m*3 22.5 C 0 km/h
Sensor: Nr:Datum:Temp:Abs-Feuchte:Windchill:Wind:
Aussen-T/F 2526 30-07-2009 01:25:13 22.3 C 9.48 g/m*3 22.3 C 0 km/h
2527 30-07-2009 01:37:13 22 C 9.7 g/m*3 22 C 0 km/h
2528 30-07-2009 01:49:13 21.7 C 9.73 g/m*3 21.7 C 0 km/h
2529 30-07-2009 02:01:13 21.5 C 10.56 g/m*3 21.5 C 0 km/h
2530 30-07-2009 02:13:14 21.6 C 10.24 g/m*3 21.6 C 0 km/h
2531 30-07-2009 02:25:14 21.6 C 11 g/m*3 21.6 C 0 km/h
2532 30-07-2009 02:37:14 20.7 C 11.52 g/m*3 20.7 C 0 km/h
2533 30-07-2009 02:49:14 19.9 C 12.54 g/m*3 19.9 C 0 km/h
2534 30-07-2009 03:01:14 19.7 C 12.91 g/m*3 19.7 C 0 km/h
2535 30-07-2009 03:13:14 18.9 C 13.12 g/m*3 18.9 C 0 km/h
2536 30-07-2009 03:25:14 18.7 C 13.29 g/m*3 18.7 C 0 km/h
2537 30-07-2009 03:37:14 18.4 C 13.37 g/m*3 18.4 C 0 km/h
2538 30-07-2009 03:49:14 18.3 C 13.6 g/m*3 18.3 C 0 km/h
2539 30-07-2009 04:01:14 18.2 C 13.52 g/m*3 18.2 C 0 km/h
2540 30-07-2009 04:13:14 18.2 C 13.68 g/m*3 18.2 C 0 km/h
2541 30-07-2009 04:25:14 18.1 C 13.6 g/m*3 18.1 C 0 km/h
2542 30-07-2009 04:37:14 18 C 13.52 g/m*3 18 C 0 km/h
2543 30-07-2009 04:49:14 18 C 13.36 g/m*3 18 C 0 km/h
2544 30-07-2009 05:01:14 18 C 13.36 g/m*3 18 C 0 km/h
2545 30-07-2009 05:13:14 17.9 C 13.28 g/m*3 17.9 C 0 km/h
2546 30-07-2009 05:25:14 17.7 C 13.13 g/m*3 17.7 C 0 km/h
2547 30-07-2009 05:37:14 17.7 C 13.28 g/m*3 17.7 C 0 km/h
2548 30-07-2009 05:49:14 17.4 C 13.04 g/m*3 17.4 C 0 km/h
2549 30-07-2009 06:01:15 17.5 C 13.12 g/m*3 17.5 C 0 km/h
2550 30-07-2009 06:13:15 17.7 C 13.43 g/m*3 17.7 C 0 km/h
Sensor: Nr:Datum:Temp:Abs-Feuchte:Windchill:Wind:
Aussen-T/F 2551 30-07-2009 06:25:15 17.8 C 13.36 g/m*3 17.8 C 0 km/h
2552 30-07-2009 06:37:15 17.9 C 13.28 g/m*3 17.9 C 0 km/h
2553 30-07-2009 06:49:15 17.8 C 12.45 g/m*3 17.8 C 0 km/h
2554 30-07-2009 07:01:13 17.8 C 11.84 g/m*3 17.8 C 0 km/h
2555 30-07-2009 07:13:13 17.9 C 11.45 g/m*3 17.9 C 0 km/h
2556 30-07-2009 07:25:13 18.1 C 10.82 g/m*3 18.1 C 0 km/h
2557 30-07-2009 07:37:12 18.4 C 10.85 g/m*3 18.4 C 0 km/h
2558 30-07-2009 07:49:13 18.4 C 10.38 g/m*3 18.4 C 0 km/h
2559 30-07-2009 08:01:12 18.1 C 9.89 g/m*3 18.1 C 0 km/h
2560 30-07-2009 08:13:12 18.2 C 10.26 g/m*3 18.2 C 0 km/h
2561 30-07-2009 08:25:12 18.2 C 10.1 g/m*3 18.2 C 0 km/h
2562 30-07-2009 08:37:12 18.2 C 10.26 g/m*3 18.2 C 0 km/h
2563 30-07-2009 08:49:12 18.5 C 10.28 g/m*3 18.5 C 0 km/h
2564 30-07-2009 09:01:12 19.1 C 10 g/m*3 19.1 C 0 km/h
2565 30-07-2009 09:13:12 19.1 C 9.67 g/m*3 19.1 C 0 km/h
2566 30-07-2009 09:25:11 19.2 C 9.73 g/m*3 19.2 C 0 km/h
2567 30-07-2009 09:37:12 19.4 C 9.01 g/m*3 19.4 C 0 km/h
2568 30-07-2009 09:49:11 19.6 C 8.95 g/m*3 19.6 C 0 km/h
2569 30-07-2009 10:01:11 19.6 C 8.61 g/m*3 19.6 C 0 km/h
2570 30-07-2009 10:13:11 19.6 C 8.1 g/m*3 19.6 C 0 km/h
2571 30-07-2009 10:25:11 19.7 C 8.49 g/m*3 19.7 C 0 km/h
2572 30-07-2009 10:37:11 20 C 7.95 g/m*3 20 C 0 km/h
2573 30-07-2009 10:49:11 20 C 7.6 g/m*3 20 C 0 km/h
2574 30-07-2009 11:01:11 20.4 C 7.43 g/m*3 20.4 C 0 km/h
2575 30-07-2009 11:13:11 20.4 C 7.08 g/m*3 20.4 C 0 km/h
Sensor: Nr:Datum:Temp:Abs-Feuchte:Windchill:Wind:
Aussen-T/F 2576 30-07-2009 11:25:11 21 C 6.96 g/m*3 21 C 0 km/h
2577 30-07-2009 11:37:10 21 C 6.78 g/m*3 21 C 0 km/h
2578 30-07-2009 11:49:11 20.6 C 6.62 g/m*3 20.6 C 0 km/h
2579 30-07-2009 12:01:10 20.7 C 6.66 g/m*3 20.7 C 0 km/h
2580 30-07-2009 12:13:10 21.3 C 6.15 g/m*3 21.3 C 0 km/h
2581 30-07-2009 12:25:10 21.3 C 6.15 g/m*3 21.3 C 0 km/h
2582 30-07-2009 12:37:09 21.5 C 6.03 g/m*3 21.5 C 0 km/h
2583 30-07-2009 12:49:10 21.5 C 6.22 g/m*3 21.5 C 0 km/h
2584 30-07-2009 13:01:09 21.8 C 6.14 g/m*3 21.8 C 0 km/h
2585 30-07-2009 13:13:09 22.3 C 6.12 g/m*3 22.3 C 0 km/h
2586 30-07-2009 13:25:09 22.4 C 5.96 g/m*3 22.4 C 0 km/h
2587 30-07-2009 13:37:10 22.4 C 6.16 g/m*3 22.4 C 0 km/h
2588 30-07-2009 13:49:10 22.5 C 5.99 g/m*3 22.5 C 0 km/h
2589 30-07-2009 14:01:09 23.3 C 5.85 g/m*3 23.3 C 0 km/h
2590 30-07-2009 14:13:09 23.1 C 5.79 g/m*3 23.1 C 0 km/h
2591 30-07-2009 14:25:09 24 C 6.09 g/m*3 24 C 0 km/h
2592 30-07-2009 14:37:08 23.5 C 5.92 g/m*3 23.5 C 0 km/h
2593 30-07-2009 14:49:09 24.1 C 5.91 g/m*3 24.1 C 0 km/h
2594 30-07-2009 15:01:08 24.7 C 4.98 g/m*3 24.7 C 0 km/h
2595 30-07-2009 15:13:08 24 C 5.44 g/m*3 24 C 0 km/h
2596 30-07-2009 15:25:08 24.5 C 5.15 g/m*3 24.5 C 0 km/h
2597 30-07-2009 15:37:09 25.7 C 5.03 g/m*3 25.7 C 0 km/h
2598 30-07-2009 15:49:08 24.5 C 5.6 g/m*3 24.5 C 0 km/h
2599 30-07-2009 16:01:08 24.4 C 5.56 g/m*3 24.4 C 0 km/h
2600 30-07-2009 16:13:08 23.9 C 5.84 g/m*3 23.9 C 0 km/h
Sensor: Nr:Datum:Temp:Abs-Feuchte:Windchill:Wind:
Aussen-T/F 2601 30-07-2009 16:25:08 23.7 C 5.78 g/m*3 23.7 C 0 km/h
2602 30-07-2009 16:37:08 24.4 C 5.56 g/m*3 24.4 C 0 km/h
2603 30-07-2009 16:49:07 25.3 C 5.38 g/m*3 25.3 C 0 km/h
2604 30-07-2009 17:01:08 24.5 C 5.15 g/m*3 24.5 C 0 km/h
2605 30-07-2009 17:13:08 24.9 C 5.72 g/m*3 24.9 C 0 km/h
2606 30-07-2009 17:25:07 25.2 C 5.12 g/m*3 25.2 C 0 km/h
2607 30-07-2009 17:37:07 25.9 C 5.81 g/m*3 25.9 C 0 km/h
2608 30-07-2009 17:49:06 24.9 C 5.49 g/m*3 24.9 C 0 km/h
2609 30-07-2009 18:01:07 25.6 C 5.24 g/m*3 25.6 C 0 km/h
2610 30-07-2009 18:13:07 25.6 C 5.24 g/m*3 25.6 C 0 km/h
2611 30-07-2009 18:25:06 24.5 C 5.15 g/m*3 24.5 C 0 km/h
2612 30-07-2009 18:37:06 24.3 C 5.53 g/m*3 24.3 C 0 km/h
2613 30-07-2009 18:49:06 24.6 C 5.4 g/m*3 24.6 C 0 km/h
2614 30-07-2009 19:01:06 25.9 C 5.08 g/m*3 25.9 C 0 km/h
2615 30-07-2009 19:13:06 25.3 C 4.68 g/m*3 25.3 C 0 km/h
2616 30-07-2009 19:25:06 24.6 C 4.5 g/m*3 24.6 C 0 km/h
2617 30-07-2009 19:37:06 24.4 C 5.12 g/m*3 24.4 C 0 km/h
2618 30-07-2009 19:49:06 23.9 C 5.19 g/m*3 23.9 C 0 km/h
2619 30-07-2009 20:01:05 23.5 C 5.29 g/m*3 23.5 C 0 km/h
2620 30-07-2009 20:13:05 22.7 C 5.46 g/m*3 22.7 C 0 km/h
2621 30-07-2009 20:25:06 22.5 C 5.79 g/m*3 22.5 C 0 km/h
2622 30-07-2009 20:37:05 22.1 C 5.86 g/m*3 22.1 C 0 km/h
2623 30-07-2009 20:49:05 21.9 C 5.98 g/m*3 21.9 C 0 km/h
2624 30-07-2009 21:01:05 21.5 C 6.03 g/m*3 21.5 C 0 km/h
2625 30-07-2009 21:13:05 21.2 C 5.93 g/m*3 21.2 C 0 km/h
Sensor: Nr:Datum:Temp:Abs-Feuchte:Windchill:Wind:
Aussen-T/F 2626 30-07-2009 21:25:05 21 C 6.23 g/m*3 21 C 0 km/h
2627 30-07-2009 21:37:05 20.4 C 6.55 g/m*3 20.4 C 0 km/h
2628 30-07-2009 21:49:04 19.9 C 6.53 g/m*3 19.9 C 0 km/h
2629 30-07-2009 22:02:06 19.7 C 6.62 g/m*3 19.7 C 0 km/h
2630 30-07-2009 22:14:06 19.7 C 6.79 g/m*3 19.7 C 0 km/h
2631 30-07-2009 22:26:06 19.6 C 6.92 g/m*3 19.6 C 0 km/h
2632 30-07-2009 22:38:07 19.1 C 6.88 g/m*3 19.1 C 0 km/h
2633 30-07-2009 22:50:07 19 C 6.84 g/m*3 19 C 0 km/h
2634 30-07-2009 23:02:07 18.9 C 6.8 g/m*3 18.9 C 0 km/h
2635 30-07-2009 23:14:07 18.7 C 6.88 g/m*3 18.7 C 0 km/h
2636 30-07-2009 23:26:07 18.7 C 6.88 g/m*3 18.7 C 0 km/h
2637 30-07-2009 23:38:07 18.7 C 7.04 g/m*3 18.7 C 0 km/h
2638 30-07-2009 23:50:07 18.5 C 7.12 g/m*3 18.5 C 0 km/h
2639 31-07-2009 00:02:07 18.1 C 7.11 g/m*3 18.1 C 0 km/h
2640 31-07-2009 00:14:07 17.7 C 7.09 g/m*3 17.7 C 0 km/h
2641 31-07-2009 00:26:07 17.6 C 7.2 g/m*3 17.6 C 0 km/h
2642 31-07-2009 00:38:07 17.2 C 7.03 g/m*3 17.2 C 0 km/h
2643 31-07-2009 00:50:07 17.1 C 7.13 g/m*3 17.1 C 0 km/h
2644 31-07-2009 01:02:07 16.5 C 7.58 g/m*3 16.5 C 0 km/h
2645 31-07-2009 01:14:07 16.3 C 7.63 g/m*3 16.3 C 0 km/h
2646 31-07-2009 01:26:07 16 C 7.36 g/m*3 16 C 0 km/h
2647 31-07-2009 01:38:07 15.8 C 7.54 g/m*3 15.8 C 0 km/h
2648 31-07-2009 01:50:07 15.6 C 7.45 g/m*3 15.6 C 0 km/h
2649 31-07-2009 02:02:07 15.4 C 7.23 g/m*3 15.4 C 0 km/h
2650 31-07-2009 02:14:07 15.3 C 7.31 g/m*3 15.3 C 0 km/h
Sensor: Nr:Datum:Temp:Abs-Feuchte:Windchill:Wind:
Aussen-T/F 2651 31-07-2009 02:26:08 15.1 C 7.35 g/m*3 15.1 C 0 km/h
2652 31-07-2009 02:38:08 14.8 C 7.73 g/m*3 14.8 C 0 km/h
2653 31-07-2009 02:50:08 14.5 C 7.84 g/m*3 14.5 C 0 km/h
2654 31-07-2009 03:02:08 14.4 C 7.79 g/m*3 14.4 C 0 km/h
2655 31-07-2009 03:14:08 14.1 C 7.52 g/m*3 14.1 C 0 km/h
2656 31-07-2009 03:26:08 14.1 C 7.4 g/m*3 14.1 C 0 km/h
2657 31-07-2009 03:38:08 14.1 C 7.28 g/m*3 14.1 C 0 km/h
2658 31-07-2009 03:50:08 14 C 7.48 g/m*3 14 C 0 km/h
2659 31-07-2009 04:02:08 13.7 C 7.93 g/m*3 13.7 C 0 km/h
2660 31-07-2009 04:14:08 13.7 C 7.82 g/m*3 13.7 C 0 km/h
2661 31-07-2009 04:26:08 13.6 C 7.65 g/m*3 13.6 C 0 km/h
2662 31-07-2009 04:38:08 13.5 C 7.6 g/m*3 13.5 C 0 km/h
2663 31-07-2009 04:50:08 13.5 C 7.72 g/m*3 13.5 C 0 km/h
2664 31-07-2009 05:02:08 13.5 C 7.72 g/m*3 13.5 C 0 km/h
2665 31-07-2009 05:14:08 13.5 C 7.72 g/m*3 13.5 C 0 km/h
2666 31-07-2009 05:26:08 13.4 C 7.79 g/m*3 13.4 C 0 km/h
2667 31-07-2009 05:38:08 13.2 C 7.81 g/m*3 13.2 C 0 km/h
2668 31-07-2009 05:50:05 13.1 C 7.87 g/m*3 13.1 C 0 km/h
2669 31-07-2009 06:02:06 13.1 C 7.87 g/m*3 13.1 C 0 km/h
2670 31-07-2009 06:14:05 13.1 C 7.76 g/m*3 13.1 C 0 km/h
2671 31-07-2009 06:26:05 13.2 C 7.81 g/m*3 13.2 C 0 km/h
2672 31-07-2009 06:38:05 13 C 7.83 g/m*3 13 C 0 km/h
2673 31-07-2009 06:50:05 13 C 7.83 g/m*3 13 C 0 km/h
2674 31-07-2009 07:02:05 13.1 C 7.87 g/m*3 13.1 C 0 km/h
2675 31-07-2009 07:14:05 13.3 C 8.09 g/m*3 13.3 C 0 km/h
Sensor: Nr:Datum:Temp:Abs-Feuchte:Windchill:Wind:
Aussen-T/F 2676 31-07-2009 07:26:05 13.6 C 8.24 g/m*3 13.6 C 0 km/h
2677 31-07-2009 07:38:05 13.7 C 8.17 g/m*3 13.7 C 0 km/h
2678 31-07-2009 07:50:05 14.1 C 8.13 g/m*3 14.1 C 0 km/h
2679 31-07-2009 08:02:04 14.3 C 8.11 g/m*3 14.3 C 0 km/h
2680 31-07-2009 08:14:04 14.4 C 7.91 g/m*3 14.4 C 0 km/h
2681 31-07-2009 08:26:04 14.8 C 7.73 g/m*3 14.8 C 0 km/h
2682 31-07-2009 08:38:05 15.4 C 7.75 g/m*3 15.4 C 0 km/h
2683 31-07-2009 08:50:04 16.1 C 7.68 g/m*3 16.1 C 0 km/h
2684 31-07-2009 09:02:04 16.7 C 7.96 g/m*3 16.7 C 0 km/h
2685 31-07-2009 09:14:04 17 C 7.81 g/m*3 17 C 0 km/h
2686 31-07-2009 09:26:04 17.6 C 7.95 g/m*3 17.6 C 0 km/h
2687 31-07-2009 09:38:04 18.2 C 7.62 g/m*3 18.2 C 0 km/h
2688 31-07-2009 09:50:03 18.4 C 7.24 g/m*3 18.4 C 0 km/h
2689 31-07-2009 10:02:04 18.9 C 7.29 g/m*3 18.9 C 0 km/h
2690 31-07-2009 10:14:03 19.5 C 6.88 g/m*3 19.5 C 0 km/h
2691 31-07-2009 10:26:03 19.9 C 6.7 g/m*3 19.9 C 0 km/h
2692 31-07-2009 10:38:03 20.6 C 6.98 g/m*3 20.6 C 0 km/h
2693 31-07-2009 10:50:03 21.1 C 6.63 g/m*3 21.1 C 0 km/h
2694 31-07-2009 11:02:03 22.1 C 6.83 g/m*3 22.1 C 0 km/h
2695 31-07-2009 11:14:03 22 C 6.21 g/m*3 22 C 0 km/h
2696 31-07-2009 11:26:03 22.3 C 6.32 g/m*3 22.3 C 0 km/h
2697 31-07-2009 11:38:02 22.5 C 6.39 g/m*3 22.5 C 0 km/h
2698 31-07-2009 11:50:02 22.7 C 6.47 g/m*3 22.7 C 0 km/h
2699 31-07-2009 12:02:02 22.8 C 6.3 g/m*3 22.8 C 0 km/h
2700 31-07-2009 12:14:02 22.2 C 6.09 g/m*3 22.2 C 0 km/h
Sensor: Nr:Datum:Temp:Abs-Feuchte:Windchill:Wind:
Aussen-T/F 2701 31-07-2009 12:26:02 23.2 C 6.24 g/m*3 23.2 C 0 km/h
2702 31-07-2009 12:38:02 23.7 C 5.99 g/m*3 23.7 C 0 km/h
2703 31-07-2009 12:50:02 23.2 C 5.82 g/m*3 23.2 C 0 km/h
2704 31-07-2009 13:02:01 24.6 C 6.08 g/m*3 24.6 C 0 km/h
2705 31-07-2009 13:14:02 25.1 C 5.79 g/m*3 25.1 C 0 km/h
2706 31-07-2009 13:26:02 25.5 C 5.92 g/m*3 25.5 C 0 km/h
2707 31-07-2009 13:38:01 26.4 C 5.73 g/m*3 26.4 C 0 km/h
2708 31-07-2009 13:50:01 26 C 6.09 g/m*3 26 C 0 km/h
2709 31-07-2009 14:02:01 25.6 C 5.71 g/m*3 25.6 C 0 km/h
2710 31-07-2009 14:14:01 24.8 C 5.92 g/m*3 24.8 C 0 km/h
2711 31-07-2009 14:26:01 24.8 C 5.69 g/m*3 24.8 C 0 km/h
2712 31-07-2009 14:38:01 25.9 C 6.05 g/m*3 25.9 C 0 km/h
2713 31-07-2009 14:50:01 26.9 C 5.89 g/m*3 26.9 C 0 km/h
2714 31-07-2009 15:02:01 27.2 C 5.72 g/m*3 27.2 C 0 km/h
2715 31-07-2009 15:14:00 26.4 C 5.48 g/m*3 26.4 C 0 km/h
2716 31-07-2009 15:26:00 27.2 C 5.72 g/m*3 27.2 C 0 km/h
2717 31-07-2009 15:38:01 27.8 C 5.65 g/m*3 27.8 C 0 km/h
2718 31-07-2009 15:50:00 28.6 C 5.62 g/m*3 28.6 C 0 km/h
2719 31-07-2009 16:02:00 29.1 C 5.78 g/m*3 29.1 C 0 km/h
2720 31-07-2009 16:13:59 28.7 C 5.65 g/m*3 28.7 C 0 km/h
2721 31-07-2009 16:25:59 28.4 C 5.56 g/m*3 28.4 C 0 km/h
2722 31-07-2009 16:38:00 29 C 5.74 g/m*3 29 C 0 km/h
2723 31-07-2009 16:50:59 28.4 C 5.56 g/m*3 28.4 C 0 km/h
2724 31-07-2009 17:01:59 27.3 C 5.23 g/m*3 27.3 C 0 km/h
2725 31-07-2009 17:14:59 27.1 C 5.18 g/m*3 27.1 C 0 km/h
Sensor: Nr:Datum:Temp:Abs-Feuchte:Windchill:Wind:
Aussen-T/F 2726 31-07-2009 17:26:59 28 C 5.44 g/m*3 28 C 0 km/h
2727 31-07-2009 17:38:59 27.6 C 5.59 g/m*3 27.6 C 0 km/h
2728 31-07-2009 17:50:58 26.5 C 6.51 g/m*3 26.5 C 0 km/h
2729 31-07-2009 18:02:59 25.9 C 7.26 g/m*3 25.9 C 0 km/h
2730 31-07-2009 18:14:59 26.4 C 7.47 g/m*3 26.4 C 0 km/h
2731 31-07-2009 18:26:59 27.2 C 6.51 g/m*3 27.2 C 0 km/h
2732 31-07-2009 18:38:58 28.9 C 5.71 g/m*3 28.9 C 0 km/h
2733 31-07-2009 18:50:59 29.8 C 6 g/m*3 29.8 C 0 km/h
2734 31-07-2009 19:02:58 29.5 C 5.9 g/m*3 29.5 C 0 km/h
2735 31-07-2009 19:14:58 28.7 C 5.93 g/m*3 28.7 C 0 km/h
2736 31-07-2009 19:26:58 27.6 C 6.65 g/m*3 27.6 C 0 km/h
2737 31-07-2009 19:38:58 26.5 C 6.26 g/m*3 26.5 C 0 km/h
2738 31-07-2009 19:50:58 25.8 C 6.74 g/m*3 25.8 C 0 km/h
2739 31-07-2009 20:02:57 25.2 C 6.98 g/m*3 25.2 C 0 km/h
2740 31-07-2009 20:14:57 24.5 C 6.94 g/m*3 24.5 C 0 km/h
2741 31-07-2009 20:26:57 24.3 C 6.86 g/m*3 24.3 C 0 km/h
2742 31-07-2009 20:38:58 23.8 C 7.53 g/m*3 23.8 C 0 km/h
2743 31-07-2009 20:50:57 23.3 C 7.32 g/m*3 23.3 C 0 km/h
2744 31-07-2009 21:02:58 22.7 C 7.48 g/m*3 22.7 C 0 km/h
2745 31-07-2009 21:14:57 21.7 C 7.25 g/m*3 21.7 C 0 km/h
2746 31-07-2009 21:26:57 20.9 C 7.29 g/m*3 20.9 C 0 km/h
2747 31-07-2009 21:38:57 20.4 C 7.08 g/m*3 20.4 C 0 km/h
2748 31-07-2009 21:50:57 19.9 C 7.04 g/m*3 19.9 C 0 km/h
2749 31-07-2009 22:02:56 19.7 C 6.96 g/m*3 19.7 C 0 km/h
2750 31-07-2009 22:14:56 19.4 C 7.01 g/m*3 19.4 C 0 km/h
Sensor: Nr:Datum:Temp:Abs-Feuchte:Windchill:Wind:
Aussen-T/F 2751 31-07-2009 22:26:56 19.3 C 6.97 g/m*3 19.3 C 0 km/h
2752 31-07-2009 22:39:02 19.2 C 6.93 g/m*3 19.2 C 0 km/h
2753 31-07-2009 22:51:02 19.3 C 6.8 g/m*3 19.3 C 0 km/h
2754 31-07-2009 23:03:02 19.3 C 6.63 g/m*3 19.3 C 0 km/h
2755 31-07-2009 23:15:02 19.3 C 6.63 g/m*3 19.3 C 0 km/h
2756 31-07-2009 23:27:02 19 C 6.68 g/m*3 19 C 0 km/h
2757 31-07-2009 23:39:02 18.9 C 6.64 g/m*3 18.9 C 0 km/h
2758 31-07-2009 23:51:02 18.6 C 6.68 g/m*3 18.6 C 0 km/h
2759 01-08-2009 00:03:02 18.3 C 6.57 g/m*3 18.3 C 0 km/h
2760 01-08-2009 00:15:02 17.8 C 6.83 g/m*3 17.8 C 0 km/h
2761 01-08-2009 00:27:02 17.5 C 6.86 g/m*3 17.5 C 0 km/h
2762 01-08-2009 00:39:02 17.2 C 6.74 g/m*3 17.2 C 0 km/h
2763 01-08-2009 00:51:02 17 C 6.66 g/m*3 17 C 0 km/h
2764 01-08-2009 01:03:02 16.7 C 6.68 g/m*3 16.7 C 0 km/h
2765 01-08-2009 01:15:02 16.5 C 6.88 g/m*3 16.5 C 0 km/h
2766 01-08-2009 01:27:02 16.2 C 6.62 g/m*3 16.2 C 0 km/h
2767 01-08-2009 01:39:02 16 C 6.81 g/m*3 16 C 0 km/h
2768 01-08-2009 01:51:02 15.8 C 6.87 g/m*3 15.8 C 0 km/h
2769 01-08-2009 02:03:03 15.5 C 6.74 g/m*3 15.5 C 0 km/h
2770 01-08-2009 02:15:03 15.3 C 6.92 g/m*3 15.3 C 0 km/h
2771 01-08-2009 02:27:03 15 C 6.92 g/m*3 15 C 0 km/h
2772 01-08-2009 02:39:03 14.9 C 7.14 g/m*3 14.9 C 0 km/h
2773 01-08-2009 02:51:03 14.7 C 7.3 g/m*3 14.7 C 0 km/h
2774 01-08-2009 03:03:03 14.5 C 7.21 g/m*3 14.5 C 0 km/h
2775 01-08-2009 03:15:03 14.3 C 7.37 g/m*3 14.3 C 0 km/h
Sensor: Nr:Datum:Temp:Abs-Feuchte:Windchill:Wind:
Aussen-T/F 2776 01-08-2009 03:27:03 14 C 7.36 g/m*3 14 C 0 km/h
2777 01-08-2009 03:39:03 13.9 C 7.67 g/m*3 13.9 C 0 km/h
2778 01-08-2009 03:51:03 13.8 C 7.51 g/m*3 13.8 C 0 km/h
2779 01-08-2009 04:03:03 13.7 C 7.46 g/m*3 13.7 C 0 km/h
2780 01-08-2009 04:15:03 13.5 C 7.6 g/m*3 13.5 C 0 km/h
2781 01-08-2009 04:27:03 13.5 C 7.72 g/m*3 13.5 C 0 km/h
2782 01-08-2009 04:39:03 13.7 C 8.05 g/m*3 13.7 C 0 km/h
2783 01-08-2009 04:51:03 13.7 C 8.05 g/m*3 13.7 C 0 km/h
2784 01-08-2009 05:03:03 13.5 C 7.95 g/m*3 13.5 C 0 km/h
2785 01-08-2009 05:15:03 13.6 C 8 g/m*3 13.6 C 0 km/h
2786 01-08-2009 05:27:03 13.5 C 7.95 g/m*3 13.5 C 0 km/h
2787 01-08-2009 05:39:03 13.6 C 8.12 g/m*3 13.6 C 0 km/h
2788 01-08-2009 05:51:04 13.6 C 8.12 g/m*3 13.6 C 0 km/h
2789 01-08-2009 06:03:04 13.6 C 8.12 g/m*3 13.6 C 0 km/h
2790 01-08-2009 06:15:04 13.8 C 8.22 g/m*3 13.8 C 0 km/h
2791 01-08-2009 06:27:04 13.9 C 8.27 g/m*3 13.9 C 0 km/h
2792 01-08-2009 06:39:04 13.9 C 8.27 g/m*3 13.9 C 0 km/h
2793 01-08-2009 06:51:04 14.1 C 8.25 g/m*3 14.1 C 0 km/h
2794 01-08-2009 07:03:04 14.2 C 8.3 g/m*3 14.2 C 0 km/h
2795 01-08-2009 07:15:04 14.1 C 8.37 g/m*3 14.1 C 0 km/h
2796 01-08-2009 07:27:04 14.3 C 8.48 g/m*3 14.3 C 0 km/h
2797 01-08-2009 07:39:04 14.5 C 8.58 g/m*3 14.5 C 0 km/h
2798 01-08-2009 07:51:04 14.7 C 8.56 g/m*3 14.7 C 0 km/h
2799 01-08-2009 08:03:04 14.5 C 8.46 g/m*3 14.5 C 0 km/h
2800 01-08-2009 08:15:04 14.7 C 8.69 g/m*3 14.7 C 0 km/h
Sensor: Nr:Datum:Temp:Abs-Feuchte:Windchill:Wind:
Aussen-T/F 2801 01-08-2009 08:27:04 14.7 C 8.56 g/m*3 14.7 C 0 km/h
2802 01-08-2009 08:39:04 14.7 C 8.56 g/m*3 14.7 C 0 km/h
2803 01-08-2009 08:51:04 14.9 C 8.54 g/m*3 14.9 C 0 km/h
2804 01-08-2009 09:03:02 15.5 C 8.46 g/m*3 15.5 C 0 km/h
2805 01-08-2009 09:15:01 16.2 C 8.27 g/m*3 16.2 C 0 km/h
2806 01-08-2009 09:27:01 17.3 C 8.25 g/m*3 17.3 C 0 km/h
2807 01-08-2009 09:39:02 18.2 C 7.77 g/m*3 18.2 C 0 km/h
2808 01-08-2009 09:51:01 18.6 C 7.8 g/m*3 18.6 C 0 km/h
2809 01-08-2009 10:03:01 19.3 C 7.63 g/m*3 19.3 C 0 km/h
2810 01-08-2009 10:15:01 20.1 C 7.82 g/m*3 20.1 C 0 km/h
2811 01-08-2009 10:27:01 21.1 C 7.74 g/m*3 21.1 C 0 km/h
2812 01-08-2009 10:39:01 22 C 7.38 g/m*3 22 C 0 km/h
2813 01-08-2009 10:51:00 23.1 C 7.23 g/m*3 23.1 C 0 km/h
2814 01-08-2009 11:03:01 23.6 C 8.08 g/m*3 23.6 C 0 km/h
2815 01-08-2009 11:15:01 23.5 C 7.4 g/m*3 23.5 C 0 km/h
2816 01-08-2009 11:27:01 23.4 C 7.57 g/m*3 23.4 C 0 km/h
2817 01-08-2009 11:39:00 24.1 C 7.66 g/m*3 24.1 C 0 km/h
2818 01-08-2009 11:51:00 24.3 C 7.75 g/m*3 24.3 C 0 km/h
2819 01-08-2009 12:03:00 25.5 C 7.81 g/m*3 25.5 C 0 km/h
2820 01-08-2009 12:15:00 26.7 C 8.1 g/m*3 26.7 C 0 km/h
2821 01-08-2009 12:27:01 26.8 C 8.14 g/m*3 26.8 C 0 km/h
2822 01-08-2009 12:39:59 26.3 C 8.42 g/m*3 26.3 C 0 km/h
2823 01-08-2009 12:51:00 26.7 C 8.1 g/m*3 26.7 C 0 km/h
2824 01-08-2009 13:03:59 26.7 C 7.85 g/m*3 26.7 C 0 km/h
2825 01-08-2009 13:15:59 28 C 8.16 g/m*3 28 C 0 km/h
Sensor: Nr:Datum:Temp:Abs-Feuchte:Windchill:Wind:
Aussen-T/F 2826 01-08-2009 13:27:59 28.1 C 8.2 g/m*3 28.1 C 0 km/h
2827 01-08-2009 13:39:00 28.2 C 8.52 g/m*3 28.2 C 0 km/h
2828 01-08-2009 13:51:59 28.7 C 8.19 g/m*3 28.7 C 0 km/h
2829 01-08-2009 14:03:59 29.7 C 8.65 g/m*3 29.7 C 0 km/h
2830 01-08-2009 14:15:58 30.2 C 7.97 g/m*3 30.2 C 0 km/h
2831 01-08-2009 14:27:58 29.9 C 7.54 g/m*3 29.9 C 0 km/h
2832 01-08-2009 14:39:59 30.4 C 8.06 g/m*3 30.4 C 0 km/h
2833 01-08-2009 14:51:58 31.2 C 7.12 g/m*3 31.2 C 0 km/h
2834 01-08-2009 15:03:58 30.4 C 7.75 g/m*3 30.4 C 0 km/h
2835 01-08-2009 15:15:59 30.9 C 7.32 g/m*3 30.9 C 0 km/h
2836 01-08-2009 15:27:59 31 C 7.36 g/m*3 31 C 0 km/h
2837 01-08-2009 15:39:58 31.4 C 6.87 g/m*3 31.4 C 0 km/h
2838 01-08-2009 15:51:58 31.5 C 6.57 g/m*3 31.5 C 0 km/h
2839 01-08-2009 16:03:58 31.8 C 6.68 g/m*3 31.8 C 0 km/h
2840 01-08-2009 16:15:58 32.1 C 6.79 g/m*3 32.1 C 0 km/h
2841 01-08-2009 16:27:58 32.6 C 6.97 g/m*3 32.6 C 0 km/h
2842 01-08-2009 16:39:57 32.6 C 6.97 g/m*3 32.6 C 0 km/h
2843 01-08-2009 16:51:58 32.3 C 6.86 g/m*3 32.3 C 0 km/h
2844 01-08-2009 17:03:57 32.7 C 7.01 g/m*3 32.7 C 0 km/h
2845 01-08-2009 17:15:57 32.4 C 6.9 g/m*3 32.4 C 0 km/h
2846 01-08-2009 17:27:57 31.8 C 6.68 g/m*3 31.8 C 0 km/h
2847 01-08-2009 17:39:57 32.4 C 6.9 g/m*3 32.4 C 0 km/h
2848 01-08-2009 17:51:57 32.9 C 7.08 g/m*3 32.9 C 0 km/h
2849 01-08-2009 18:03:57 33.2 C 7.2 g/m*3 33.2 C 0 km/h
2850 01-08-2009 18:15:56 33.2 C 7.2 g/m*3 33.2 C 0 km/h
Sensor: Nr:Datum:Temp:Abs-Feuchte:Windchill:Wind:
Aussen-T/F 2851 01-08-2009 18:27:56 32.9 C 7.08 g/m*3 32.9 C 0 km/h
2852 01-08-2009 18:39:57 33.2 C 7.2 g/m*3 33.2 C 0 km/h
2853 01-08-2009 18:51:56 33 C 7.12 g/m*3 33 C 0 km/h
2854 01-08-2009 19:03:56 32.5 C 6.93 g/m*3 32.5 C 0 km/h
2855 01-08-2009 19:15:55 32.2 C 6.82 g/m*3 32.2 C 0 km/h
2856 01-08-2009 19:27:55 32.3 C 6.86 g/m*3 32.3 C 0 km/h
2857 01-08-2009 19:39:56 31.1 C 8.37 g/m*3 31.1 C 0 km/h
2858 01-08-2009 19:51:55 29.7 C 9.25 g/m*3 29.7 C 0 km/h
2859 01-08-2009 20:03:55 29.6 C 9.2 g/m*3 29.6 C 0 km/h
2860 01-08-2009 20:15:56 28.9 C 9.43 g/m*3 28.9 C 0 km/h
2861 01-08-2009 20:27:56 28.1 C 9.57 g/m*3 28.1 C 0 km/h
2862 01-08-2009 20:39:55 27.2 C 9.37 g/m*3 27.2 C 0 km/h
2863 01-08-2009 20:51:55 26.5 C 9.26 g/m*3 26.5 C 0 km/h
2864 01-08-2009 21:03:55 25.7 C 9.34 g/m*3 25.7 C 0 km/h
2865 01-08-2009 21:15:55 25.3 C 9.36 g/m*3 25.3 C 0 km/h
2866 01-08-2009 21:27:55 24.6 C 9.45 g/m*3 24.6 C 0 km/h
2867 01-08-2009 21:39:54 24.3 C 9.29 g/m*3 24.3 C 0 km/h
2868 01-08-2009 21:52:55 24 C 9.14 g/m*3 24 C 0 km/h
2869 01-08-2009 22:04:55 23.7 C 9.41 g/m*3 23.7 C 0 km/h
2870 01-08-2009 22:16:55 23.6 C 9.15 g/m*3 23.6 C 0 km/h
2871 01-08-2009 22:28:55 23.2 C 9.36 g/m*3 23.2 C 0 km/h
2872 01-08-2009 22:40:55 23.2 C 9.36 g/m*3 23.2 C 0 km/h
2873 01-08-2009 22:52:55 22.8 C 9.55 g/m*3 22.8 C 0 km/h
2874 01-08-2009 23:04:55 22.6 C 9.64 g/m*3 22.6 C 0 km/h
2875 01-08-2009 23:16:55 22.6 C 9.64 g/m*3 22.6 C 0 km/h
Sensor: Nr:Datum:Temp:Abs-Feuchte:Windchill:Wind:
Aussen-T/F 2876 01-08-2009 23:28:55 22.8 C 9.55 g/m*3 22.8 C 0 km/h
2877 01-08-2009 23:40:55 22.6 C 9.64 g/m*3 22.6 C 0 km/h
2878 01-08-2009 23:52:55 22.4 C 9.73 g/m*3 22.4 C 0 km/h
2879 02-08-2009 00:04:55 22 C 9.51 g/m*3 22 C 0 km/h
2880 02-08-2009 00:16:55 22 C 9.7 g/m*3 22 C 0 km/h
2881 02-08-2009 00:28:55 21.7 C 9.54 g/m*3 21.7 C 0 km/h
2882 02-08-2009 00:40:55 21.2 C 9.45 g/m*3 21.2 C 0 km/h
2883 02-08-2009 00:52:55 21 C 9.71 g/m*3 21 C 0 km/h
2884 02-08-2009 01:04:56 20.8 C 9.78 g/m*3 20.8 C 0 km/h
2885 02-08-2009 01:16:56 20.5 C 9.43 g/m*3 20.5 C 0 km/h
2886 02-08-2009 01:28:56 20.2 C 9.97 g/m*3 20.2 C 0 km/h
2887 02-08-2009 01:40:56 19.8 C 10.25 g/m*3 19.8 C 0 km/h
2888 02-08-2009 01:52:56 19.7 C 9.85 g/m*3 19.7 C 0 km/h
2889 02-08-2009 02:04:56 19.4 C 9.84 g/m*3 19.4 C 0 km/h
2890 02-08-2009 02:16:56 19.2 C 9.89 g/m*3 19.2 C 0 km/h
2891 02-08-2009 02:28:56 19.1 C 10 g/m*3 19.1 C 0 km/h
2892 02-08-2009 02:40:56 18.9 C 10.04 g/m*3 18.9 C 0 km/h
2893 02-08-2009 02:52:56 18.8 C 9.99 g/m*3 18.8 C 0 km/h
2894 02-08-2009 03:04:56 18.6 C 10.03 g/m*3 18.6 C 0 km/h
2895 02-08-2009 03:16:56 18.5 C 10.28 g/m*3 18.5 C 0 km/h
2896 02-08-2009 03:28:56 18.6 C 10.5 g/m*3 18.6 C 0 km/h
2897 02-08-2009 03:40:56 18.7 C 10.41 g/m*3 18.7 C 0 km/h
2898 02-08-2009 03:52:56 18.9 C 10.37 g/m*3 18.9 C 0 km/h
2899 02-08-2009 04:04:56 18.1 C 10.82 g/m*3 18.1 C 0 km/h
2900 02-08-2009 04:16:56 17.2 C 11.57 g/m*3 17.2 C 0 km/h
Sensor: Nr:Datum:Temp:Abs-Feuchte:Windchill:Wind:
Aussen-T/F 2901 02-08-2009 04:28:56 17.4 C 12.15 g/m*3 17.4 C 0 km/h
2902 02-08-2009 04:40:56 17.2 C 12.15 g/m*3 17.2 C 0 km/h
2903 02-08-2009 04:52:57 17.3 C 12.52 g/m*3 17.3 C 0 km/h
2904 02-08-2009 05:04:57 17.1 C 12.37 g/m*3 17.1 C 0 km/h
2905 02-08-2009 05:16:57 17.6 C 12.9 g/m*3 17.6 C 0 km/h
2906 02-08-2009 05:28:57 17.6 C 12.45 g/m*3 17.6 C 0 km/h
2907 02-08-2009 05:40:57 17.4 C 12.15 g/m*3 17.4 C 0 km/h
2908 02-08-2009 05:52:57 17.5 C 12.37 g/m*3 17.5 C 0 km/h
2909 02-08-2009 06:04:57 17.6 C 12.6 g/m*3 17.6 C 0 km/h
2910 02-08-2009 06:16:57 17.6 C 12.6 g/m*3 17.6 C 0 km/h
2911 02-08-2009 06:28:57 17.3 C 12.52 g/m*3 17.3 C 0 km/h
2912 02-08-2009 06:40:57 17.3 C 12.67 g/m*3 17.3 C 0 km/h
2913 02-08-2009 06:52:57 17.5 C 12.82 g/m*3 17.5 C 0 km/h
2914 02-08-2009 07:04:57 17.8 C 13.2 g/m*3 17.8 C 0 km/h
2915 02-08-2009 07:16:57 18 C 13.21 g/m*3 18 C 0 km/h
2916 02-08-2009 07:28:57 18 C 13.06 g/m*3 18 C 0 km/h
2917 02-08-2009 07:40:57 18.1 C 13.13 g/m*3 18.1 C 0 km/h
2918 02-08-2009 07:52:57 18.5 C 13.29 g/m*3 18.5 C 0 km/h
2919 02-08-2009 08:04:57 18.9 C 13.61 g/m*3 18.9 C 0 km/h
2920 02-08-2009 08:16:57 19.4 C 13.68 g/m*3 19.4 C 0 km/h
2921 02-08-2009 08:28:57 19.5 C 13.59 g/m*3 19.5 C 0 km/h
2922 02-08-2009 08:40:58 20.6 C 11.99 g/m*3 20.6 C 0 km/h
2923 02-08-2009 08:52:58 20.9 C 11.66 g/m*3 20.9 C 0 km/h
2924 02-08-2009 09:04:55 20.9 C 11.84 g/m*3 20.9 C 0 km/h
2925 02-08-2009 09:16:55 21.1 C 11.24 g/m*3 21.1 C 0 km/h
Sensor: Nr:Datum:Temp:Abs-Feuchte:Windchill:Wind:
Aussen-T/F 2926 02-08-2009 09:28:55 21.4 C 11.25 g/m*3 21.4 C 0 km/h
2927 02-08-2009 09:40:55 21.4 C 10.87 g/m*3 21.4 C 0 km/h
2928 02-08-2009 09:52:54 21.7 C 11.06 g/m*3 21.7 C 0 km/h
2929 02-08-2009 10:04:55 21.9 C 11 g/m*3 21.9 C 0 km/h
2930 02-08-2009 10:16:54 22 C 10.87 g/m*3 22 C 0 km/h
2931 02-08-2009 10:28:54 22.1 C 10.74 g/m*3 22.1 C 0 km/h
2932 02-08-2009 10:40:54 22.3 C 10.66 g/m*3 22.3 C 0 km/h
2933 02-08-2009 10:52:54 22.3 C 10.66 g/m*3 22.3 C 0 km/h
2934 02-08-2009 11:04:54 22.2 C 10.41 g/m*3 22.2 C 0 km/h
2935 02-08-2009 11:16:54 22.5 C 10.39 g/m*3 22.5 C 0 km/h
2936 02-08-2009 11:28:54 22.9 C 10.63 g/m*3 22.9 C 0 km/h
2937 02-08-2009 11:40:53 23 C 10.48 g/m*3 23 C 0 km/h
2938 02-08-2009 11:52:54 22.5 C 10.59 g/m*3 22.5 C 0 km/h
2939 02-08-2009 12:04:53 22.9 C 10.83 g/m*3 22.9 C 0 km/h
2940 02-08-2009 12:16:53 22.5 C 10.39 g/m*3 22.5 C 0 km/h
2941 02-08-2009 12:28:53 21.6 C 11 g/m*3 21.6 C 0 km/h
2942 02-08-2009 12:40:53 21.2 C 11.68 g/m*3 21.2 C 0 km/h
2943 02-08-2009 12:52:53 22.2 C 11.39 g/m*3 22.2 C 0 km/h
2944 02-08-2009 13:04:53 22.5 C 10.99 g/m*3 22.5 C 0 km/h
2945 02-08-2009 13:16:52 23.1 C 10.75 g/m*3 23.1 C 0 km/h
2946 02-08-2009 13:28:52 23.7 C 10.69 g/m*3 23.7 C 0 km/h
2947 02-08-2009 13:40:53 24.3 C 10.62 g/m*3 24.3 C 0 km/h
2948 02-08-2009 13:52:52 24.4 C 10.24 g/m*3 24.4 C 0 km/h
2949 02-08-2009 14:04:52 24.5 C 9.85 g/m*3 24.5 C 0 km/h
2950 02-08-2009 14:16:52 24.7 C 9.73 g/m*3 24.7 C 0 km/h
Sensor: Nr:Datum:Temp:Abs-Feuchte:Windchill:Wind:
Aussen-T/F 2951 02-08-2009 14:28:52 25.5 C 9.71 g/m*3 25.5 C 0 km/h
2952 02-08-2009 14:40:52 25.7 C 9.34 g/m*3 25.7 C 0 km/h
2953 02-08-2009 14:52:51 25.6 C 9.28 g/m*3 25.6 C 0 km/h
2954 02-08-2009 15:04:52 25.8 C 9.15 g/m*3 25.8 C 0 km/h
2955 02-08-2009 15:16:52 25.5 C 9.23 g/m*3 25.5 C 0 km/h
2956 02-08-2009 15:28:52 24.3 C 9.52 g/m*3 24.3 C 0 km/h
2957 02-08-2009 15:40:51 24.9 C 9.61 g/m*3 24.9 C 0 km/h
2958 02-08-2009 15:52:52 24 C 9.57 g/m*3 24 C 0 km/h
2959 02-08-2009 16:04:51 23.4 C 9.88 g/m*3 23.4 C 0 km/h
2960 02-08-2009 16:16:51 23.3 C 10.45 g/m*3 23.3 C 0 km/h
2961 02-08-2009 16:28:52 23.1 C 10.54 g/m*3 23.1 C 0 km/h
2962 02-08-2009 16:40:50 22.9 C 11.04 g/m*3 22.9 C 0 km/h
2963 02-08-2009 16:52:51 22.5 C 10.59 g/m*3 22.5 C 0 km/h
2964 02-08-2009 17:04:51 21.9 C 10.42 g/m*3 21.9 C 0 km/h
2965 02-08-2009 17:16:50 21.8 C 10.55 g/m*3 21.8 C 0 km/h
2966 02-08-2009 17:28:50 21.7 C 10.68 g/m*3 21.7 C 0 km/h
2967 02-08-2009 17:40:51 21.6 C 11.19 g/m*3 21.6 C 0 km/h
2968 02-08-2009 17:52:50 21.9 C 11.39 g/m*3 21.9 C 0 km/h
2969 02-08-2009 18:04:50 22 C 10.87 g/m*3 22 C 0 km/h
2970 02-08-2009 18:16:50 21.9 C 11 g/m*3 21.9 C 0 km/h
2971 02-08-2009 18:28:50 21 C 10.44 g/m*3 21 C 0 km/h
2972 02-08-2009 18:40:50 20.9 C 10.75 g/m*3 20.9 C 0 km/h
2973 02-08-2009 18:52:49 21.5 C 10.56 g/m*3 21.5 C 0 km/h
2974 02-08-2009 19:04:49 21.4 C 10.12 g/m*3 21.4 C 0 km/h
2975 02-08-2009 19:16:50 20.2 C 10.14 g/m*3 20.2 C 0 km/h
Sensor: Nr:Datum:Temp:Abs-Feuchte:Windchill:Wind:
Aussen-T/F 2976 02-08-2009 19:28:50 19.8 C 10.08 g/m*3 19.8 C 0 km/h
2977 02-08-2009 19:40:49 20.4 C 10.26 g/m*3 20.4 C 0 km/h
2978 02-08-2009 19:52:49 21.2 C 9.82 g/m*3 21.2 C 0 km/h
2979 02-08-2009 20:04:49 21.1 C 9.95 g/m*3 21.1 C 0 km/h
2980 02-08-2009 20:16:49 21.1 C 9.77 g/m*3 21.1 C 0 km/h
2981 02-08-2009 20:28:49 20.6 C 9.84 g/m*3 20.6 C 0 km/h
2982 02-08-2009 20:40:48 20.2 C 9.44 g/m*3 20.2 C 0 km/h
2983 02-08-2009 20:52:49 19.7 C 9.51 g/m*3 19.7 C 0 km/h
2984 02-08-2009 21:04:49 19.4 C 9.34 g/m*3 19.4 C 0 km/h
2985 02-08-2009 21:16:48 19 C 9.29 g/m*3 19 C 0 km/h
2986 02-08-2009 21:28:48 18.4 C 9.44 g/m*3 18.4 C 0 km/h
2987 02-08-2009 21:40:48 18.3 C 9.69 g/m*3 18.3 C 0 km/h
2988 02-08-2009 21:53:49 17.9 C 9.77 g/m*3 17.9 C 0 km/h
2989 02-08-2009 22:05:49 17.7 C 9.96 g/m*3 17.7 C 0 km/h
2990 02-08-2009 22:17:50 17.5 C 9.99 g/m*3 17.5 C 0 km/h
2991 02-08-2009 22:29:50 17.5 C 9.99 g/m*3 17.5 C 0 km/h
2992 02-08-2009 22:41:50 17.2 C 9.96 g/m*3 17.2 C 0 km/h
2993 02-08-2009 22:53:50 16.9 C 10.07 g/m*3 16.9 C 0 km/h
2994 02-08-2009 23:05:50 16.7 C 10.09 g/m*3 16.7 C 0 km/h
2995 02-08-2009 23:17:50 16.4 C 10.05 g/m*3 16.4 C 0 km/h
2996 02-08-2009 23:29:50 16.2 C 10.07 g/m*3 16.2 C 0 km/h
2997 02-08-2009 23:41:50 16.1 C 10.01 g/m*3 16.1 C 0 km/h
2998 02-08-2009 23:53:50 16.2 C 10.2 g/m*3 16.2 C 0 km/h
2999 03-08-2009 00:05:50 16.2 C 10.2 g/m*3 16.2 C 0 km/h
3000 03-08-2009 00:17:50 16.4 C 10.33 g/m*3 16.4 C 0 km/h
Sensor: Nr:Datum:Temp:Abs-Feuchte:Windchill:Wind:
Aussen-T/F 3001 03-08-2009 00:29:50 16.6 C 10.31 g/m*3 16.6 C 0 km/h
3002 03-08-2009 00:41:50 16.7 C 10.37 g/m*3 16.7 C 0 km/h
3003 03-08-2009 00:53:50 16.8 C 10.44 g/m*3 16.8 C 0 km/h
3004 03-08-2009 01:05:50 16.7 C 10.37 g/m*3 16.7 C 0 km/h
3005 03-08-2009 01:17:50 16.4 C 10.33 g/m*3 16.4 C 0 km/h
3006 03-08-2009 01:29:50 16.3 C 10.41 g/m*3 16.3 C 0 km/h
3007 03-08-2009 01:41:50 16.2 C 10.48 g/m*3 16.2 C 0 km/h
3008 03-08-2009 01:53:50 16.2 C 10.34 g/m*3 16.2 C 0 km/h
3009 03-08-2009 02:05:50 16.3 C 10.41 g/m*3 16.3 C 0 km/h
3010 03-08-2009 02:17:51 16.3 C 10.41 g/m*3 16.3 C 0 km/h
3011 03-08-2009 02:29:51 16.3 C 10.41 g/m*3 16.3 C 0 km/h
3012 03-08-2009 02:41:51 16.4 C 10.33 g/m*3 16.4 C 0 km/h
3013 03-08-2009 02:53:51 16.4 C 10.33 g/m*3 16.4 C 0 km/h
3014 03-08-2009 03:05:51 16.4 C 10.33 g/m*3 16.4 C 0 km/h
3015 03-08-2009 03:17:51 16.4 C 10.33 g/m*3 16.4 C 0 km/h
3016 03-08-2009 03:29:51 16.5 C 10.39 g/m*3 16.5 C 0 km/h
3017 03-08-2009 03:41:51 16.4 C 10.47 g/m*3 16.4 C 0 km/h
3018 03-08-2009 03:53:51 16.2 C 10.62 g/m*3 16.2 C 0 km/h
3019 03-08-2009 04:05:51 16.3 C 10.68 g/m*3 16.3 C 0 km/h
3020 03-08-2009 04:17:51 16.4 C 10.61 g/m*3 16.4 C 0 km/h
3021 03-08-2009 04:29:51 16.3 C 10.54 g/m*3 16.3 C 0 km/h
3022 03-08-2009 04:41:51 16.2 C 10.48 g/m*3 16.2 C 0 km/h
3023 03-08-2009 04:53:51 16 C 10.49 g/m*3 16 C 0 km/h
3024 03-08-2009 05:05:51 15.8 C 10.77 g/m*3 15.8 C 0 km/h
3025 03-08-2009 05:17:51 15.7 C 10.97 g/m*3 15.7 C 0 km/h
Sensor: Nr:Datum:Temp:Abs-Feuchte:Windchill:Wind:
Aussen-T/F 3026 03-08-2009 05:29:51 15.5 C 10.97 g/m*3 15.5 C 0 km/h
3027 03-08-2009 05:41:51 15.4 C 11.04 g/m*3 15.4 C 0 km/h
3028 03-08-2009 05:53:51 15.2 C 11.03 g/m*3 15.2 C 0 km/h
3029 03-08-2009 06:05:51 15.2 C 11.16 g/m*3 15.2 C 0 km/h
3030 03-08-2009 06:17:52 15.2 C 11.29 g/m*3 15.2 C 0 km/h
3031 03-08-2009 06:29:52 15.2 C 11.29 g/m*3 15.2 C 0 km/h
3032 03-08-2009 06:41:52 15.2 C 11.42 g/m*3 15.2 C 0 km/h
3033 03-08-2009 06:53:52 15.2 C 11.42 g/m*3 15.2 C 0 km/h
3034 03-08-2009 07:05:48 15.3 C 11.49 g/m*3 15.3 C 0 km/h
3035 03-08-2009 07:17:48 15.4 C 11.56 g/m*3 15.4 C 0 km/h
3036 03-08-2009 07:29:49 15.7 C 11.77 g/m*3 15.7 C 0 km/h
3037 03-08-2009 07:41:48 15.9 C 11.78 g/m*3 15.9 C 0 km/h
3038 03-08-2009 07:53:48 16 C 11.58 g/m*3 16 C 0 km/h
3039 03-08-2009 08:05:47 16.3 C 11.79 g/m*3 16.3 C 0 km/h
3040 03-08-2009 08:17:48 16.4 C 11.45 g/m*3 16.4 C 0 km/h
3041 03-08-2009 08:29:48 16.6 C 11.16 g/m*3 16.6 C 0 km/h
3042 03-08-2009 08:41:48 16.8 C 11.15 g/m*3 16.8 C 0 km/h
3043 03-08-2009 08:53:47 17 C 11.14 g/m*3 17 C 0 km/h
3044 03-08-2009 09:05:48 17.1 C 11.21 g/m*3 17.1 C 0 km/h
3045 03-08-2009 09:17:47 17.1 C 10.92 g/m*3 17.1 C 0 km/h
3046 03-08-2009 09:29:47 17.5 C 10.88 g/m*3 17.5 C 0 km/h
3047 03-08-2009 09:41:47 17.8 C 10.17 g/m*3 17.8 C 0 km/h
3048 03-08-2009 09:53:47 18.1 C 10.2 g/m*3 18.1 C 0 km/h
3049 03-08-2009 10:05:47 18.4 C 10.07 g/m*3 18.4 C 0 km/h
3050 03-08-2009 10:17:46 18.7 C 9.93 g/m*3 18.7 C 0 km/h
Sensor: Nr:Datum:Temp:Abs-Feuchte:Windchill:Wind:
Aussen-T/F 3051 03-08-2009 10:29:46 19.4 C 9.51 g/m*3 19.4 C 0 km/h
3052 03-08-2009 10:41:47 20.2 C 9.09 g/m*3 20.2 C 0 km/h
3053 03-08-2009 10:53:46 21.1 C 9.03 g/m*3 21.1 C 0 km/h
3054 03-08-2009 11:05:46 21.5 C 9.24 g/m*3 21.5 C 0 km/h
3055 03-08-2009 11:17:46 22.4 C 8.94 g/m*3 22.4 C 0 km/h
3056 03-08-2009 11:29:46 22.7 C 8.28 g/m*3 22.7 C 0 km/h
3057 03-08-2009 11:41:46 23.1 C 7.65 g/m*3 23.1 C 0 km/h
3058 03-08-2009 11:53:46 24 C 6.96 g/m*3 24 C 0 km/h
3059 03-08-2009 12:05:45 23.3 C 7.53 g/m*3 23.3 C 0 km/h
3060 03-08-2009 12:17:46 22.1 C 7.22 g/m*3 22.1 C 0 km/h
3061 03-08-2009 12:29:46 21.5 C 7.73 g/m*3 21.5 C 0 km/h
3062 03-08-2009 12:41:45 21.2 C 7.41 g/m*3 21.2 C 0 km/h
3063 03-08-2009 12:53:45 21.4 C 7.31 g/m*3 21.4 C 0 km/h
3064 03-08-2009 13:05:45 21.6 C 7.78 g/m*3 21.6 C 0 km/h
3065 03-08-2009 13:17:45 22 C 8.15 g/m*3 22 C 0 km/h
3066 03-08-2009 13:29:45 22 C 7.76 g/m*3 22 C 0 km/h
3067 03-08-2009 13:41:45 22.7 C 7.88 g/m*3 22.7 C 0 km/h
3068 03-08-2009 13:53:45 24.5 C 7.39 g/m*3 24.5 C 0 km/h
3069 03-08-2009 14:05:45 25.4 C 7.06 g/m*3 25.4 C 0 km/h
3070 03-08-2009 14:17:44 25.5 C 7.1 g/m*3 25.5 C 0 km/h
3071 03-08-2009 14:29:44 25.4 C 6.59 g/m*3 25.4 C 0 km/h
3072 03-08-2009 14:41:44 25.7 C 6.7 g/m*3 25.7 C 0 km/h
3073 03-08-2009 14:53:44 26.4 C 6.47 g/m*3 26.4 C 0 km/h
3074 03-08-2009 15:05:44 26.3 C 6.44 g/m*3 26.3 C 0 km/h
3075 03-08-2009 15:17:44 26.6 C 6.29 g/m*3 26.6 C 0 km/h
Sensor: Nr:Datum:Temp:Abs-Feuchte:Windchill:Wind:
Aussen-T/F 3076 03-08-2009 15:29:44 26.8 C 5.6 g/m*3 26.8 C 0 km/h
3077 03-08-2009 15:41:44 27 C 5.4 g/m*3 27 C 0 km/h
3078 03-08-2009 15:53:44 26.9 C 6.14 g/m*3 26.9 C 0 km/h
3079 03-08-2009 16:05:43 27.1 C 6.21 g/m*3 27.1 C 0 km/h
3080 03-08-2009 16:17:43 26.4 C 6.22 g/m*3 26.4 C 0 km/h
3081 03-08-2009 16:29:43 24.7 C 5.88 g/m*3 24.7 C 0 km/h
3082 03-08-2009 16:41:43 24.2 C 5.94 g/m*3 24.2 C 0 km/h
3083 03-08-2009 16:53:43 23.1 C 6.41 g/m*3 23.1 C 0 km/h
3084 03-08-2009 17:05:43 22.6 C 6.83 g/m*3 22.6 C 0 km/h
3085 03-08-2009 17:17:43 21.8 C 6.91 g/m*3 21.8 C 0 km/h
3086 03-08-2009 17:29:43 21.7 C 6.87 g/m*3 21.7 C 0 km/h
3087 03-08-2009 17:41:42 21.2 C 6.86 g/m*3 21.2 C 0 km/h
3088 03-08-2009 17:53:43 20.8 C 7.06 g/m*3 20.8 C 0 km/h
3089 03-08-2009 18:05:43 20.9 C 7.29 g/m*3 20.9 C 0 km/h
3090 03-08-2009 18:17:42 21.2 C 7.41 g/m*3 21.2 C 0 km/h
3091 03-08-2009 18:29:42 21.3 C 7.46 g/m*3 21.3 C 0 km/h
3092 03-08-2009 18:41:42 21.3 C 7.27 g/m*3 21.3 C 0 km/h
3093 03-08-2009 18:53:42 21.3 C 7.64 g/m*3 21.3 C 0 km/h
3094 03-08-2009 19:05:42 21 C 7.33 g/m*3 21 C 0 km/h
3095 03-08-2009 19:17:41 20.8 C 7.42 g/m*3 20.8 C 0 km/h
3096 03-08-2009 19:29:41 20.8 C 7.42 g/m*3 20.8 C 0 km/h
3097 03-08-2009 19:41:42 20.5 C 7.3 g/m*3 20.5 C 0 km/h
3098 03-08-2009 19:53:41 20.4 C 7.43 g/m*3 20.4 C 0 km/h
3099 03-08-2009 20:05:41 20.1 C 7.47 g/m*3 20.1 C 0 km/h
3100 03-08-2009 20:17:41 19.8 C 7.69 g/m*3 19.8 C 0 km/h
Sensor: Nr:Datum:Temp:Abs-Feuchte:Windchill:Wind:
Aussen-T/F 3101 03-08-2009 20:29:41 19.9 C 8.08 g/m*3 19.9 C 0 km/h
3102 03-08-2009 20:41:41 19.7 C 7.81 g/m*3 19.7 C 0 km/h
3103 03-08-2009 20:53:41 19.5 C 7.72 g/m*3 19.5 C 0 km/h
3104 03-08-2009 21:05:40 19.2 C 7.59 g/m*3 19.2 C 0 km/h
3105 03-08-2009 21:17:41 19 C 7.66 g/m*3 19 C 0 km/h
3106 03-08-2009 21:29:42 18.9 C 7.78 g/m*3 18.9 C 0 km/h
3107 03-08-2009 21:42:41 18.7 C 7.84 g/m*3 18.7 C 0 km/h
3108 03-08-2009 21:54:41 18.3 C 7.82 g/m*3 18.3 C 0 km/h
3109 03-08-2009 22:06:42 18.1 C 7.88 g/m*3 18.1 C 0 km/h
3110 03-08-2009 22:18:42 17.9 C 7.63 g/m*3 17.9 C 0 km/h
3111 03-08-2009 22:30:42 17.8 C 8.2 g/m*3 17.8 C 0 km/h
3112 03-08-2009 22:42:42 17.7 C 9.05 g/m*3 17.7 C 0 km/h
3113 03-08-2009 22:54:42 17.6 C 9.15 g/m*3 17.6 C 0 km/h
3114 03-08-2009 23:06:42 17.3 C 9.28 g/m*3 17.3 C 0 km/h
3115 03-08-2009 23:18:42 17.1 C 9.32 g/m*3 17.1 C 0 km/h
3116 03-08-2009 23:30:42 16.8 C 9.29 g/m*3 16.8 C 0 km/h
3117 03-08-2009 23:42:42 16.4 C 9.49 g/m*3 16.4 C 0 km/h
3118 03-08-2009 23:54:42 16.3 C 9.3 g/m*3 16.3 C 0 km/h
3119 04-08-2009 00:06:42 15.9 C 9.48 g/m*3 15.9 C 0 km/h
3120 04-08-2009 00:18:42 15.6 C 9.58 g/m*3 15.6 C 0 km/h
3121 04-08-2009 00:30:42 15.4 C 9.59 g/m*3 15.4 C 0 km/h
3122 04-08-2009 00:42:42 15.1 C 9.42 g/m*3 15.1 C 0 km/h
3123 04-08-2009 00:54:42 14.9 C 9.43 g/m*3 14.9 C 0 km/h
3124 04-08-2009 01:06:42 14.7 C 9.32 g/m*3 14.7 C 0 km/h
3125 04-08-2009 01:18:42 14.5 C 9.33 g/m*3 14.5 C 0 km/h
Sensor: Nr:Datum:Temp:Abs-Feuchte:Windchill:Wind:
Aussen-T/F 3126 04-08-2009 01:30:42 14.2 C 9.28 g/m*3 14.2 C 0 km/h
3127 04-08-2009 01:42:42 14.1 C 9.34 g/m*3 14.1 C 0 km/h
3128 04-08-2009 01:54:42 14 C 9.41 g/m*3 14 C 0 km/h
3129 04-08-2009 02:06:43 13.8 C 9.65 g/m*3 13.8 C 0 km/h
3130 04-08-2009 02:18:43 13.7 C 9.71 g/m*3 13.7 C 0 km/h
3131 04-08-2009 02:30:43 13.4 C 9.65 g/m*3 13.4 C 0 km/h
3132 04-08-2009 02:42:43 13.2 C 9.53 g/m*3 13.2 C 0 km/h
3133 04-08-2009 02:54:43 13 C 9.41 g/m*3 13 C 0 km/h
3134 04-08-2009 03:06:43 12.9 C 9.47 g/m*3 12.9 C 0 km/h
3135 04-08-2009 03:18:43 13 C 9.53 g/m*3 13 C 0 km/h
3136 04-08-2009 03:30:43 13 C 9.64 g/m*3 13 C 0 km/h
3137 04-08-2009 03:42:43 12.9 C 9.69 g/m*3 12.9 C 0 km/h
3138 04-08-2009 03:54:43 12.9 C 9.81 g/m*3 12.9 C 0 km/h
3139 04-08-2009 04:06:43 12.8 C 9.74 g/m*3 12.8 C 0 km/h
3140 04-08-2009 04:18:43 12.7 C 9.57 g/m*3 12.7 C 0 km/h
3141 04-08-2009 04:30:43 12.7 C 9.57 g/m*3 12.7 C 0 km/h
3142 04-08-2009 04:42:43 12.6 C 9.4 g/m*3 12.6 C 0 km/h
3143 04-08-2009 04:54:43 12.5 C 9.35 g/m*3 12.5 C 0 km/h
3144 04-08-2009 05:06:43 12.5 C 9.35 g/m*3 12.5 C 0 km/h
3145 04-08-2009 05:18:43 12.3 C 9.23 g/m*3 12.3 C 0 km/h
3146 04-08-2009 05:30:43 12.3 C 9.23 g/m*3 12.3 C 0 km/h
3147 04-08-2009 05:42:43 12.2 C 9.17 g/m*3 12.2 C 0 km/h
3148 04-08-2009 05:54:43 12.2 C 9.06 g/m*3 12.2 C 0 km/h
3149 04-08-2009 06:06:44 12.1 C 9.12 g/m*3 12.1 C 0 km/h
3150 04-08-2009 06:18:44 12.1 C 9.12 g/m*3 12.1 C 0 km/h
Sensor: Nr:Datum:Temp:Abs-Feuchte:Windchill:Wind:
Aussen-T/F 3151 04-08-2009 06:30:44 12.3 C 9.23 g/m*3 12.3 C 0 km/h
3152 04-08-2009 06:42:44 12.4 C 9.29 g/m*3 12.4 C 0 km/h
3153 04-08-2009 06:54:44 12.4 C 9.18 g/m*3 12.4 C 0 km/h
3154 04-08-2009 07:06:40 12.2 C 9.17 g/m*3 12.2 C 0 km/h
3155 04-08-2009 07:18:41 12 C 9.17 g/m*3 12 C 0 km/h
3156 04-08-2009 07:30:40 11.9 C 9.21 g/m*3 11.9 C 0 km/h
3157 04-08-2009 07:42:40 11.9 C 9.32 g/m*3 11.9 C 0 km/h
3158 04-08-2009 07:54:40 12.2 C 9.39 g/m*3 12.2 C 0 km/h
3159 04-08-2009 08:06:39 12.4 C 9.29 g/m*3 12.4 C 0 km/h
3160 04-08-2009 08:18:40 12.8 C 9.41 g/m*3 12.8 C 0 km/h
3161 04-08-2009 08:30:40 13.3 C 9.47 g/m*3 13.3 C 0 km/h
3162 04-08-2009 08:42:40 13.8 C 9.29 g/m*3 13.8 C 0 km/h
3163 04-08-2009 08:54:39 13.5 C 9.12 g/m*3 13.5 C 0 km/h
3164 04-08-2009 09:06:40 13.6 C 9.18 g/m*3 13.6 C 0 km/h
3165 04-08-2009 09:18:40 13.2 C 8.96 g/m*3 13.2 C 0 km/h
3166 04-08-2009 09:30:39 13.3 C 9.24 g/m*3 13.3 C 0 km/h
3167 04-08-2009 09:42:39 13.8 C 9.53 g/m*3 13.8 C 0 km/h
3168 04-08-2009 09:54:39 14.7 C 9.57 g/m*3 14.7 C 0 km/h
3169 04-08-2009 10:06:39 15.4 C 9.46 g/m*3 15.4 C 0 km/h
3170 04-08-2009 10:18:39 16.2 C 8.96 g/m*3 16.2 C 0 km/h
3171 04-08-2009 10:30:38 17.1 C 8.59 g/m*3 17.1 C 0 km/h
3172 04-08-2009 10:42:38 18.1 C 9.12 g/m*3 18.1 C 0 km/h
3173 04-08-2009 10:54:39 19 C 9.13 g/m*3 19 C 0 km/h
3174 04-08-2009 11:06:38 19.8 C 8.2 g/m*3 19.8 C 0 km/h
3175 04-08-2009 11:18:38 20.2 C 7.69 g/m*3 20.2 C 0 km/h
Sensor: Nr:Datum:Temp:Abs-Feuchte:Windchill:Wind:
Aussen-T/F 3176 04-08-2009 11:30:38 20.9 C 7.65 g/m*3 20.9 C 0 km/h
3177 04-08-2009 11:42:38 21.6 C 7.02 g/m*3 21.6 C 0 km/h
3178 04-08-2009 11:54:38 22.3 C 5.92 g/m*3 22.3 C 0 km/h
3179 04-08-2009 12:06:38 22.5 C 5.79 g/m*3 22.5 C 0 km/h
3180 04-08-2009 12:18:37 23 C 5.34 g/m*3 23 C 0 km/h
3181 04-08-2009 12:30:38 23.3 C 5.23 g/m*3 23.3 C 0 km/h
3182 04-08-2009 12:42:38 23.7 C 5.35 g/m*3 23.7 C 0 km/h
3183 04-08-2009 12:54:37 24.5 C 4.92 g/m*3 24.5 C 0 km/h
3184 04-08-2009 13:06:37 25.2 C 4.66 g/m*3 25.2 C 0 km/h
3185 04-08-2009 13:18:37 25.9 C 4.84 g/m*3 25.9 C 0 km/h
3186 04-08-2009 13:30:37 26.6 C 5.03 g/m*3 26.6 C 0 km/h
3187 04-08-2009 13:42:37 27.2 C 5.2 g/m*3 27.2 C 0 km/h
3188 04-08-2009 13:54:36 27.2 C 5.2 g/m*3 27.2 C 0 km/h
3189 04-08-2009 14:06:37 27.2 C 5.2 g/m*3 27.2 C 0 km/h
3190 04-08-2009 14:18:37 27.1 C 5.18 g/m*3 27.1 C 0 km/h
3191 04-08-2009 14:30:36 27.3 C 5.23 g/m*3 27.3 C 0 km/h
3192 04-08-2009 14:42:36 28 C 5.44 g/m*3 28 C 0 km/h
3193 04-08-2009 14:54:37 28.7 C 5.65 g/m*3 28.7 C 0 km/h
3194 04-08-2009 15:06:36 28.9 C 5.71 g/m*3 28.9 C 0 km/h
3195 04-08-2009 15:18:36 29.4 C 5.87 g/m*3 29.4 C 0 km/h
3196 04-08-2009 15:30:35 29.6 C 5.94 g/m*3 29.6 C 0 km/h
3197 04-08-2009 15:42:35 30.2 C 6.13 g/m*3 30.2 C 0 km/h
3198 04-08-2009 15:54:36 30.3 C 6.16 g/m*3 30.3 C 0 km/h
3199 04-08-2009 16:06:35 30.4 C 6.2 g/m*3 30.4 C 0 km/h
3200 04-08-2009 16:18:35 30.9 C 6.37 g/m*3 30.9 C 0 km/h
Sensor: Nr:Datum:Temp:Abs-Feuchte:Windchill:Wind:
Aussen-T/F 3201 04-08-2009 16:30:36 30.8 C 6.33 g/m*3 30.8 C 0 km/h
3202 04-08-2009 16:42:36 29.2 C 5.81 g/m*3 29.2 C 0 km/h
3203 04-08-2009 16:54:35 30.6 C 6.26 g/m*3 30.6 C 0 km/h
3204 04-08-2009 17:06:35 31.3 C 6.5 g/m*3 31.3 C 0 km/h
3205 04-08-2009 17:18:34 31.5 C 6.57 g/m*3 31.5 C 0 km/h
3206 04-08-2009 17:30:35 32.1 C 6.79 g/m*3 32.1 C 0 km/h
3207 04-08-2009 17:42:35 32 C 6.75 g/m*3 32 C 0 km/h
3208 04-08-2009 17:54:35 32.3 C 6.86 g/m*3 32.3 C 0 km/h
3209 04-08-2009 18:06:34 32.2 C 6.82 g/m*3 32.2 C 0 km/h
3210 04-08-2009 18:18:34 32 C 6.75 g/m*3 32 C 0 km/h
3211 04-08-2009 18:30:34 31.9 C 6.72 g/m*3 31.9 C 0 km/h
3212 04-08-2009 18:42:34 31 C 6.4 g/m*3 31 C 0 km/h
3213 04-08-2009 18:54:34 31.6 C 6.61 g/m*3 31.6 C 0 km/h
3214 04-08-2009 19:06:34 31.6 C 6.61 g/m*3 31.6 C 0 km/h
3215 04-08-2009 19:18:33 31.7 C 6.64 g/m*3 31.7 C 0 km/h
3216 04-08-2009 19:30:34 31.4 C 6.54 g/m*3 31.4 C 0 km/h
3217 04-08-2009 19:42:35 30.9 C 6.37 g/m*3 30.9 C 0 km/h
3218 04-08-2009 19:54:33 30.4 C 6.2 g/m*3 30.4 C 0 km/h
3219 04-08-2009 20:06:33 29.7 C 5.97 g/m*3 29.7 C 0 km/h
3220 04-08-2009 20:18:33 28.9 C 5.71 g/m*3 28.9 C 0 km/h
3221 04-08-2009 20:30:33 27.6 C 5.32 g/m*3 27.6 C 0 km/h
3222 04-08-2009 20:42:33 26.3 C 5.45 g/m*3 26.3 C 0 km/h
3223 04-08-2009 20:54:32 25.1 C 5.79 g/m*3 25.1 C 0 km/h
3224 04-08-2009 21:06:32 24 C 5.66 g/m*3 24 C 0 km/h
3225 04-08-2009 21:18:32 23.1 C 5.79 g/m*3 23.1 C 0 km/h
Sensor: Nr:Datum:Temp:Abs-Feuchte:Windchill:Wind:
Aussen-T/F 3226 04-08-2009 21:30:33 22.4 C 6.16 g/m*3 22.4 C 0 km/h
3227 04-08-2009 21:42:33 22 C 6.02 g/m*3 22 C 0 km/h
3228